Provisional Data: Chest Creek near Patton, PA


Please select a monitoring station.
Please select start date.
Please select start date.

Toggle Unit: C/F Toggle Unit: C/F
Sample Time Temperature (C) Temperature (F) Specific Conductivity (mS/cm) pH   Turbidity (NTU+) DO (mg/L)
10/17/2022 12:00:00 AM 8.98 48.164 0.244 7.33 4.74 9.86
10/17/2022 12:15:00 AM 8.96 48.128 0.244 7.33 4.75 9.86
10/17/2022 12:30:00 AM 8.93 48.074 0.244 7.32 4.6 9.86
10/17/2022 12:45:00 AM 8.91 48.038 0.244 7.32 4.69 9.85
10/17/2022 1:00:00 AM 8.89 48.002 0.245 7.33 5.04 9.85
10/17/2022 1:15:00 AM 8.86 47.948 0.245 7.32 4.65 9.85
10/17/2022 1:30:00 AM 8.83 47.894 0.245 7.32 4.73 9.85
10/17/2022 1:45:00 AM 8.81 47.858 0.245 7.32 4.78 9.85
10/17/2022 2:00:00 AM 8.78 47.804 0.245 7.32 4.59 9.85
10/17/2022 2:15:00 AM 8.76 47.768 0.245 7.32 4.78 9.84
10/17/2022 2:30:00 AM 8.73 47.714 0.245 7.32 4.57 9.84
10/17/2022 2:45:00 AM 8.7 47.66 0.245 7.32 4.75 9.84
10/17/2022 3:00:00 AM 8.67 47.606 0.245 7.32 4.76 9.84
10/17/2022 3:15:00 AM 8.65 47.57 0.245 7.32 4.62 9.84
10/17/2022 3:30:00 AM 8.64 47.552 0.245 7.32 4.79 9.83
10/17/2022 3:45:00 AM 8.63 47.534 0.245 7.32 4.7 9.83
10/17/2022 4:00:00 AM 8.62 47.516 0.245 7.32 4.75 9.82
10/17/2022 4:15:00 AM 8.61 47.498 0.245 7.32 4.58 9.82
10/17/2022 4:30:00 AM 8.61 47.498 0.245 7.32 4.55 9.82
10/17/2022 4:45:00 AM 8.63 47.534 0.246 7.32 4.66 9.81
10/17/2022 5:00:00 AM 8.64 47.552 0.246 7.32 4.71 9.81
10/17/2022 5:15:00 AM 8.64 47.552 0.246 7.31 4.5 9.8
10/17/2022 5:30:00 AM 8.66 47.588 0.246 7.32 4.61 9.8
10/17/2022 5:45:00 AM 8.68 47.624 0.246 7.32 4.61 9.8
10/17/2022 6:00:00 AM 8.68 47.624 0.246 7.32 4.63 9.79
10/17/2022 6:15:00 AM 8.69 47.642 0.246 7.32 4.55 9.79
10/17/2022 6:30:00 AM 8.71 47.678 0.247 7.32 4.56 9.78
10/17/2022 6:45:00 AM 8.7 47.66 0.247 7.32 4.67 9.78
10/17/2022 7:00:00 AM 8.69 47.642 0.247 7.32 4.49 9.78
10/17/2022 7:15:00 AM 8.71 47.678 0.247 7.32 4.69 9.77
10/17/2022 7:30:00 AM 8.73 47.714 0.247 7.32 4.65 9.78
10/17/2022 7:45:00 AM 8.75 47.75 0.247 7.32 4.75 9.78
10/17/2022 8:00:00 AM 8.77 47.786 0.247 7.32 4.65 9.78
10/17/2022 8:15:00 AM 8.79 47.822 0.247 7.32 4.51 9.81
10/17/2022 8:30:00 AM 8.81 47.858 0.247 7.33 4.67 9.83
10/17/2022 8:45:00 AM 8.83 47.894 0.247 7.32 4.64 9.83
10/17/2022 9:00:00 AM 8.84 47.912 0.247 7.33 4.56 9.85
10/17/2022 9:15:00 AM 8.85 47.93 0.247 7.33 4.52 9.87
10/17/2022 9:30:00 AM 8.86 47.948 0.247 7.34 4.81 9.94
10/17/2022 9:45:00 AM 8.92 48.056 0.247 7.35 4.64 10.12
10/17/2022 10:00:00 AM 9 48.2 0.246 7.37 4.58 10.32
10/17/2022 10:15:00 AM 9.1 48.38 0.246 7.38 4.61 10.49
10/17/2022 10:30:00 AM 9.14 48.452 0.246 7.39 4.7 10.53
10/17/2022 10:45:00 AM 9.1 48.38 0.246 7.39 4.39 10.45
10/17/2022 11:00:00 AM 9.1 48.38 0.247 7.39 5.48 10.41
10/17/2022 11:15:00 AM 9.09 48.362 0.247 7.39 4.46 10.42
10/17/2022 11:30:00 AM 9.07 48.326 0.247 7.39 4.52 10.4
10/17/2022 11:45:00 AM 9.08 48.344 0.246 7.4 4.44 10.49
10/17/2022 12:00:00 PM 9.16 48.488 0.246 7.41 4.57 10.62
10/17/2022 12:15:00 PM 9.24 48.632 0.246 7.43 4.67 10.77
10/17/2022 12:30:00 PM 9.27 48.686 0.246 7.44 4.58 10.85
10/17/2022 12:45:00 PM 9.34 48.812 0.246 7.45 4.58 10.92
10/17/2022 1:00:00 PM 9.42 48.956 0.246 7.46 4.45 11
10/17/2022 1:15:00 PM 9.44 48.992 0.246 7.47 4.79 11.03
10/17/2022 1:30:00 PM 9.48 49.064 0.247 7.48 4.51 11.07
10/17/2022 1:45:00 PM 9.53 49.154 0.246 7.49 4.48 11.11
10/17/2022 2:00:00 PM 9.59 49.262 0.246 7.5 4.68 11.16
10/17/2022 2:15:00 PM 9.77 49.586 0.246 7.51 4.59 11.25
10/17/2022 2:30:00 PM 9.93 49.874 0.246 7.52 4.57 11.32
10/17/2022 2:45:00 PM 10.03 50.054 0.246 7.54 4.54 11.35
10/17/2022 3:00:00 PM 9.99 49.982 0.246 7.54 4.63 11.32
10/17/2022 3:15:00 PM 10.01 50.018 0.246 7.55 5.12 11.3
10/17/2022 3:30:00 PM 10.05 50.09 0.246 7.55 4.76 11.3
10/17/2022 3:45:00 PM 9.95 49.91 0.246 7.55 4.71 11.26
10/17/2022 4:00:00 PM 9.9 49.82 0.246 7.55 4.6 11.21
10/17/2022 4:15:00 PM 9.88 49.784 0.246 7.55 4.76 11.21
10/17/2022 4:30:00 PM 9.88 49.784 0.246 7.55 4.61 11.22
10/17/2022 4:45:00 PM 9.85 49.73 0.246 7.55 4.7 11.22
10/17/2022 5:00:00 PM 9.74 49.532 0.245 7.54 4.72 11.15
10/17/2022 5:15:00 PM 9.65 49.37 0.246 7.54 4.62 11.08
10/17/2022 5:30:00 PM 9.54 49.172 0.246 7.53 4.56 11
10/17/2022 5:45:00 PM 9.38 48.884 0.246 7.51 4.61 10.89
10/17/2022 6:00:00 PM 9.27 48.686 0.246 7.5 4.67 10.8
10/17/2022 6:15:00 PM 9.17 48.506 0.246 7.48 4.84 10.7
10/17/2022 6:30:00 PM 9.08 48.344 0.247 7.46 4.66 10.59
10/17/2022 6:45:00 PM 8.99 48.182 0.246 7.44 4.74 10.5
10/17/2022 7:00:00 PM 8.91 48.038 0.247 7.43 5.03 10.41
10/17/2022 7:15:00 PM 8.85 47.93 0.247 7.42 4.59 10.35
10/17/2022 7:30:00 PM 8.79 47.822 0.247 7.41 4.68 10.3
10/17/2022 7:45:00 PM 8.71 47.678 0.247 7.4 4.56 10.25
10/17/2022 8:00:00 PM 8.59 47.462 0.247 7.39 4.68 10.22
10/17/2022 8:15:00 PM 8.49 47.282 0.247 7.39 4.71 10.19
10/17/2022 8:30:00 PM 8.4 47.12 0.247 7.38 4.72 10.16
10/17/2022 8:45:00 PM 8.32 46.976 0.247 7.38 4.89 10.14
10/17/2022 9:00:00 PM 8.23 46.814 0.247 7.37 4.77 10.12
10/17/2022 9:15:00 PM 8.16 46.688 0.247 7.37 4.9 10.11
10/17/2022 9:30:00 PM 8.09 46.562 0.247 7.37 4.82 10.1
10/17/2022 9:45:00 PM 8.01 46.418 0.247 7.36 4.91 10.1
10/17/2022 10:00:00 PM 7.93 46.274 0.248 7.37 4.98 10.1
10/17/2022 10:15:00 PM 7.88 46.184 0.247 7.36 4.96 10.1
10/17/2022 10:30:00 PM 7.83 46.094 0.247 7.36 5.1 10.1
10/17/2022 10:45:00 PM 7.75 45.95 0.247 7.36 4.76 10.1
10/17/2022 11:00:00 PM 7.7 45.86 0.247 7.36 5.07 10.11
10/17/2022 11:15:00 PM 7.65 45.77 0.248 7.35 4.69 10.1
10/17/2022 11:30:00 PM 7.59 45.662 0.248 7.35 4.7 10.1
10/17/2022 11:45:00 PM 7.54 45.572 0.248 7.35 4.66 10.11
10/18/2022 12:00:00 AM 7.48 45.464 0.248 7.35 4.69 10.11
10/18/2022 12:15:00 AM 7.42 45.356 0.248 7.35 4.66 10.11
10/18/2022 12:30:00 AM 7.36 45.248 0.248 7.35 4.64 10.11
10/18/2022 12:45:00 AM 7.31 45.158 0.249 7.34 4.66 10.12
10/18/2022 1:00:00 AM 7.27 45.086 0.249 7.34 4.59 10.12
10/18/2022 1:15:00 AM 7.27 45.086 0.249 7.34 4.76 10.12
10/18/2022 1:30:00 AM 7.27 45.086 0.249 7.34 4.65 10.12
10/18/2022 1:45:00 AM 7.26 45.068 0.249 7.34 4.82 10.13
10/18/2022 2:00:00 AM 7.25 45.05 0.249 7.34 4.68 10.13
10/18/2022 2:15:00 AM 7.24 45.032 0.249 7.34 4.6 10.13
10/18/2022 2:30:00 AM 7.21 44.978 0.249 7.34 4.58 10.13
10/18/2022 2:45:00 AM 7.17 44.906 0.249 7.34 4.56 10.13
10/18/2022 3:00:00 AM 7.16 44.888 0.249 7.34 4.61 10.14
10/18/2022 3:15:00 AM 7.12 44.816 0.249 7.34 4.67 10.14
10/18/2022 3:30:00 AM 7.09 44.762 0.249 7.34 4.53 10.14
10/18/2022 3:45:00 AM 7.07 44.726 0.249 7.34 4.72 10.14
10/18/2022 4:00:00 AM 7.04 44.672 0.25 7.34 4.6 10.14
10/18/2022 4:15:00 AM 7.01 44.618 0.249 7.34 4.82 10.15
10/18/2022 4:30:00 AM 6.97 44.546 0.25 7.34 4.56 10.16
10/18/2022 4:45:00 AM 6.92 44.456 0.25 7.34 4.58 10.16
10/18/2022 5:00:00 AM 6.85 44.33 0.25 7.34 4.62 10.17
10/18/2022 5:15:00 AM 6.81 44.258 0.25 7.34 4.61 10.18
10/18/2022 5:30:00 AM 6.75 44.15 0.251 7.34 4.76 10.19
10/18/2022 5:45:00 AM 6.72 44.096 0.251 7.34 4.71 10.19
10/18/2022 6:00:00 AM 6.69 44.042 0.251 7.34 4.79 10.2
10/18/2022 6:15:00 AM 6.68 44.024 0.251 7.34 4.6 10.21
10/18/2022 6:30:00 AM 6.65 43.97 0.251 7.34 4.62 10.21
10/18/2022 6:45:00 AM 6.62 43.916 0.251 7.35 4.63 10.22
10/18/2022 7:00:00 AM 6.62 43.916 0.251 7.35 4.65 10.23
10/18/2022 7:15:00 AM 6.61 43.898 0.251 7.35 4.6 10.23
10/18/2022 7:30:00 AM 6.62 43.916 0.251 7.35 4.69 10.24
10/18/2022 7:45:00 AM 6.62 43.916 0.251 7.35 4.6 10.26
10/18/2022 8:00:00 AM 6.61 43.898 0.251 7.35 4.55 10.29
10/18/2022 8:15:00 AM 6.62 43.916 0.251 7.35 4.66 10.32
10/18/2022 8:30:00 AM 6.63 43.934 0.251 7.36 4.69 10.37
10/18/2022 8:45:00 AM 6.63 43.934 0.252 7.36 4.5 10.41
10/18/2022 9:00:00 AM 6.64 43.952 0.251 7.37 5.13 10.45
10/18/2022 9:15:00 AM 6.66 43.988 0.251 7.37 4.46 10.54
10/18/2022 9:30:00 AM 6.73 44.114 0.251 7.38 4.33 10.68
10/18/2022 9:45:00 AM 6.79 44.222 0.251 7.39 4.5 10.81
10/18/2022 10:00:00 AM 6.85 44.33 0.251 7.41 4.44 10.91
10/18/2022 10:15:00 AM 6.93 44.474 0.251 7.42 4.42 11.02
10/18/2022 10:30:00 AM 6.95 44.51 0.251 7.43 4.47 11.03
10/18/2022 10:45:00 AM 6.96 44.528 0.251 7.43 4.53 11.04
10/18/2022 11:00:00 AM 7.07 44.726 0.25 7.44 4.5 11.15
10/18/2022 11:15:00 AM 7.15 44.87 0.251 7.45 4.53 11.27
10/18/2022 11:30:00 AM 7.29 45.122 0.251 7.46 4.44 11.38
10/18/2022 11:45:00 AM 7.37 45.266 0.251 7.47 4.49 11.45
10/18/2022 12:00:00 PM 7.47 45.446 0.25 7.49 4.79 11.53
10/18/2022 12:15:00 PM 7.71 45.878 0.25 7.5 4.52 11.61
10/18/2022 12:30:00 PM 7.86 46.148 0.25 7.51 4.45 11.66
10/18/2022 12:45:00 PM 7.9 46.22 0.25 7.51 4.58 11.66
10/18/2022 1:00:00 PM 7.94 46.292 0.251 7.52 4.45 11.67
10/18/2022 1:15:00 PM 8.13 46.634 0.25 7.52 4.55 11.67
10/18/2022 1:30:00 PM 8.24 46.832 0.25 7.52 4.65 11.65
10/18/2022 1:45:00 PM 8.22 46.796 0.25 7.52 4.63 11.57
10/18/2022 2:00:00 PM 8.43 47.174 0.249 7.53 4.49 11.62
10/18/2022 2:15:00 PM 8.73 47.714 0.249 7.54 4.52 11.71
10/18/2022 2:30:00 PM 8.86 47.948 0.249 7.56 4.68 11.75
10/18/2022 2:45:00 PM 8.8 47.84 0.249 7.56 4.43 11.71
10/18/2022 3:00:00 PM 8.73 47.714 0.25 7.56 4.55 11.62
10/18/2022 3:15:00 PM 8.72 47.696 0.25 7.56 4.53 11.61
10/18/2022 3:30:00 PM 8.71 47.678 0.25 7.56 4.6 11.65
10/18/2022 3:45:00 PM 8.58 47.444 0.25 7.56 4.5 11.59
10/18/2022 4:00:00 PM 8.47 47.246 0.25 7.56 4.56 11.58
10/18/2022 4:15:00 PM 8.4 47.12 0.25 7.55 4.49 11.51
10/18/2022 4:30:00 PM 8.4 47.12 0.25 7.55 4.54 11.51
10/18/2022 4:45:00 PM 8.39 47.102 0.25 7.55 4.41 11.54
10/18/2022 5:00:00 PM 8.29 46.922 0.251 7.54 4.53 11.43
10/18/2022 5:15:00 PM 8.17 46.706 0.251 7.52 4.62 11.23
10/18/2022 5:30:00 PM 8.06 46.508 0.251 7.5 4.53 11.11
10/18/2022 5:45:00 PM 7.96 46.328 0.252 7.49 4.47 11.03
10/18/2022 6:00:00 PM 7.87 46.166 0.252 7.47 4.6 10.97
10/18/2022 6:15:00 PM 7.8 46.04 0.252 7.46 4.46 10.9
10/18/2022 6:30:00 PM 7.72 45.896 0.252 7.45 4.56 10.83
10/18/2022 6:45:00 PM 7.65 45.77 0.252 7.44 8.52 10.77
10/18/2022 7:00:00 PM 7.59 45.662 0.252 7.43 4.41 10.72
10/18/2022 7:15:00 PM 7.49 45.482 0.252 7.42 4.43 10.67
10/18/2022 7:30:00 PM 7.41 45.338 0.252 7.42 4.48 10.63
10/18/2022 7:45:00 PM 7.35 45.23 0.252 7.41 4.47 10.59
10/18/2022 8:00:00 PM 7.3 45.14 0.252 7.4 4.59 10.56
10/18/2022 8:15:00 PM 7.25 45.05 0.252 7.4 4.79 10.54
10/18/2022 8:30:00 PM 7.21 44.978 0.253 7.39 4.53 10.52
10/18/2022 8:45:00 PM 7.18 44.924 0.253 7.39 4.58 10.5
10/18/2022 9:00:00 PM 7.15 44.87 0.253 7.38 4.77 10.49
10/18/2022 9:15:00 PM 7.11 44.798 0.253 7.38 4.63 10.47
10/18/2022 9:30:00 PM 7.08 44.744 0.253 7.38 4.7 10.46
10/18/2022 9:45:00 PM 7.06 44.708 0.253 7.37 4.76 10.45
10/18/2022 10:00:00 PM 7.02 44.636 0.253 7.37 4.74 10.44
10/18/2022 10:15:00 PM 7 44.6 0.253 7.37 4.86 10.44
10/18/2022 10:30:00 PM 6.96 44.528 0.253 7.37 4.63 10.44
10/18/2022 10:45:00 PM 6.93 44.474 0.253 7.36 4.7 10.43
10/18/2022 11:00:00 PM 6.89 44.402 0.253 7.37 4.6 10.43
10/18/2022 11:15:00 PM 6.87 44.366 0.253 7.37 4.61 10.43
10/18/2022 11:30:00 PM 6.81 44.258 0.253 7.36 4.56 10.43
10/18/2022 11:45:00 PM 6.76 44.168 0.253 7.36 4.48 10.43
10/19/2022 12:00:00 AM 6.75 44.15 0.253 7.36 4.51 10.44
10/19/2022 12:15:00 AM 6.71 44.078 0.253 7.36 4.75 10.44
10/19/2022 12:30:00 AM 6.68 44.024 0.253 7.36 4.5 10.44
10/19/2022 12:45:00 AM 6.66 43.988 0.254 7.36 4.45 10.44
10/19/2022 1:00:00 AM 6.63 43.934 0.254 7.36 4.68 10.45
10/19/2022 1:15:00 AM 6.61 43.898 0.254 7.36 4.49 10.44
10/19/2022 1:30:00 AM 6.58 43.844 0.253 7.36 4.5 10.44
10/19/2022 1:45:00 AM 6.54 43.772 0.253 7.35 4.49 10.44
10/19/2022 2:00:00 AM 6.5 43.7 0.254 7.35 4.5 10.44
10/19/2022 2:15:00 AM 6.46 43.628 0.254 7.35 4.48 10.44
10/19/2022 2:30:00 AM 6.43 43.574 0.253 7.35 4.42 10.44
10/19/2022 2:45:00 AM 6.4 43.52 0.254 7.35 4.52 10.44
10/19/2022 3:00:00 AM 6.37 43.466 0.254 7.34 9.63 10.44
10/19/2022 3:15:00 AM 6.34 43.412 0.254 7.34 4.61 10.45
10/19/2022 3:30:00 AM 6.34 43.412 0.254 7.34 4.51 10.45
10/19/2022 3:45:00 AM 6.31 43.358 0.254 7.34 4.52 10.45
10/19/2022 4:00:00 AM 6.29 43.322 0.254 7.34 4.47 10.45
10/19/2022 4:15:00 AM 6.24 43.232 0.254 7.34 4.84 10.45
10/19/2022 4:30:00 AM 6.2 43.16 0.254 7.34 4.58 10.45
10/19/2022 4:45:00 AM 6.17 43.106 0.254 7.34 4.58 10.45
10/19/2022 5:00:00 AM 6.14 43.052 0.254 7.34 4.69 10.46
10/19/2022 5:15:00 AM 6.12 43.016 0.254 7.34 4.62 10.46
10/19/2022 5:30:00 AM 6.11 42.998 0.254 7.34 4.59 10.47
10/19/2022 5:45:00 AM 6.1 42.98 0.254 7.35 4.68 10.47
10/19/2022 6:00:00 AM 6.1 42.98 0.254 7.34 4.52 10.47
10/19/2022 6:15:00 AM 6.09 42.962 0.254 7.35 4.5 10.47
10/19/2022 6:30:00 AM 6.06 42.908 0.254 7.34 4.54 10.47
10/19/2022 6:45:00 AM 6.03 42.854 0.254 7.34 4.54 10.47
10/19/2022 7:00:00 AM 6 42.8 0.254 7.34 4.64 10.48
10/19/2022 7:15:00 AM 5.88 42.584 0.254 7.34 4.64 10.48
10/19/2022 7:30:00 AM 5.64 42.152 0.253 7.34 4.76 10.48
10/19/2022 7:45:00 AM 5.37 41.666 0.252 7.35 4.98 10.49
10/19/2022 8:00:00 AM 5.22 41.396 0.252 7.35 4.75 10.56
10/19/2022 8:15:00 AM 5.09 41.162 0.252 7.35 4.76 10.64
10/19/2022 8:30:00 AM 4.87 40.766 0.251 7.36 4.74 10.7
10/19/2022 8:45:00 AM 4.84 40.712 0.251 7.37 4.6 10.78
10/19/2022 9:00:00 AM 4.9 40.82 0.251 7.38 4.57 10.89
10/19/2022 9:15:00 AM 4.98 40.964 0.251 7.39 4.62 11.01
10/19/2022 9:30:00 AM 5.08 41.144 0.252 7.4 4.49 11.13
10/19/2022 9:45:00 AM 5.15 41.27 0.277 7.4 5.89 11.17
10/19/2022 10:00:00 AM 5.2 41.36 0.289 7.4 6.66 11.22
10/19/2022 10:15:00 AM 5.27 41.486 0.294 7.41 6.46 11.29
10/19/2022 10:30:00 AM 5.42 41.756 0.29 7.42 6.06 11.41
10/19/2022 10:45:00 AM 5.56 42.008 0.289 7.43 6.01 11.51
10/19/2022 11:00:00 AM 5.7 42.26 0.289 7.44 6.23 11.58
10/19/2022 11:15:00 AM 5.83 42.494 0.28 7.44 6.21 11.63
10/19/2022 11:30:00 AM 5.93 42.674 0.273 7.44 5.65 11.67
10/19/2022 11:45:00 AM 5.98 42.764 0.27 7.45 5.62 11.68
10/19/2022 12:00:00 PM 6 42.8 0.269 7.45 5.44 11.68
10/19/2022 12:15:00 PM 6.08 42.944 0.269 7.46 5.16 11.72
10/19/2022 12:30:00 PM 6.15 43.07 0.268 7.46 5.11 11.77
10/19/2022 12:45:00 PM 6.23 43.214 0.268 7.46 5.07 11.82
10/19/2022 1:00:00 PM 6.33 43.394 0.267 7.47 5 11.86
10/19/2022 1:15:00 PM 6.43 43.574 0.267 7.47 5.06 11.89
10/19/2022 1:30:00 PM 6.57 43.826 0.266 7.48 4.99 11.94
10/19/2022 1:45:00 PM 6.7 44.06 0.266 7.49 5.1 11.97
10/19/2022 2:00:00 PM 6.87 44.366 0.265 7.49 5.15 12
10/19/2022 2:15:00 PM 6.94 44.492 0.265 7.5 5.14 12.01
10/19/2022 2:30:00 PM 6.97 44.546 0.265 7.5 5.15 11.99
10/19/2022 2:45:00 PM 7.09 44.762 0.265 7.51 5.08 12
10/19/2022 3:00:00 PM 7.22 44.996 0.263 7.51 4.98 12
10/19/2022 3:15:00 PM 7.35 45.23 0.262 7.52 4.98 12.04
10/19/2022 3:30:00 PM 7.41 45.338 0.261 7.52 4.94 12.04
10/19/2022 3:45:00 PM 7.44 45.392 0.259 7.53 4.83 12.03
10/19/2022 4:00:00 PM 7.48 45.464 0.257 7.54 4.91 12
10/19/2022 4:15:00 PM 7.45 45.41 0.256 7.53 5.18 11.96
10/19/2022 4:30:00 PM 7.38 45.284 0.255 7.53 4.82 11.88
10/19/2022 4:45:00 PM 7.36 45.248 0.254 7.53 4.81 11.86
10/19/2022 5:00:00 PM 7.24 45.032 0.253 7.51 4.76 11.68
10/19/2022 5:15:00 PM 7.19 44.942 0.252 7.51 5.09 11.68
10/19/2022 5:30:00 PM 7.13 44.834 0.256 7.51 7.9 11.63
10/19/2022 5:45:00 PM 7.03 44.654 0.253 7.5 6.27 11.52
10/19/2022 6:00:00 PM 6.93 44.474 0.253 7.48 5.49 11.43
10/19/2022 6:15:00 PM 6.87 44.366 0.256 7.46 5.3 11.33
10/19/2022 6:30:00 PM 6.83 44.294 0.259 7.44 5.7 11.22
10/19/2022 6:45:00 PM 6.77 44.186 0.257 7.42 5.71 11.12
10/19/2022 7:00:00 PM 6.71 44.078 0.255 7.41 5.59 11.04
10/19/2022 7:15:00 PM 6.64 43.952 0.255 7.4 5.34 10.98
10/19/2022 7:30:00 PM 6.59 43.862 0.254 7.4 5.47 10.94
10/19/2022 7:45:00 PM 6.57 43.826 0.254 7.39 5.16 10.89
10/19/2022 8:00:00 PM 6.53 43.754 0.253 7.39 5.37 10.86
10/19/2022 8:15:00 PM 6.51 43.718 0.252 7.39 5.23 10.83
10/19/2022 8:30:00 PM 6.48 43.664 0.252 7.38 5.04 10.81
10/19/2022 8:45:00 PM 6.45 43.61 0.251 7.38 5.17 10.79
10/19/2022 9:00:00 PM 6.42 43.556 0.251 7.38 4.92 10.78
10/19/2022 9:15:00 PM 6.39 43.502 0.251 7.38 4.98 10.77
10/19/2022 9:30:00 PM 6.36 43.448 0.251 7.38 5.04 10.75
10/19/2022 9:45:00 PM 6.34 43.412 0.251 7.38 4.97 10.75
10/19/2022 10:00:00 PM 6.31 43.358 0.252 7.38 4.91 10.74
10/19/2022 10:15:00 PM 6.29 43.322 0.251 7.37 4.94 10.73
10/19/2022 10:30:00 PM 6.27 43.286 0.252 7.37 5.09 10.73
10/19/2022 10:45:00 PM 6.25 43.25 0.252 7.37 4.93 10.72
10/19/2022 11:00:00 PM 6.22 43.196 0.252 7.37 4.86 10.72
10/19/2022 11:15:00 PM 6.18 43.124 0.251 7.37 4.9 10.72
10/19/2022 11:30:00 PM 6.14 43.052 0.251 7.37 4.76 10.73
10/19/2022 11:45:00 PM 6.11 42.998 0.252 7.37 4.88 10.73
10/20/2022 12:00:00 AM 6.09 42.962 0.254 7.37 4.9 10.73
10/20/2022 12:15:00 AM 6.07 42.926 0.255 7.37 5.01 10.73
10/20/2022 12:30:00 AM 6.05 42.89 0.255 7.37 4.79 10.73
10/20/2022 12:45:00 AM 6 42.8 0.255 7.37 4.68 10.73
10/20/2022 1:00:00 AM 5.97 42.746 0.255 7.38 5.34 10.74
10/20/2022 1:15:00 AM 5.9 42.62 0.255 7.38 4.68 10.75
10/20/2022 1:30:00 AM 5.85 42.53 0.254 7.38 4.83 10.76
10/20/2022 1:45:00 AM 5.79 42.422 0.254 7.38 4.75 10.77
10/20/2022 2:00:00 AM 5.74 42.332 0.254 7.38 4.73 10.78
10/20/2022 2:15:00 AM 5.7 42.26 0.254 7.38 4.71 10.79
10/20/2022 2:30:00 AM 5.66 42.188 0.253 7.38 4.78 10.8
10/20/2022 2:45:00 AM 5.62 42.116 0.254 7.38 4.88 10.8
10/20/2022 3:00:00 AM 5.58 42.044 0.254 7.37 4.78 10.81
10/20/2022 3:15:00 AM 5.54 41.972 0.255 7.38 4.83 10.82
10/20/2022 3:30:00 AM 5.5 41.9 0.255 7.38 4.62 10.82
10/20/2022 3:45:00 AM 5.46 41.828 0.255 7.38 4.77 10.82
10/20/2022 4:00:00 AM 5.43 41.774 0.254 7.38 4.8 10.83
10/20/2022 4:15:00 AM 5.4 41.72 0.254 7.38 4.84 10.83
10/20/2022 4:30:00 AM 5.36 41.648 0.254 7.38 4.93 10.84
10/20/2022 4:45:00 AM 5.33 41.594 0.254 7.38 4.74 10.84
10/20/2022 5:00:00 AM 5.3 41.54 0.253 7.38 4.76 10.85
10/20/2022 5:15:00 AM 5.27 41.486 0.253 7.38 4.92 10.85
10/20/2022 5:30:00 AM 5.24 41.432 0.252 7.38 4.89 10.86
10/20/2022 5:45:00 AM 5.21 41.378 0.252 7.38 5.01 10.86
10/20/2022 6:00:00 AM 5.18 41.324 0.252 7.38 4.82 10.87
10/20/2022 6:15:00 AM 5.15 41.27 0.252 7.38 4.88 10.87
10/20/2022 6:30:00 AM 5.13 41.234 0.251 7.38 4.69 10.88
10/20/2022 6:45:00 AM 5.11 41.198 0.251 7.38 4.91 10.89
10/20/2022 7:00:00 AM 5.09 41.162 0.251 7.38 4.89 10.89
10/20/2022 7:15:00 AM 5.06 41.108 0.25 7.38 4.85 10.9
10/20/2022 7:30:00 AM 5.04 41.072 0.25 7.38 4.9 10.9
10/20/2022 7:45:00 AM 5.02 41.036 0.25 7.38 4.83 10.92
10/20/2022 8:00:00 AM 5 41 0.25 7.39 4.72 10.95
10/20/2022 8:15:00 AM 4.98 40.964 0.25 7.39 4.72 11
10/20/2022 8:30:00 AM 4.98 40.964 0.25 7.4 5.05 11.06
10/20/2022 8:45:00 AM 4.99 40.982 0.25 7.4 4.79 11.14
10/20/2022 9:00:00 AM 4.98 40.964 0.249 7.41 4.67 11.2
10/20/2022 9:15:00 AM 4.97 40.946 0.249 7.41 4.63 11.25
10/20/2022 9:30:00 AM 5 41 0.249 7.42 4.69 11.33
10/20/2022 9:45:00 AM 5.1 41.18 0.249 7.43 4.8 11.44
10/20/2022 10:00:00 AM 5.21 41.378 0.249 7.44 4.81 11.55
10/20/2022 10:15:00 AM 5.35 41.63 0.249 7.46 4.83 11.65
10/20/2022 10:30:00 AM 5.51 41.918 0.248 7.47 4.7 11.74
10/20/2022 10:45:00 AM 5.66 42.188 0.248 7.48 4.64 11.82
10/20/2022 11:00:00 AM 5.85 42.53 0.248 7.49 4.79 11.89
10/20/2022 11:15:00 AM 6.1 42.98 0.248 7.5 4.8 11.94
10/20/2022 11:30:00 AM 6.34 43.412 0.248 7.51 4.75 11.99
10/20/2022 11:45:00 AM 6.54 43.772 0.247 7.53 4.93 12.03
10/20/2022 12:00:00 PM 6.76 44.168 0.247 7.53 4.77 12.06
10/20/2022 12:15:00 PM 7.01 44.618 0.247 7.55 4.72 12.08
10/20/2022 12:30:00 PM 7.21 44.978 0.247 7.56 4.69 12.1
10/20/2022 12:45:00 PM 7.43 45.374 0.247 7.57 4.81 12.12
10/20/2022 1:00:00 PM 7.64 45.752 0.247 7.58 5.06 12.13
10/20/2022 1:15:00 PM 7.81 46.058 0.247 7.58 5.34 12.13
10/20/2022 1:30:00 PM 7.98 46.364 0.247 7.59 5.44 12.12
10/20/2022 1:45:00 PM 8.15 46.67 0.247 7.6 4.76 12.13
10/20/2022 2:00:00 PM 8.25 46.85 0.247 7.61 5.3 12.11
10/20/2022 2:15:00 PM 8.38 47.084 0.247 7.61 5.4 12.1
10/20/2022 2:30:00 PM 8.56 47.408 0.247 7.62 4.78 12.11
10/20/2022 2:45:00 PM 8.51 47.318 0.247 7.62 4.76 12.07
10/20/2022 3:00:00 PM 8.56 47.408 0.247 7.62 5.11 12.05
10/20/2022 3:15:00 PM 8.64 47.552 0.247 7.62 4.84 12.05
10/20/2022 3:30:00 PM 8.66 47.588 0.247 7.63 4.87 12.03
10/20/2022 3:45:00 PM 8.63 47.534 0.247 7.62 4.84 12.01
10/20/2022 4:00:00 PM 8.6 47.48 0.247 7.62 5.25 11.97
10/20/2022 4:15:00 PM 8.54 47.372 0.247 7.62 4.81 11.93
10/20/2022 4:30:00 PM 8.41 47.138 0.247 7.61 4.76 11.87
10/20/2022 4:45:00 PM 8.24 46.832 0.247 7.6 4.99 11.8
10/20/2022 5:00:00 PM 8.1 46.58 0.247 7.59 4.8 11.75
10/20/2022 5:15:00 PM 7.88 46.184 0.247 7.58 4.78 11.67
10/20/2022 5:30:00 PM 7.64 45.752 0.247 7.56 4.85 11.56
10/20/2022 5:45:00 PM 7.43 45.374 0.248 7.54 11.6 11.45
10/20/2022 6:00:00 PM 7.28 45.104 0.248 7.53 5.57 11.36
10/20/2022 6:15:00 PM 7.17 44.906 0.248 7.51 4.75 11.28
10/20/2022 6:30:00 PM 7.07 44.726 0.248 7.5 4.73 11.19
10/20/2022 6:45:00 PM 7 44.6 0.248 7.49 4.77 11.11
10/20/2022 7:00:00 PM 6.96 44.528 0.248 7.47 5.37 11.05
10/20/2022 7:15:00 PM 6.92 44.456 0.249 7.46 4.94 11
10/20/2022 7:30:00 PM 6.9 44.42 0.249 7.45 4.84 10.95
10/20/2022 7:45:00 PM 6.86 44.348 0.249 7.45 4.9 10.92
10/20/2022 8:00:00 PM 6.84 44.312 0.249 7.44 4.72 10.88
10/20/2022 8:15:00 PM 6.83 44.294 0.249 7.43 4.74 10.85
10/20/2022 8:30:00 PM 6.83 44.294 0.249 7.42 5.02 10.81
10/20/2022 8:45:00 PM 6.82 44.276 0.249 7.42 4.81 10.79
10/20/2022 9:00:00 PM 6.81 44.258 0.249 7.41 4.96 10.77
10/20/2022 9:15:00 PM 6.8 44.24 0.249 7.41 4.99 10.75
10/20/2022 9:30:00 PM 6.78 44.204 0.249 7.41 4.93 10.74
10/20/2022 9:45:00 PM 6.75 44.15 0.249 7.4 4.88 10.73
10/20/2022 10:00:00 PM 6.7 44.06 0.249 7.4 5.63 10.72
10/20/2022 10:15:00 PM 6.64 43.952 0.25 7.4 4.94 10.72
10/20/2022 10:30:00 PM 6.6 43.88 0.25 7.39 5.03 10.72
10/20/2022 10:45:00 PM 6.56 43.808 0.25 7.39 4.84 10.72
10/20/2022 11:00:00 PM 6.52 43.736 0.249 7.39 4.91 10.72
10/20/2022 11:15:00 PM 6.47 43.646 0.25 7.39 4.89 10.71
10/20/2022 11:30:00 PM 6.39 43.502 0.25 7.38 4.78 10.72
10/20/2022 11:45:00 PM 6.35 43.43 0.25 7.38 4.81 10.72
10/21/2022 12:00:00 AM 6.3 43.34 0.25 7.37 4.87 10.72
10/21/2022 12:15:00 AM 6.26 43.268 0.25 7.37 4.79 10.73
10/21/2022 12:30:00 AM 6.23 43.214 0.25 7.37 4.69 10.73
10/21/2022 12:45:00 AM 6.2 43.16 0.25 7.36 4.79 10.73
10/21/2022 1:00:00 AM 6.14 43.052 0.25 7.36 4.72 10.74
10/21/2022 1:15:00 AM 6.1 42.98 0.25 7.36 4.64 10.74
10/21/2022 1:30:00 AM 6.09 42.962 0.25 7.37 4.77 10.74
10/21/2022 1:45:00 AM 6.06 42.908 0.25 7.37 4.67 10.75
10/21/2022 2:00:00 AM 5.99 42.782 0.251 7.36 4.77 10.75
10/21/2022 2:15:00 AM 5.94 42.692 0.251 7.37 4.63 10.76
10/21/2022 2:30:00 AM 5.89 42.602 0.251 7.37 4.66 10.76
10/21/2022 2:45:00 AM 5.83 42.494 0.251 7.36 4.67 10.77
10/21/2022 3:00:00 AM 5.78 42.404 0.251 7.37 4.73 10.78
10/21/2022 3:15:00 AM 5.73 42.314 0.251 7.37 4.6 10.77
10/21/2022 3:30:00 AM 5.69 42.242 0.252 7.36 4.75 10.77
10/21/2022 3:45:00 AM 5.65 42.17 0.252 7.37 4.73 10.79
10/21/2022 4:00:00 AM 5.61 42.098 0.252 7.37 4.74 10.79
10/21/2022 4:15:00 AM 5.57 42.026 0.252 7.36 4.75 10.79
10/21/2022 4:30:00 AM 5.53 41.954 0.252 7.36 4.79 10.8
10/21/2022 4:45:00 AM 5.5 41.9 0.252 7.36 4.84 10.8
10/21/2022 5:00:00 AM 5.47 41.846 0.252 7.36 4.93 10.8
10/21/2022 5:15:00 AM 5.44 41.792 0.252 7.36 5.23 10.8
10/21/2022 5:30:00 AM 5.41 41.738 0.252 7.36 5.07 10.81
10/21/2022 5:45:00 AM 5.37 41.666 0.252 7.36 5.17 10.81
10/21/2022 6:00:00 AM 5.34 41.612 0.252 7.36 4.93 10.82
10/21/2022 6:15:00 AM 5.31 41.558 0.253 7.37 4.86 10.83
10/21/2022 6:30:00 AM 5.28 41.504 0.253 7.37 4.93 10.84
10/21/2022 6:45:00 AM 5.24 41.432 0.252 7.37 4.85 10.85
10/21/2022 7:00:00 AM 5.21 41.378 0.252 7.37 4.95 10.86
10/21/2022 7:15:00 AM 5.18 41.324 0.253 7.37 4.88 10.86
10/21/2022 7:30:00 AM 5.15 41.27 0.253 7.37 4.86 10.87
10/21/2022 7:45:00 AM 5.12 41.216 0.253 7.37 4.6 10.9
10/21/2022 8:00:00 AM 5.1 41.18 0.253 7.37 4.57 10.96
10/21/2022 8:15:00 AM 5.09 41.162 0.253 7.38 4.51 11.02
10/21/2022 8:30:00 AM 5.07 41.126 0.253 7.38 4.58 11.08
10/21/2022 8:45:00 AM 5.09 41.162 0.253 7.39 4.69 11.16
10/21/2022 9:00:00 AM 5.12 41.216 0.253 7.4 4.54 11.24
10/21/2022 9:15:00 AM 5.15 41.27 0.253 7.41 4.53 11.32
10/21/2022 9:30:00 AM 5.22 41.396 0.253 7.42 4.52 11.41
10/21/2022 9:45:00 AM 5.32 41.576 0.253 7.43 4.52 11.5
10/21/2022 10:00:00 AM 5.45 41.81 0.253 7.44 4.49 11.6
10/21/2022 10:15:00 AM 5.6 42.08 0.253 7.45 4.58 11.69
10/21/2022 10:30:00 AM 5.79 42.422 0.253 7.46 4.47 11.77
10/21/2022 10:45:00 AM 6 42.8 0.253 7.47 4.52 11.85
10/21/2022 11:00:00 AM 6.25 43.25 0.253 7.48 4.56 11.91
10/21/2022 11:15:00 AM 6.5 43.7 0.253 7.49 4.5 11.97
10/21/2022 11:30:00 AM 6.78 44.204 0.253 7.5 4.57 12.02
10/21/2022 11:45:00 AM 7.06 44.708 0.252 7.51 4.64 12.06
10/21/2022 12:00:00 PM 7.32 45.176 0.252 7.52 4.6 12.09
10/21/2022 12:15:00 PM 7.59 45.662 0.252 7.53 6.49 12.13
10/21/2022 12:30:00 PM 7.86 46.148 0.252 7.54 4.81 12.15
10/21/2022 12:45:00 PM 8.12 46.616 0.253 7.55 4.58 12.16
10/21/2022 1:00:00 PM 8.35 47.03 0.252 7.56 4.8 12.17
10/21/2022 1:15:00 PM 8.58 47.444 0.252 7.57 4.79 12.18
10/21/2022 1:30:00 PM 8.8 47.84 0.252 7.58 4.53 12.18
10/21/2022 1:45:00 PM 8.98 48.164 0.252 7.58 4.56 12.18
10/21/2022 2:00:00 PM 9.16 48.488 0.252 7.59 4.62 12.17
10/21/2022 2:15:00 PM 9.31 48.758 0.252 7.6 4.84 12.17
10/21/2022 2:30:00 PM 9.45 49.01 0.253 7.6 4.6 12.15
10/21/2022 2:45:00 PM 9.58 49.244 0.252 7.61 4.74 12.14
10/21/2022 3:00:00 PM 9.67 49.406 0.252 7.61 4.66 12.11
10/21/2022 3:15:00 PM 9.73 49.514 0.253 7.61 4.63 12.08
10/21/2022 3:30:00 PM 9.77 49.586 0.253 7.61 4.62 12.05
10/21/2022 3:45:00 PM 9.76 49.568 0.253 7.61 4.64 12.01
10/21/2022 4:00:00 PM 9.73 49.514 0.253 7.61 4.57 11.96
10/21/2022 4:15:00 PM 9.67 49.406 0.253 7.61 4.64 11.9
10/21/2022 4:30:00 PM 9.59 49.262 0.254 7.6 4.77 11.85
10/21/2022 4:45:00 PM 9.47 49.046 0.254 7.59 4.55 11.76
10/21/2022 5:00:00 PM 9.31 48.758 0.254 7.58 4.58 11.68
10/21/2022 5:15:00 PM 9.12 48.416 0.254 7.56 4.6 11.57
10/21/2022 5:30:00 PM 8.88 47.984 0.255 7.54 4.62 11.43
10/21/2022 5:45:00 PM 8.65 47.57 0.255 7.52 4.72 11.29
10/21/2022 6:00:00 PM 8.45 47.21 0.255 7.5 4.81 11.15
10/21/2022 6:15:00 PM 8.28 46.904 0.255 7.48 4.56 11.06
10/21/2022 6:30:00 PM 8.13 46.634 0.256 7.47 4.58 10.97
10/21/2022 6:45:00 PM 8 46.4 0.256 7.46 4.56 10.89
10/21/2022 7:00:00 PM 7.89 46.202 0.256 7.45 4.59 10.82
10/21/2022 7:15:00 PM 7.78 46.004 0.256 7.43 4.5 10.77
10/21/2022 7:30:00 PM 7.68 45.824 0.256 7.42 4.49 10.73
10/21/2022 7:45:00 PM 7.6 45.68 0.257 7.42 4.45 10.69
10/21/2022 8:00:00 PM 7.53 45.554 0.257 7.41 4.54 10.67
10/21/2022 8:15:00 PM 7.47 45.446 0.257 7.4 4.59 10.64
10/21/2022 8:30:00 PM 7.41 45.338 0.257 7.4 4.7 10.62
10/21/2022 8:45:00 PM 7.37 45.266 0.257 7.39 5.01 10.6
10/21/2022 9:00:00 PM 7.32 45.176 0.257 7.39 4.66 10.58
10/21/2022 9:15:00 PM 7.29 45.122 0.257 7.38 5 10.57
10/21/2022 9:30:00 PM 7.25 45.05 0.257 7.38 4.57 10.55
10/21/2022 9:45:00 PM 7.21 44.978 0.257 7.38 4.67 10.54
10/21/2022 10:00:00 PM 7.17 44.906 0.257 7.38 4.8 10.53
10/21/2022 10:15:00 PM 7.12 44.816 0.257 7.37 4.72 10.53
10/21/2022 10:30:00 PM 7.08 44.744 0.257 7.37 4.67 10.52
10/21/2022 10:45:00 PM 7.03 44.654 0.257 7.37 4.91 10.51
10/21/2022 11:00:00 PM 6.98 44.564 0.257 7.37 4.69 10.51
10/21/2022 11:15:00 PM 6.93 44.474 0.257 7.36 4.75 10.51
10/21/2022 11:30:00 PM 6.87 44.366 0.257 7.36 4.67 10.51
10/21/2022 11:45:00 PM 6.81 44.258 0.257 7.36 4.8 10.51
10/22/2022 12:00:00 AM 6.75 44.15 0.258 7.35 4.62 10.52
10/22/2022 12:15:00 AM 6.68 44.024 0.258 7.36 4.88 10.53
10/22/2022 12:30:00 AM 6.62 43.916 0.257 7.35 4.66 10.53
10/22/2022 12:45:00 AM 6.55 43.79 0.258 7.35 4.64 10.54
10/22/2022 1:00:00 AM 6.48 43.664 0.258 7.35 4.5 10.56
10/22/2022 1:15:00 AM 6.41 43.538 0.258 7.35 4.74 10.56
10/22/2022 1:30:00 AM 6.34 43.412 0.258 7.34 4.63 10.57
10/22/2022 1:45:00 AM 6.28 43.304 0.258 7.34 4.54 10.57
10/22/2022 2:00:00 AM 6.22 43.196 0.258 7.34 4.53 10.57
10/22/2022 2:15:00 AM 6.16 43.088 0.258 7.34 4.49 10.58
10/22/2022 2:30:00 AM 6.11 42.998 0.258 7.34 8.05 10.59
10/22/2022 2:45:00 AM 6.06 42.908 0.258 7.34 4.4 10.6
10/22/2022 3:00:00 AM 6.01 42.818 0.258 7.34 4.52 10.62
10/22/2022 3:15:00 AM 5.97 42.746 0.258 7.34 4.52 10.62
10/22/2022 3:30:00 AM 5.93 42.674 0.259 7.34 4.92 10.62
10/22/2022 3:45:00 AM 5.89 42.602 0.259 7.33 5.38 10.62
10/22/2022 4:00:00 AM 5.86 42.548 0.259 7.33 4.69 10.63
10/22/2022 4:15:00 AM 5.83 42.494 0.259 7.33 4.48 10.63
10/22/2022 4:30:00 AM 5.81 42.458 0.259 7.33 5.15 10.64
10/22/2022 4:45:00 AM 5.78 42.404 0.26 7.33 4.71 10.64
10/22/2022 5:00:00 AM 5.76 42.368 0.26 7.33 4.79 10.65
10/22/2022 5:15:00 AM 5.73 42.314 0.26 7.34 4.99 10.64
10/22/2022 5:30:00 AM 5.71 42.278 0.26 7.33 5.06 10.65
10/22/2022 5:45:00 AM 5.69 42.242 0.26 7.34 4.91 10.66
10/22/2022 6:00:00 AM 5.66 42.188 0.26 7.34 4.8 10.66
10/22/2022 6:15:00 AM 5.64 42.152 0.261 7.34 4.84 10.67
10/22/2022 6:30:00 AM 5.62 42.116 0.26 7.34 4.79 10.69
10/22/2022 6:45:00 AM 5.6 42.08 0.26 7.34 4.59 10.69
10/22/2022 7:00:00 AM 5.57 42.026 0.261 7.34 4.54 10.69
10/22/2022 7:15:00 AM 5.55 41.99 0.26 7.34 4.6 10.71
10/22/2022 7:30:00 AM 5.53 41.954 0.261 7.34 4.62 10.72
10/22/2022 7:45:00 AM 5.51 41.918 0.261 7.35 4.51 10.75
10/22/2022 8:00:00 AM 5.49 41.882 0.261 7.35 4.55 10.8
10/22/2022 8:15:00 AM 5.48 41.864 0.261 7.36 4.48 10.86
10/22/2022 8:30:00 AM 5.48 41.864 0.261 7.36 4.44 10.93
10/22/2022 8:45:00 AM 5.5 41.9 0.26 7.37 4.5 11.02
10/22/2022 9:00:00 AM 5.54 41.972 0.261 7.38 4.4 11.12
10/22/2022 9:15:00 AM 5.59 42.062 0.26 7.38 4.45 11.2
10/22/2022 9:30:00 AM 5.66 42.188 0.261 7.39 4.51 11.3
10/22/2022 9:45:00 AM 5.77 42.386 0.26 7.4 4.54 11.4
10/22/2022 10:00:00 AM 5.92 42.656 0.261 7.41 4.38 11.51
10/22/2022 10:15:00 AM 6.1 42.98 0.26 7.42 4.43 11.61
10/22/2022 10:30:00 AM 6.31 43.358 0.26 7.44 4.33 11.71
10/22/2022 10:45:00 AM 6.53 43.754 0.26 7.45 4.48 11.8
10/22/2022 11:00:00 AM 6.8 44.24 0.26 7.46 4.44 11.88
10/22/2022 11:15:00 AM 7.09 44.762 0.26 7.47 4.44 11.95
10/22/2022 11:30:00 AM 7.4 45.32 0.259 7.48 4.4 12
10/22/2022 11:45:00 AM 7.72 45.896 0.259 7.5 4.44 12.05
10/22/2022 12:00:00 PM 8.05 46.49 0.259 7.51 4.43 12.09
10/22/2022 12:15:00 PM 8.37 47.066 0.259 7.51 4.52 12.13
10/22/2022 12:30:00 PM 8.68 47.624 0.259 7.53 4.63 12.15
10/22/2022 12:45:00 PM 8.97 48.146 0.258 7.54 4.41 12.16
10/22/2022 1:00:00 PM 9.26 48.668 0.259 7.55 4.36 12.18
10/22/2022 1:15:00 PM 9.52 49.136 0.259 7.56 5.03 12.19
10/22/2022 1:30:00 PM 9.76 49.568 0.258 7.57 5.99 12.19
10/22/2022 1:45:00 PM 9.99 49.982 0.258 7.58 4.5 12.18
10/22/2022 2:00:00 PM 10.2 50.36 0.258 7.59 4.4 12.19
10/22/2022 2:15:00 PM 10.39 50.702 0.259 7.59 4.42 12.17
10/22/2022 2:30:00 PM 10.55 50.99 0.259 7.6 4.42 12.16
10/22/2022 2:45:00 PM 10.68 51.224 0.258 7.6 4.69 12.14
10/22/2022 3:00:00 PM 10.78 51.404 0.259 7.6 4.46 12.12
10/22/2022 3:15:00 PM 10.86 51.548 0.259 7.6 4.6 12.08
10/22/2022 3:30:00 PM 10.89 51.602 0.259 7.6 4.71 12.04
10/22/2022 3:45:00 PM 10.88 51.584 0.259 7.6 5.03 12
10/22/2022 4:00:00 PM 10.86 51.548 0.259 7.6 4.44 11.94
10/22/2022 4:15:00 PM 10.79 51.422 0.259 7.59 4.46 11.88
10/22/2022 4:30:00 PM 10.69 51.242 0.259 7.58 4.41 11.79
10/22/2022 4:45:00 PM 10.56 51.008 0.259 7.57 4.64 11.7
10/22/2022 5:00:00 PM 10.41 50.738 0.26 7.56 4.45 11.6
10/22/2022 5:15:00 PM 10.21 50.378 0.26 7.54 4.56 11.46
10/22/2022 5:30:00 PM 9.96 49.928 0.261 7.52 4.43 11.31
10/22/2022 5:45:00 PM 9.71 49.478 0.26 7.5 4.4 11.14
10/22/2022 6:00:00 PM 9.49 49.082 0.261 7.48 4.4 10.99
10/22/2022 6:15:00 PM 9.3 48.74 0.261 7.46 4.34 10.88
10/22/2022 6:30:00 PM 9.14 48.452 0.262 7.44 4.46 10.77
10/22/2022 6:45:00 PM 8.99 48.182 0.261 7.43 4.38 10.67
10/22/2022 7:00:00 PM 8.85 47.93 0.261 7.41 4.44 10.6
10/22/2022 7:15:00 PM 8.72 47.696 0.262 7.4 4.6 10.54
10/22/2022 7:30:00 PM 8.6 47.48 0.262 7.39 4.47 10.5
10/22/2022 7:45:00 PM 8.49 47.282 0.262 7.38 4.42 10.46
10/22/2022 8:00:00 PM 8.4 47.12 0.262 7.37 4.61 10.43
10/22/2022 8:15:00 PM 8.31 46.958 0.262 7.37 4.67 10.41
10/22/2022 8:30:00 PM 8.23 46.814 0.262 7.36 4.6 10.38
10/22/2022 8:45:00 PM 8.16 46.688 0.262 7.35 4.6 10.36
10/22/2022 9:00:00 PM 8.1 46.58 0.262 7.35 4.66 10.34
10/22/2022 9:15:00 PM 8.05 46.49 0.262 7.35 4.62 10.33
10/22/2022 9:30:00 PM 8 46.4 0.262 7.34 4.49 10.32
10/22/2022 9:45:00 PM 7.95 46.31 0.262 7.34 4.59 10.31
10/22/2022 10:00:00 PM 7.91 46.238 0.262 7.34 4.57 10.31
10/22/2022 10:15:00 PM 7.86 46.148 0.262 7.34 4.55 10.3
10/22/2022 10:30:00 PM 7.82 46.076 0.262 7.34 4.44 10.3
10/22/2022 10:45:00 PM 7.78 46.004 0.262 7.34 4.53 10.3
10/22/2022 11:00:00 PM 7.73 45.914 0.262 7.34 4.66 10.3
10/22/2022 11:15:00 PM 7.69 45.842 0.262 7.34 4.57 10.3
10/22/2022 11:30:00 PM 7.64 45.752 0.262 7.34 5.26 10.29
10/22/2022 11:45:00 PM 7.59 45.662 0.262 7.33 4.52 10.29
10/23/2022 12:00:00 AM 7.54 45.572 0.262 7.33 4.2 10.29
10/23/2022 12:15:00 AM 7.48 45.464 0.262 7.33 4.38 10.3
10/23/2022 12:30:00 AM 7.42 45.356 0.262 7.33 4.18 10.3
10/23/2022 12:45:00 AM 7.36 45.248 0.262 7.33 4.28 10.3
10/23/2022 1:00:00 AM 7.29 45.122 0.262 7.33 4.26 10.31
10/23/2022 1:15:00 AM 7.22 44.996 0.262 7.33 4.22 10.33
10/23/2022 1:30:00 AM 7.15 44.87 0.262 7.33 5.04 10.34
10/23/2022 1:45:00 AM 7.07 44.726 0.262 7.32 4.34 10.35
10/23/2022 2:00:00 AM 7 44.6 0.262 7.32 4.19 10.37
10/23/2022 2:15:00 AM 6.93 44.474 0.262 7.33 4.21 10.38
10/23/2022 2:30:00 AM 6.86 44.348 0.262 7.32 4.88 10.39
10/23/2022 2:45:00 AM 6.79 44.222 0.262 7.32 4.51 10.41
10/23/2022 3:00:00 AM 6.72 44.096 0.263 7.33 4.39 10.42
10/23/2022 3:15:00 AM 6.65 43.97 0.262 7.33 4.5 10.44
10/23/2022 3:30:00 AM 6.59 43.862 0.263 7.33 4.52 10.45
10/23/2022 3:45:00 AM 6.54 43.772 0.262 7.33 4.8 10.46
10/23/2022 4:00:00 AM 6.48 43.664 0.262 7.33 4.54 10.47
10/23/2022 4:15:00 AM 6.43 43.574 0.263 7.33 4.42 10.48
10/23/2022 4:30:00 AM 6.39 43.502 0.262 7.33 4.53 10.49
10/23/2022 4:45:00 AM 6.34 43.412 0.263 7.33 4.47 10.5
10/23/2022 5:00:00 AM 6.3 43.34 0.263 7.33 4.6 10.51
10/23/2022 5:15:00 AM 6.27 43.286 0.263 7.33 4.53 10.52
10/23/2022 5:30:00 AM 6.23 43.214 0.263 7.33 4.53 10.53
10/23/2022 5:45:00 AM 6.2 43.16 0.263 7.33 4.38 10.53
10/23/2022 6:00:00 AM 6.16 43.088 0.263 7.33 4.82 10.54
10/23/2022 6:15:00 AM 6.13 43.034 0.263 7.33 5.06 10.55
10/23/2022 6:30:00 AM 6.1 42.98 0.263 7.34 4.58 10.55
10/23/2022 6:45:00 AM 6.08 42.944 0.264 7.34 4.79 10.56
10/23/2022 7:00:00 AM 6.05 42.89 0.264 7.33 4.49 10.57
10/23/2022 7:15:00 AM 6.02 42.836 0.264 7.33 4.57 10.57
10/23/2022 7:30:00 AM 5.99 42.782 0.264 7.33 4.57 10.58
10/23/2022 7:45:00 AM 5.96 42.728 0.264 7.34 4.59 10.61
10/23/2022 8:00:00 AM 5.94 42.692 0.264 7.34 4.5 10.64
10/23/2022 8:15:00 AM 5.93 42.674 0.264 7.34 4.45 10.69
10/23/2022 8:30:00 AM 5.92 42.656 0.264 7.35 4.42 10.77
10/23/2022 8:45:00 AM 5.95 42.71 0.264 7.36 4.38 10.9
10/23/2022 9:00:00 AM 5.98 42.764 0.264 7.37 4.44 11.04
10/23/2022 9:15:00 AM 6.02 42.836 0.264 7.38 4.42 11.15
10/23/2022 9:30:00 AM 6.05 42.89 0.264 7.39 4.32 11.22
10/23/2022 9:45:00 AM 6.15 43.07 0.264 7.4 4.28 11.34
10/23/2022 10:00:00 AM 6.28 43.304 0.264 7.41 4.22 11.47
10/23/2022 10:15:00 AM 6.45 43.61 0.263 7.42 4.21 11.58
10/23/2022 10:30:00 AM 6.58 43.844 0.264 7.43 4.24 11.7
10/23/2022 10:45:00 AM 6.78 44.204 0.263 7.45 4.35 11.8
10/23/2022 11:00:00 AM 7.03 44.654 0.263 7.46 4.22 11.9
10/23/2022 11:15:00 AM 7.27 45.086 0.263 7.47 4.34 11.97
10/23/2022 11:30:00 AM 7.56 45.608 0.263 7.48 4.4 12.04
10/23/2022 11:45:00 AM 7.88 46.184 0.263 7.5 4.29 12.11
10/23/2022 12:00:00 PM 8.22 46.796 0.262 7.51 4.45 12.15
10/23/2022 12:15:00 PM 8.53 47.354 0.263 7.52 4.37 12.19
10/23/2022 12:30:00 PM 8.83 47.894 0.262 7.53 4.41 12.21
10/23/2022 12:45:00 PM 9.11 48.398 0.262 7.55 4.4 12.23
10/23/2022 1:00:00 PM 9.36 48.848 0.262 7.56 4.5 12.26
10/23/2022 1:15:00 PM 9.47 49.046 0.262 7.57 4.5 12.24
10/23/2022 1:30:00 PM 9.65 49.37 0.262 7.58 4.42 12.25
10/23/2022 1:45:00 PM 9.93 49.874 0.262 7.59 4.7 12.28
10/23/2022 2:00:00 PM 10.12 50.216 0.262 7.6 4.5 12.29
10/23/2022 2:15:00 PM 10.24 50.432 0.261 7.61 4.65 12.28
10/23/2022 2:30:00 PM 10.36 50.648 0.261 7.62 7.67 12.26
10/23/2022 2:45:00 PM 10.47 50.846 0.261 7.62 5.48 12.23
10/23/2022 3:00:00 PM 10.65 51.17 0.261 7.63 4.59 12.22
10/23/2022 3:15:00 PM 10.8 51.44 0.261 7.64 4.54 12.23
10/23/2022 3:30:00 PM 10.89 51.602 0.262 7.64 4.5 12.2
10/23/2022 3:45:00 PM 10.91 51.638 0.261 7.64 4.6 12.17
10/23/2022 4:00:00 PM 10.92 51.656 0.261 7.64 4.61 12.14
10/23/2022 4:15:00 PM 10.87 51.566 0.262 7.63 4.72 12.05
10/23/2022 4:30:00 PM 10.77 51.386 0.262 7.62 4.48 11.95
10/23/2022 4:45:00 PM 10.59 51.062 0.262 7.6 4.63 11.8
10/23/2022 5:00:00 PM 10.46 50.828 0.262 7.58 4.72 11.7
10/23/2022 5:15:00 PM 10.26 50.468 0.263 7.56 4.67 11.55
10/23/2022 5:30:00 PM 10.01 50.018 0.262 7.53 4.55 11.35
10/23/2022 5:45:00 PM 9.79 49.622 0.263 7.51 4.68 11.18
10/23/2022 6:00:00 PM 9.58 49.244 0.263 7.49 4.51 11.03
10/23/2022 6:15:00 PM 9.4 48.92 0.264 7.47 5 10.9
10/23/2022 6:30:00 PM 9.25 48.65 0.264 7.45 4.5 10.79
10/23/2022 6:45:00 PM 9.11 48.398 0.264 7.43 4.55 10.68
10/23/2022 7:00:00 PM 8.99 48.182 0.264 7.42 4.69 10.6
10/23/2022 7:15:00 PM 8.88 47.984 0.264 7.4 4.76 10.53
10/23/2022 7:30:00 PM 8.78 47.804 0.265 7.39 4.71 10.49
10/23/2022 7:45:00 PM 8.69 47.642 0.265 7.39 4.48 10.44
10/23/2022 8:00:00 PM 8.64 47.552 0.265 7.38 4.71 10.4
10/23/2022 8:15:00 PM 8.58 47.444 0.265 7.37 4.47 10.37
10/23/2022 8:30:00 PM 8.52 47.336 0.265 7.36 4.61 10.34
10/23/2022 8:45:00 PM 8.46 47.228 0.265 7.36 4.66 10.32
10/23/2022 9:00:00 PM 8.41 47.138 0.265 7.36 4.8 10.3
10/23/2022 9:15:00 PM 8.39 47.102 0.265 7.35 4.6 10.29
10/23/2022 9:30:00 PM 8.37 47.066 0.266 7.35 4.55 10.27
10/23/2022 9:45:00 PM 8.32 46.976 0.265 7.35 4.51 10.26
10/23/2022 10:00:00 PM 8.3 46.94 0.266 7.35 4.73 10.24
10/23/2022 10:15:00 PM 8.3 46.94 0.266 7.35 4.7 10.23
10/23/2022 10:30:00 PM 8.31 46.958 0.266 7.34 4.59 10.22
10/23/2022 10:45:00 PM 8.3 46.94 0.266 7.34 4.79 10.2
10/23/2022 11:00:00 PM 8.27 46.886 0.266 7.34 4.54 10.2
10/23/2022 11:15:00 PM 8.23 46.814 0.266 7.34 4.88 10.19
10/23/2022 11:30:00 PM 8.2 46.76 0.266 7.34 4.56 10.18
10/23/2022 11:45:00 PM 8.17 46.706 0.265 7.34 4.53 10.18
10/24/2022 12:00:00 AM 8.16 46.688 0.266 7.34 4.6 10.17
10/24/2022 12:15:00 AM 8.11 46.598 0.266 7.34 4.74 10.17
10/24/2022 12:30:00 AM 8.07 46.526 0.266 7.33 4.71 10.17
10/24/2022 12:45:00 AM 8.03 46.454 0.266 7.33 4.55 10.17
10/24/2022 1:00:00 AM 8.04 46.472 0.266 7.33 4.9 10.17
10/24/2022 1:15:00 AM 8.04 46.472 0.265 7.33 4.62 10.17
10/24/2022 1:30:00 AM 8.02 46.436 0.266 7.33 4.77 10.16
10/24/2022 1:45:00 AM 7.98 46.364 0.266 7.33 4.66 10.16
10/24/2022 2:00:00 AM 7.95 46.31 0.265 7.32 4.67 10.16
10/24/2022 2:15:00 AM 7.92 46.256 0.265 7.32 4.88 10.16
10/24/2022 2:30:00 AM 7.87 46.166 0.266 7.32 4.51 10.16
10/24/2022 2:45:00 AM 7.82 46.076 0.266 7.32 4.87 10.17
10/24/2022 3:00:00 AM 7.76 45.968 0.266 7.32 4.71 10.17
10/24/2022 3:15:00 AM 7.7 45.86 0.266 7.32 4.6 10.18
10/24/2022 3:30:00 AM 7.65 45.77 0.266 7.32 4.68 10.18
10/24/2022 3:45:00 AM 7.6 45.68 0.266 7.32 4.64 10.19
10/24/2022 4:00:00 AM 7.55 45.59 0.266 7.31 4.58 10.2
10/24/2022 4:15:00 AM 7.5 45.5 0.266 7.32 4.76 10.21
10/24/2022 4:30:00 AM 7.45 45.41 0.266 7.32 4.69 10.21
10/24/2022 4:45:00 AM 7.41 45.338 0.266 7.31 4.61 10.22
10/24/2022 5:00:00 AM 7.37 45.266 0.266 7.32 4.69 10.23
10/24/2022 5:15:00 AM 7.33 45.194 0.266 7.32 4.56 10.23
10/24/2022 5:30:00 AM 7.3 45.14 0.266 7.32 4.72 10.24
10/24/2022 5:45:00 AM 7.27 45.086 0.266 7.32 4.86 10.25
10/24/2022 6:00:00 AM 7.24 45.032 0.266 7.32 4.7 10.24
10/24/2022 6:15:00 AM 7.21 44.978 0.266 7.32 4.79 10.24
10/24/2022 6:30:00 AM 7.18 44.924 0.266 7.32 4.73 10.25
10/24/2022 6:45:00 AM 7.16 44.888 0.266 7.32 4.73 10.25
10/24/2022 7:00:00 AM 7.14 44.852 0.267 7.32 4.61 10.26
10/24/2022 7:15:00 AM 7.12 44.816 0.267 7.32 4.67 10.26
10/24/2022 7:30:00 AM 7.09 44.762 0.267 7.32 4.73 10.27
10/24/2022 7:45:00 AM 7.08 44.744 0.267 7.32 4.87 10.3
10/24/2022 8:00:00 AM 7.07 44.726 0.267 7.32 4.68 10.34
10/24/2022 8:15:00 AM 7.07 44.726 0.267 7.33 4.53 10.41
10/24/2022 8:30:00 AM 7.07 44.726 0.267 7.33 4.63 10.48
10/24/2022 8:45:00 AM 7.1 44.78 0.267 7.34 4.44 10.58
10/24/2022 9:00:00 AM 7.14 44.852 0.267 7.35 4.5 10.69
10/24/2022 9:15:00 AM 7.2 44.96 0.267 7.36 4.46 10.8
10/24/2022 9:30:00 AM 7.28 45.104 0.267 7.37 4.52 10.9
10/24/2022 9:45:00 AM 7.39 45.302 0.267 7.38 4.54 11.02
10/24/2022 10:00:00 AM 7.55 45.59 0.267 7.4 4.56 11.16
10/24/2022 10:15:00 AM 7.73 45.914 0.267 7.41 4.89 11.3
10/24/2022 10:30:00 AM 7.93 46.274 0.267 7.42 4.96 11.43
10/24/2022 10:45:00 AM 8.16 46.688 0.267 7.44 4.7 11.53
10/24/2022 11:00:00 AM 8.43 47.174 0.266 7.45 5.29 11.63
10/24/2022 11:15:00 AM 8.72 47.696 0.266 7.47 4.54 11.72
10/24/2022 11:30:00 AM 9.02 48.236 0.266 7.49 4.48 11.78
10/24/2022 11:45:00 AM 9.35 48.83 0.266 7.5 4.48 11.87
10/24/2022 12:00:00 PM 9.69 49.442 0.266 7.51 4.8 11.93
10/24/2022 12:15:00 PM 10.02 50.036 0.266 7.53 4.61 11.99
10/24/2022 12:30:00 PM 10.34 50.612 0.265 7.55 4.71 12.02
10/24/2022 12:45:00 PM 10.68 51.224 0.265 7.56 4.59 12.06
10/24/2022 1:00:00 PM 10.97 51.746 0.265 7.57 4.63 12.07
10/24/2022 1:15:00 PM 11.25 52.25 0.265 7.59 4.68 12.08
10/24/2022 1:30:00 PM 11.53 52.754 0.265 7.6 4.52 12.1
10/24/2022 1:45:00 PM 11.77 53.186 0.265 7.61 4.65 12.1
10/24/2022 2:00:00 PM 12.01 53.618 0.265 7.62 4.74 12.09
10/24/2022 2:15:00 PM 12.21 53.978 0.265 7.64 5.01 12.08
10/24/2022 2:30:00 PM 12.4 54.32 0.265 7.65 4.84 12.08
10/24/2022 2:45:00 PM 12.57 54.626 0.265 7.66 5.24 12.05
10/24/2022 3:00:00 PM 12.7 54.86 0.265 7.66 4.93 12.01
10/24/2022 3:15:00 PM 12.78 55.004 0.265 7.67 4.79 11.98
10/24/2022 3:30:00 PM 12.83 55.094 0.265 7.67 4.77 11.93
10/24/2022 3:45:00 PM 12.85 55.13 0.265 7.67 4.77 11.87
10/24/2022 4:00:00 PM 12.83 55.094 0.265 7.66 4.93 11.79
10/24/2022 4:15:00 PM 12.76 54.968 0.265 7.65 4.73 11.71
10/24/2022 4:30:00 PM 12.66 54.788 0.265 7.64 5 11.6
10/24/2022 4:45:00 PM 12.53 54.554 0.265 7.62 4.81 11.47
10/24/2022 5:00:00 PM 12.37 54.266 0.266 7.6 4.66 11.32
10/24/2022 5:15:00 PM 12.18 53.924 0.266 7.58 4.89 11.15
10/24/2022 5:30:00 PM 11.93 53.474 0.266 7.55 4.78 10.94
10/24/2022 5:45:00 PM 11.67 53.006 0.266 7.52 4.95 10.72
10/24/2022 6:00:00 PM 11.44 52.592 0.266 7.49 4.79 10.53
10/24/2022 6:15:00 PM 11.27 52.286 0.267 7.47 5.24 10.38
10/24/2022 6:30:00 PM 11.11 51.998 0.267 7.45 4.79 10.25
10/24/2022 6:45:00 PM 10.96 51.728 0.267 7.43 4.91 10.13
10/24/2022 7:00:00 PM 10.83 51.494 0.267 7.41 4.8 10.04
10/24/2022 7:15:00 PM 10.7 51.26 0.268 7.4 4.63 9.97
10/24/2022 7:30:00 PM 10.57 51.026 0.268 7.39 4.65 9.93
10/24/2022 7:45:00 PM 10.45 50.81 0.268 7.37 4.71 9.89
10/24/2022 8:00:00 PM 10.34 50.612 0.268 7.37 4.85 9.87
10/24/2022 8:15:00 PM 10.25 50.45 0.268 7.36 4.95 9.84
10/24/2022 8:30:00 PM 10.15 50.27 0.268 7.36 5.15 9.83
10/24/2022 8:45:00 PM 10.07 50.126 0.268 7.35 4.75 9.8
10/24/2022 9:00:00 PM 10 50 0.268 7.34 4.72 9.79
10/24/2022 9:15:00 PM 9.93 49.874 0.268 7.34 4.7 9.76
10/24/2022 9:30:00 PM 9.87 49.766 0.268 7.33 5.93 9.76
10/24/2022 9:45:00 PM 9.81 49.658 0.268 7.33 4.7 9.74
10/24/2022 10:00:00 PM 9.76 49.568 0.269 7.33 5.05 9.74
10/24/2022 10:15:00 PM 9.72 49.496 0.269 7.33 4.8 9.73
10/24/2022 10:30:00 PM 9.67 49.406 0.268 7.32 4.81 9.72
10/24/2022 10:45:00 PM 9.64 49.352 0.268 7.32 4.81 9.72
10/24/2022 11:00:00 PM 9.6 49.28 0.268 7.32 4.79 9.7
10/24/2022 11:15:00 PM 9.56 49.208 0.268 7.32 4.98 9.69
10/24/2022 11:30:00 PM 9.53 49.154 0.269 7.32 4.94 9.69
10/24/2022 11:45:00 PM 9.49 49.082 0.268 7.32 5.07 9.68
10/25/2022 12:00:00 AM 9.45 49.01 0.268 7.32 5.24 9.69
10/25/2022 12:15:00 AM 9.41 48.938 0.269 7.31 4.77 9.66
10/25/2022 12:30:00 AM 9.38 48.884 0.269 7.31 4.79 9.67
10/25/2022 12:45:00 AM 9.34 48.812 0.269 7.31 4.74 9.67
10/25/2022 1:00:00 AM 9.29 48.722 0.269 7.31 4.85 9.68
10/25/2022 1:15:00 AM 9.25 48.65 0.269 7.31 4.88 9.68
10/25/2022 1:30:00 AM 9.2 48.56 0.269 7.31 4.86 9.68
10/25/2022 1:45:00 AM 9.15 48.47 0.268 7.31 5.08 9.69
10/25/2022 2:00:00 AM 9.09 48.362 0.268 7.31 4.96 9.69
10/25/2022 2:15:00 AM 9.04 48.272 0.268 7.31 5.17 9.7
10/25/2022 2:30:00 AM 8.99 48.182 0.268 7.31 4.83 9.71
10/25/2022 2:45:00 AM 8.97 48.146 0.268 7.31 5.17 9.71
10/25/2022 3:00:00 AM 8.95 48.11 0.268 7.31 4.87 9.73
10/25/2022 3:15:00 AM 8.95 48.11 0.269 7.31 5.34 9.7
10/25/2022 3:30:00 AM 8.95 48.11 0.268 7.31 4.92 9.72
10/25/2022 3:45:00 AM 8.94 48.092 0.268 7.31 5.12 9.72
10/25/2022 4:00:00 AM 8.94 48.092 0.268 7.31 4.9 9.73
10/25/2022 4:15:00 AM 8.94 48.092 0.268 7.31 5.13 9.73
10/25/2022 4:30:00 AM 8.94 48.092 0.268 7.31 8.06 9.72
10/25/2022 4:45:00 AM 8.94 48.092 0.268 7.3 7.01 9.72
10/25/2022 5:00:00 AM 8.95 48.11 0.269 7.31 5.44 9.72
10/25/2022 5:15:00 AM 8.97 48.146 0.268 7.31 5.17 9.72
10/25/2022 5:30:00 AM 8.99 48.182 0.269 7.31 5.24 9.72
10/25/2022 5:45:00 AM 9.02 48.236 0.268 7.31 6.79 9.71
10/25/2022 6:00:00 AM 9.03 48.254 0.268 7.31 6.07 9.71
10/25/2022 6:15:00 AM 9.06 48.308 0.268 7.31 5.8 9.67
10/25/2022 6:30:00 AM 9.08 48.344 0.269 7.31 5.38 9.68
10/25/2022 6:45:00 AM 9.1 48.38 0.269 7.31 5.21 9.68
10/25/2022 7:00:00 AM 9.12 48.416 0.269 7.31 5.34 9.67
10/25/2022 7:15:00 AM 9.15 48.47 0.269 7.31 5.21 9.66
10/25/2022 7:30:00 AM 9.17 48.506 0.269 7.3 5.22 9.66
10/25/2022 7:45:00 AM 9.19 48.542 0.269 7.31 5.39 9.66
10/25/2022 8:00:00 AM 9.23 48.614 0.269 7.31 6.13 9.67
10/25/2022 8:15:00 AM 9.26 48.668 0.269 7.31 5.69 9.71
10/25/2022 8:30:00 AM 9.31 48.758 0.269 7.32 5.41 9.8
10/25/2022 8:45:00 AM 9.36 48.848 0.269 7.33 5.35 9.92
10/25/2022 9:00:00 AM 9.42 48.956 0.269 7.34 5.87 10.06
10/25/2022 9:15:00 AM 9.49 49.082 0.269 7.36 5.25 10.22
10/25/2022 9:30:00 AM 9.6 49.28 0.268 7.38 5.32 10.44
10/25/2022 9:45:00 AM 9.74 49.532 0.268 7.4 5.4 10.64
10/25/2022 10:00:00 AM 9.84 49.712 0.268 7.41 5.3 10.78
10/25/2022 10:15:00 AM 10 50 0.268 7.43 5.05 10.92
10/25/2022 10:30:00 AM 10.17 50.306 0.268 7.45 5.26 11.05
10/25/2022 10:45:00 AM 10.33 50.594 0.268 7.46 5.07 11.17
10/25/2022 11:00:00 AM 10.52 50.936 0.268 7.48 5.04 11.28
10/25/2022 11:15:00 AM 10.75 51.35 0.268 7.5 5.22 11.37
10/25/2022 11:30:00 AM 10.99 51.782 0.267 7.51 6.09 11.47
10/25/2022 11:45:00 AM 11.28 52.304 0.267 7.53 5.38 11.55
10/25/2022 12:00:00 PM 11.58 52.844 0.267 7.55 5.29 11.64
10/25/2022 12:15:00 PM 11.87 53.366 0.267 7.56 5.46 11.7
10/25/2022 12:30:00 PM 12.16 53.888 0.267 7.56 7.62 11.76
10/25/2022 12:45:00 PM 12.45 54.41 0.267 7.6 5.77 11.8
10/25/2022 1:00:00 PM 12.72 54.896 0.267 7.62 5.84 11.83
10/25/2022 1:15:00 PM 12.96 55.328 0.267 7.63 5.56 11.84
10/25/2022 1:30:00 PM 13.2 55.76 0.266 7.65 5.48 11.87
10/25/2022 1:45:00 PM 13.42 56.156 0.267 7.66 5.51 11.88
10/25/2022 2:00:00 PM 13.62 56.516 0.266 7.68 5.65 11.86
10/25/2022 2:15:00 PM 13.8 56.84 0.266 7.69 5.57 11.86
10/25/2022 2:30:00 PM 13.96 57.128 0.267 7.7 5.68 11.85
10/25/2022 2:45:00 PM 14.06 57.308 0.266 7.71 5.62 11.82
10/25/2022 3:00:00 PM 14.1 57.38 0.266 7.71 6.07 11.76
10/25/2022 3:15:00 PM 14.2 57.56 0.266 7.72 5.6 11.76
10/25/2022 3:30:00 PM 14.23 57.614 0.266 7.72 5.96 11.7
10/25/2022 3:45:00 PM 14.24 57.632 0.266 7.72 5.38 11.66
10/25/2022 4:00:00 PM 14.18 57.524 0.266 7.72 5.62 11.59
10/25/2022 4:15:00 PM 14.07 57.326 0.266 7.71 5.68 11.46
10/25/2022 4:30:00 PM 13.94 57.092 0.266 7.69 5.64 11.35
10/25/2022 4:45:00 PM 13.75 56.75 0.266 7.66 5.58 11.15
10/25/2022 5:00:00 PM 13.57 56.426 0.267 7.64 6.08 10.98
10/25/2022 5:15:00 PM 13.33 55.994 0.267 7.61 5.51 10.77
10/25/2022 5:30:00 PM 13.09 55.562 0.267 7.57 5.56 10.56
10/25/2022 5:45:00 PM 12.86 55.148 0.267 7.53 6.23 10.35
10/25/2022 6:00:00 PM 12.67 54.806 0.268 7.51 6.13 10.16
10/25/2022 6:15:00 PM 12.49 54.482 0.268 7.49 6.41 10.02
10/25/2022 6:30:00 PM 12.32 54.176 0.268 7.46 5.53 9.86
10/25/2022 6:45:00 PM 12.17 53.906 0.268 7.45 5.92 9.74
10/25/2022 7:00:00 PM 12.03 53.654 0.269 7.43 7.16 9.64
10/25/2022 7:15:00 PM 11.91 53.438 0.269 7.42 10.91 9.57
10/25/2022 7:30:00 PM 11.78 53.204 0.269 7.4 5.38 9.53
10/25/2022 7:45:00 PM 11.67 53.006 0.269 7.39 5.54 9.45
10/25/2022 8:00:00 PM 11.56 52.808 0.269 7.38 9.4 9.45
10/25/2022 8:15:00 PM 11.46 52.628 0.269 7.38 5.46 9.41
10/25/2022 8:30:00 PM 11.35 52.43 0.269 7.37 9.69 9.38
10/25/2022 8:45:00 PM 11.27 52.286 0.269 7.36 6.04 9.36
10/25/2022 9:00:00 PM 11.2 52.16 0.269 7.36 5.59 9.35
10/25/2022 9:15:00 PM 11.16 52.088 0.269 7.35 5.81 9.3
10/25/2022 9:30:00 PM 11.13 52.034 0.27 7.35 5.77 9.32
10/25/2022 9:45:00 PM 11.1 51.98 0.269 7.35 5.24 9.27
10/25/2022 10:00:00 PM 11.07 51.926 0.269 7.34 7.65 9.29
10/25/2022 10:15:00 PM 11.06 51.908 0.269 7.34 5.52 9.28
10/25/2022 10:30:00 PM 11.05 51.89 0.269 7.34 5.31 9.26
10/25/2022 10:45:00 PM 11.03 51.854 0.269 7.34 5.25 9.25
10/25/2022 11:00:00 PM 11.04 51.872 0.269 7.34 5.59 9.25
10/25/2022 11:15:00 PM 11.04 51.872 0.269 7.33 5.35 9.23
10/25/2022 11:30:00 PM 11.02 51.836 0.27 7.33 5.55 9.22
10/25/2022 11:45:00 PM 11.01 51.818 0.27 7.33 5.24 9.21
10/26/2022 12:00:00 AM 10.99 51.782 0.269 7.33 5.19 9.18
10/26/2022 12:15:00 AM 10.97 51.746 0.269 7.32 5.66 9.18
10/26/2022 12:30:00 AM 10.95 51.71 0.269 7.32 5.92 9.17
10/26/2022 12:45:00 AM 10.93 51.674 0.269 7.31 5.86 9.16
10/26/2022 1:00:00 AM 10.89 51.602 0.269 7.31 5.46 9.15
10/26/2022 1:15:00 AM 10.85 51.53 0.269 7.31 5.33 9.13
10/26/2022 1:30:00 AM 10.8 51.44 0.27 7.31 5.58 9.13
10/26/2022 1:45:00 AM 10.77 51.386 0.27 7.31 5.28 9.14
10/26/2022 2:00:00 AM 10.74 51.332 0.27 7.3 5.5 9.12
10/26/2022 2:15:00 AM 10.71 51.278 0.269 7.3 5.34 9.13
10/26/2022 2:30:00 AM 10.66 51.188 0.269 7.3 5.39 9.13
10/26/2022 2:45:00 AM 10.62 51.116 0.269 7.3 5.33 9.13
10/26/2022 3:00:00 AM 10.58 51.044 0.269 7.3 5.63 9.1
10/26/2022 3:15:00 AM 10.53 50.954 0.269 7.3 5.4 9.12
10/26/2022 3:30:00 AM 10.49 50.882 0.269 7.3 5.25 9.13
10/26/2022 3:45:00 AM 10.46 50.828 0.269 7.3 5.6 9.13
10/26/2022 4:00:00 AM 10.41 50.738 0.269 7.3 5.37 9.15
10/26/2022 4:15:00 AM 10.35 50.63 0.269 7.3 5.48 9.15
10/26/2022 4:30:00 AM 10.3 50.54 0.27 7.3 5.49 9.14
10/26/2022 4:45:00 AM 10.27 50.486 0.269 7.3 5.65 9.16
10/26/2022 5:00:00 AM 10.23 50.414 0.269 7.3 6.28 9.16
10/26/2022 5:15:00 AM 10.2 50.36 0.269 7.3 5.78 9.18
10/26/2022 5:30:00 AM 10.17 50.306 0.269 7.3 6.6 9.16
10/26/2022 5:45:00 AM 10.14 50.252 0.27 7.3 6.02 9.16
10/26/2022 6:00:00 AM 10.09 50.162 0.27 7.29 5.57 9.16
10/26/2022 6:15:00 AM 10.05 50.09 0.27 7.3 6.27 9.1
10/26/2022 6:30:00 AM 10 50 0.269 7.3 7.71 9.17
10/26/2022 6:45:00 AM 9.95 49.91 0.269 7.29 9.01 9.2
10/26/2022 7:00:00 AM 9.91 49.838 0.27 7.28 6.95 9.2
10/26/2022 7:15:00 AM 9.88 49.784 0.27 7.3 5.68 9.2
10/26/2022 7:30:00 AM 9.85 49.73 0.27 7.3 5.51 9.2
10/26/2022 7:45:00 AM 9.82 49.676 0.27 7.3 5.78 9.23
10/26/2022 8:00:00 AM 9.8 49.64 0.27 7.3 5.72 9.27
10/26/2022 8:15:00 AM 9.82 49.676 0.27 7.3 5.75 9.38
10/26/2022 8:30:00 AM 9.91 49.838 0.27 7.32 5.82 9.62
10/26/2022 8:45:00 AM 9.99 49.982 0.271 7.34 5.53 9.82
10/26/2022 9:00:00 AM 10.05 50.09 0.27 7.35 5.64 9.91
10/26/2022 9:15:00 AM 10.1 50.18 0.271 7.36 5.54 9.93
10/26/2022 9:30:00 AM 10.14 50.252 0.27 7.36 5.46 9.85
10/26/2022 9:45:00 AM 10.18 50.324 0.27 7.19 7.65 9.8
10/26/2022 10:00:00 AM 10.25 50.45 0.269 7.33 6.51 9.85
10/26/2022 10:15:00 AM 10.41 50.738 0.269 7.37 24.73 10.14
10/26/2022 10:30:00 AM 10.57 51.026 0.269 7.4 8.69 10.39
10/26/2022 10:45:00 AM 10.88 51.584 0.269 7.43 6.01 10.64
10/26/2022 11:00:00 AM 11.11 51.998 0.269 7.45 5.63 10.83
10/26/2022 11:15:00 AM 11.13 52.034 0.269 7.46 5.32 10.78
10/26/2022 11:30:00 AM 11.14 52.052 0.27 7.45 5.56 10.61
10/26/2022 11:45:00 AM 11.23 52.214 0.27 7.45 5.51 10.57
10/26/2022 12:00:00 PM 11.36 52.448 0.27 7.46 5.33 10.74
10/26/2022 12:15:00 PM 11.46 52.628 0.269 7.48 5.37 10.84
10/26/2022 12:30:00 PM 11.44 52.592 0.27 7.48 5.42 10.73
10/26/2022 12:45:00 PM 11.45 52.61 0.27 7.47 5.52 10.63
10/26/2022 1:00:00 PM 11.49 52.682 0.27 7.46 5.48 10.56
10/26/2022 1:15:00 PM 11.54 52.772 0.27 7.47 5.59 10.56
10/26/2022 1:30:00 PM 11.57 52.826 0.269 7.47 5.92 10.57
10/26/2022 1:45:00 PM 11.58 52.844 0.269 7.47 5.59 10.57
10/26/2022 2:00:00 PM 11.57 52.826 0.269 7.47 6.08 10.47
10/26/2022 2:15:00 PM 11.57 52.826 0.269 7.47 5.54 10.37
10/26/2022 2:30:00 PM 11.58 52.844 0.269 7.46 5.45 10.34
10/26/2022 2:45:00 PM 11.62 52.916 0.269 7.48 5.9 10.38
10/26/2022 3:00:00 PM 11.69 53.042 0.269 7.49 5.27 10.59
10/26/2022 3:15:00 PM 11.7 53.06 0.269 7.5 5.51 10.62
10/26/2022 3:30:00 PM 11.69 53.042 0.269 7.5 5.95 10.59
10/26/2022 3:45:00 PM 11.7 53.06 0.269 7.5 6.1 10.54
10/26/2022 4:00:00 PM 11.72 53.096 0.269 7.51 5.66 10.62
10/26/2022 4:15:00 PM 11.73 53.114 0.269 7.52 5.54 10.63
10/26/2022 4:30:00 PM 11.7 53.06 0.269 7.52 5.71 10.55
10/26/2022 4:45:00 PM 11.68 53.024 0.269 7.51 5.44 10.49
10/26/2022 5:00:00 PM 11.67 53.006 0.269 7.49 9.78 10.44
10/26/2022 5:15:00 PM 11.63 52.934 0.269 7.49 5.13 10.32
10/26/2022 5:30:00 PM 11.56 52.808 0.269 7.47 5.11 10.11
10/26/2022 5:45:00 PM 11.5 52.7 0.269 7.46 4.98 9.99
10/26/2022 6:00:00 PM 11.45 52.61 0.269 7.44 5.23 9.87
10/26/2022 6:15:00 PM 11.4 52.52 0.27 7.43 5.32 9.79
10/26/2022 6:30:00 PM 11.34 52.412 0.27 7.42 4.92 9.68
10/26/2022 6:45:00 PM 11.29 52.322 0.27 7.41 5.22 9.59
10/26/2022 7:00:00 PM 11.24 52.232 0.27 7.4 5.35 9.53
10/26/2022 7:15:00 PM 11.2 52.16 0.27 7.39 4.87 9.47
10/26/2022 7:30:00 PM 11.16 52.088 0.271 7.38 5.12 9.42
10/26/2022 7:45:00 PM 11.12 52.016 0.27 7.37 5.23 9.35
10/26/2022 8:00:00 PM 11.07 51.926 0.27 7.37 5.12 9.31
10/26/2022 8:15:00 PM 11.01 51.818 0.27 7.36 4.95 9.31
10/26/2022 8:30:00 PM 10.97 51.746 0.271 7.36 5.3 9.22
10/26/2022 8:45:00 PM 10.93 51.674 0.271 7.34 5.07 9.23
10/26/2022 9:00:00 PM 10.89 51.602 0.271 7.34 5.27 9.21
10/26/2022 9:15:00 PM 10.87 51.566 0.271 7.34 4.99 9.21
10/26/2022 9:30:00 PM 10.83 51.494 0.271 7.34 5.17 9.2
10/26/2022 9:45:00 PM 10.8 51.44 0.271 7.34 5.15 9.17
10/26/2022 10:00:00 PM 10.77 51.386 0.271 7.34 6.37 9.18
10/26/2022 10:15:00 PM 10.75 51.35 0.271 7.34 5.44 9.18
10/26/2022 10:30:00 PM 10.73 51.314 0.271 7.34 4.95 9.19
10/26/2022 10:45:00 PM 10.7 51.26 0.271 7.34 5.13 9.16
10/26/2022 11:00:00 PM 10.67 51.206 0.271 7.33 5.15 9.17
10/26/2022 11:15:00 PM 10.64 51.152 0.271 7.33 5 9.16
10/26/2022 11:30:00 PM 10.61 51.098 0.271 7.33 4.99 9.15
10/26/2022 11:45:00 PM 10.58 51.044 0.271 7.33 5.13 9.18
10/27/2022 12:00:00 AM 10.55 50.99 0.271 7.33 5.15 9.15
10/27/2022 12:15:00 AM 10.52 50.936 0.271 7.33 5.23 9.16
10/27/2022 12:30:00 AM 10.49 50.882 0.271 7.33 5.27 9.16
10/27/2022 12:45:00 AM 10.46 50.828 0.271 7.33 5.14 9.18
10/27/2022 1:00:00 AM 10.43 50.774 0.271 7.33 5.22 9.17
10/27/2022 1:15:00 AM 10.4 50.72 0.271 7.32 5.96 9.16
10/27/2022 1:30:00 AM 10.37 50.666 0.27 7.32 5.31 9.16
10/27/2022 1:45:00 AM 10.33 50.594 0.271 7.32 5.21 9.17
10/27/2022 2:00:00 AM 10.31 50.558 0.27 7.32 5.19 9.15
10/27/2022 2:15:00 AM 10.27 50.486 0.27 7.32 5.28 9.17
10/27/2022 2:30:00 AM 10.22 50.396 0.27 7.32 5.45 9.18
10/27/2022 2:45:00 AM 10.17 50.306 0.27 7.32 5.05 9.17
10/27/2022 3:00:00 AM 10.14 50.252 0.27 7.32 6.77 9.18
10/27/2022 3:15:00 AM 10.11 50.198 0.27 7.32 5.35 9.17
10/27/2022 3:30:00 AM 10.07 50.126 0.27 7.32 5.44 9.2
10/27/2022 3:45:00 AM 10.04 50.072 0.27 7.32 5.31 9.21
10/27/2022 4:00:00 AM 10.01 50.018 0.27 7.32 5.28 9.2
10/27/2022 4:15:00 AM 9.95 49.91 0.269 7.32 5.17 9.25
10/27/2022 4:30:00 AM 9.9 49.82 0.269 7.32 5.18 9.25
10/27/2022 4:45:00 AM 9.86 49.748 0.27 7.32 5.34 9.26
10/27/2022 5:00:00 AM 9.83 49.694 0.27 7.32 5.04 9.27
10/27/2022 5:15:00 AM 9.79 49.622 0.27 7.32 5.3 9.28
10/27/2022 5:30:00 AM 9.75 49.55 0.27 7.32 5.34 9.3
10/27/2022 5:45:00 AM 9.7 49.46 0.27 7.32 5.25 9.3
10/27/2022 6:00:00 AM 9.66 49.388 0.27 7.32 5.99 9.32
10/27/2022 6:15:00 AM 9.61 49.298 0.27 7.32 5.46 9.33
10/27/2022 6:30:00 AM 9.58 49.244 0.27 7.33 5.12 9.35
10/27/2022 6:45:00 AM 9.54 49.172 0.27 7.33 5.28 9.36
10/27/2022 7:00:00 AM 9.49 49.082 0.27 7.33 5.34 9.37
10/27/2022 7:15:00 AM 9.45 49.01 0.27 7.33 5.8 9.38
10/27/2022 7:30:00 AM 9.41 48.938 0.271 7.33 5.33 9.39
10/27/2022 7:45:00 AM 9.38 48.884 0.271 7.33 5.46 9.42
10/27/2022 8:00:00 AM 9.35 48.83 0.272 7.33 5.24 9.45
10/27/2022 8:15:00 AM 9.33 48.794 0.272 7.34 5.23 9.52
10/27/2022 8:30:00 AM 9.27 48.686 0.271 7.35 5.13 9.66
10/27/2022 8:45:00 AM 9.24 48.632 0.272 7.36 5.34 9.78
10/27/2022 9:00:00 AM 9.23 48.614 0.271 7.37 5.63 9.91
10/27/2022 9:15:00 AM 9.23 48.614 0.271 7.38 5.69 10.04
10/27/2022 9:30:00 AM 9.25 48.65 0.271 7.4 5.7 10.18
10/27/2022 9:45:00 AM 9.25 48.65 0.271 7.41 6.42 10.3
10/27/2022 10:00:00 AM 9.35 48.83 0.271 7.43 5.62 10.51
10/27/2022 10:15:00 AM 9.49 49.082 0.271 7.44 5.65 10.71
10/27/2022 10:30:00 AM 9.65 49.37 0.272 7.46 5.52 10.87
10/27/2022 10:45:00 AM 9.81 49.658 0.271 7.48 5.49 11.03
10/27/2022 11:00:00 AM 10 50 0.27 7.5 6.34 11.17
10/27/2022 11:15:00 AM 10.2 50.36 0.27 7.53 5.71 11.31
10/27/2022 11:30:00 AM 10.4 50.72 0.27 7.55 5.66 11.41
10/27/2022 11:45:00 AM 10.61 51.098 0.27 7.57 5.61 11.5
10/27/2022 12:00:00 PM 10.85 51.53 0.27 7.59 6.09 11.6
10/27/2022 12:15:00 PM 11.07 51.926 0.27 7.61 5.61 11.68
10/27/2022 12:30:00 PM 11.32 52.376 0.269 7.63 5.41 11.74
10/27/2022 12:45:00 PM 11.56 52.808 0.269 7.64 5.5 11.8
10/27/2022 1:00:00 PM 11.79 53.222 0.269 7.66 6.07 11.83
10/27/2022 1:15:00 PM 12.01 53.618 0.269 7.68 5.54 11.87
10/27/2022 1:30:00 PM 12.21 53.978 0.269 7.7 6.93 11.9
10/27/2022 1:45:00 PM 12.38 54.284 0.269 7.71 6.03 11.91
10/27/2022 2:00:00 PM 12.55 54.59 0.269 7.73 5.9 11.9
10/27/2022 2:15:00 PM 12.7 54.86 0.268 7.74 6.25 11.91
10/27/2022 2:30:00 PM 12.84 55.112 0.268 7.75 6.87 11.87
10/27/2022 2:45:00 PM 12.95 55.31 0.268 7.76 13.54 11.88
10/27/2022 3:00:00 PM 13.01 55.418 0.268 7.77 10.83 11.86
10/27/2022 3:15:00 PM 13.04 55.472 0.268 7.77 5.62 11.83
10/27/2022 3:30:00 PM 13.05 55.49 0.268 7.77 5.71 11.78
10/27/2022 3:45:00 PM 13.01 55.418 0.268 7.77 5.56 11.72
10/27/2022 4:00:00 PM 12.94 55.292 0.268 7.76 5.52 11.65
10/27/2022 4:15:00 PM 12.84 55.112 0.268 7.76 6.69 11.56
10/27/2022 4:30:00 PM 12.72 54.896 0.268 7.74 6.03 11.48
10/27/2022 4:45:00 PM 12.56 54.608 0.268 7.72 5.83 11.36
10/27/2022 5:00:00 PM 12.37 54.266 0.268 7.69 7.66 11.19
10/27/2022 5:15:00 PM 12.15 53.87 0.269 7.67 251.81 11.05
10/27/2022 5:30:00 PM 11.9 53.42 0.269 7.63 999.93 10.83
10/27/2022 5:45:00 PM 11.62 52.916 0.268 7.6 6.37 10.59
10/27/2022 6:00:00 PM 11.39 52.502 0.269 7.56 5.6 10.42
10/27/2022 6:15:00 PM 11.2 52.16 0.269 7.54 5.52 10.24
10/27/2022 6:30:00 PM 11.03 51.854 0.269 7.51 5.57 10.06
10/27/2022 6:45:00 PM 10.88 51.584 0.269 7.49 5.21 9.98
10/27/2022 7:00:00 PM 10.75 51.35 0.27 7.48 5.37 9.91
10/27/2022 7:15:00 PM 10.62 51.116 0.27 7.46 5.31 9.82
10/27/2022 7:30:00 PM 10.49 50.882 0.27 7.44 5.42 9.79
10/27/2022 7:45:00 PM 10.37 50.666 0.27 7.43 5.48 9.74
10/27/2022 8:00:00 PM 10.25 50.45 0.27 7.42 7.98 9.71
10/27/2022 8:15:00 PM 10.13 50.234 0.27 7.4 8.37 9.67
10/27/2022 8:30:00 PM 10.02 50.036 0.27 7.4 5.6 9.65
10/27/2022 8:45:00 PM 9.91 49.838 0.27 7.4 6.08 9.65
10/27/2022 9:00:00 PM 9.81 49.658 0.271 7.39 5.65 9.64
10/27/2022 9:15:00 PM 9.71 49.478 0.271 7.39 5.68 9.65
10/27/2022 9:30:00 PM 9.63 49.334 0.27 7.38 5.62 9.66
10/27/2022 9:45:00 PM 9.54 49.172 0.271 7.38 6.54 9.62
10/27/2022 10:00:00 PM 9.46 49.028 0.27 7.38 5.83 9.64
10/27/2022 10:15:00 PM 9.38 48.884 0.27 7.38 6.19 9.63
10/27/2022 10:30:00 PM 9.31 48.758 0.27 7.38 5.83 9.63
10/27/2022 10:45:00 PM 9.23 48.614 0.271 7.37 5.51 9.65
10/27/2022 11:00:00 PM 9.16 48.488 0.27 7.37 5.62 9.67
10/27/2022 11:15:00 PM 9.09 48.362 0.27 7.37 5.74 9.67
10/27/2022 11:30:00 PM 9.02 48.236 0.27 7.37 5.35 9.67
10/27/2022 11:45:00 PM 8.95 48.11 0.27 7.37 5.44 9.66
10/28/2022 12:00:00 AM 8.88 47.984 0.27 7.37 7.02 9.68
10/28/2022 12:15:00 AM 8.81 47.858 0.27 7.37 6.21 9.68
10/28/2022 12:30:00 AM 8.74 47.732 0.27 7.37 5.7 9.67
10/28/2022 12:45:00 AM 8.67 47.606 0.27 7.36 5.54 9.72
10/28/2022 1:00:00 AM 8.59 47.462 0.27 7.36 5.54 9.64
10/28/2022 1:15:00 AM 8.52 47.336 0.27 7.36 6.79 9.69
10/28/2022 1:30:00 AM 8.45 47.21 0.27 7.36 6.27 9.71
10/28/2022 1:45:00 AM 8.37 47.066 0.27 7.36 6.5 9.75
10/28/2022 2:00:00 AM 8.3 46.94 0.271 7.36 6.29 9.78
10/28/2022 2:15:00 AM 8.22 46.796 0.27 7.36 5.64 9.79
10/28/2022 2:30:00 AM 8.14 46.652 0.27 7.36 5.5 9.78
10/28/2022 2:45:00 AM 8.07 46.526 0.27 7.36 5.59 9.81
10/28/2022 3:00:00 AM 7.99 46.382 0.27 7.36 5.36 9.82
10/28/2022 3:15:00 AM 7.9 46.22 0.271 7.36 8.2 9.84
10/28/2022 3:30:00 AM 7.82 46.076 0.271 7.36 6.3 9.85
10/28/2022 3:45:00 AM 7.74 45.932 0.271 7.36 5.73 9.92
10/28/2022 4:00:00 AM 7.66 45.788 0.271 7.35 6.29 9.94
10/28/2022 4:15:00 AM 7.59 45.662 0.271 7.36 6.04 9.96
10/28/2022 4:30:00 AM 7.53 45.554 0.271 7.36 5.69 9.99
10/28/2022 4:45:00 AM 7.47 45.446 0.271 7.36 5.84 10
10/28/2022 5:00:00 AM 7.42 45.356 0.271 7.36 5.48 10.01
10/28/2022 5:15:00 AM 7.37 45.266 0.271 7.36 5.84 10.02
10/28/2022 5:30:00 AM 7.32 45.176 0.271 7.36 5.81 10.03
10/28/2022 5:45:00 AM 7.28 45.104 0.271 7.36 5.72 10.01
10/28/2022 6:00:00 AM 7.24 45.032 0.271 7.35 6.11 10.04
10/28/2022 6:15:00 AM 7.2 44.96 0.271 7.36 5.79 10.05
10/28/2022 6:30:00 AM 7.15 44.87 0.271 7.36 5.57 10.06
10/28/2022 6:45:00 AM 7.11 44.798 0.271 7.35 5.58 10.06
10/28/2022 7:00:00 AM 7.08 44.744 0.272 7.36 5.63 10.08
10/28/2022 7:15:00 AM 7.04 44.672 0.272 7.34 5.99 10.09
10/28/2022 7:30:00 AM 7 44.6 0.272 7.35 5.66 10.1
10/28/2022 7:45:00 AM 6.98 44.564 0.272 7.36 5.76 10.13
10/28/2022 8:00:00 AM 6.97 44.546 0.272 7.36 6.79 10.14
10/28/2022 8:15:00 AM 6.96 44.528 0.272 7.37 6.72 10.27
10/28/2022 8:30:00 AM 6.98 44.564 0.272 7.38 5.92 10.34
10/28/2022 8:45:00 AM 7.01 44.618 0.272 7.39 5.71 10.52
10/28/2022 9:00:00 AM 7.04 44.672 0.272 7.4 5.74 10.7
10/28/2022 9:15:00 AM 7.08 44.744 0.272 7.42 5.7 10.8
10/28/2022 9:30:00 AM 7.15 44.87 0.272 7.43 5.7 10.97
10/28/2022 9:45:00 AM 7.24 45.032 0.272 7.45 5.6 11.14
10/28/2022 10:00:00 AM 7.31 45.158 0.272 7.47 5.99 11.28
10/28/2022 10:15:00 AM 7.41 45.338 0.272 7.48 6.26 11.39
10/28/2022 10:30:00 AM 7.55 45.59 0.271 7.5 6.23 11.52
10/28/2022 10:45:00 AM 7.65 45.77 0.271 7.51 5.77 11.64
10/28/2022 11:00:00 AM 7.78 46.004 0.271 7.52 5.55 11.73
10/28/2022 11:15:00 AM 7.89 46.202 0.271 7.54 5.51 11.81
10/28/2022 11:30:00 AM 8.02 46.436 0.271 7.55 5.63 11.91
10/28/2022 11:45:00 AM 8.19 46.742 0.271 7.57 5.46 12
10/28/2022 12:00:00 PM 8.29 46.922 0.271 7.58 8.71 12
10/28/2022 12:15:00 PM 8.42 47.156 0.271 7.59 5.26 12.12
10/28/2022 12:30:00 PM 8.6 47.48 0.271 7.6 5.36 12.19
10/28/2022 12:45:00 PM 8.86 47.948 0.271 7.62 6.47 12.27
10/28/2022 1:00:00 PM 9.16 48.488 0.27 7.64 5.76 12.35
10/28/2022 1:15:00 PM 9.46 49.028 0.27 7.66 5.24 12.42
10/28/2022 1:30:00 PM 9.64 49.352 0.271 7.67 5.26 12.43
10/28/2022 1:45:00 PM 9.8 49.64 0.27 7.68 5.22 12.44
10/28/2022 2:00:00 PM 9.93 49.874 0.27 7.7 5.43 12.43
10/28/2022 2:15:00 PM 10.14 50.252 0.27 7.71 5.24 12.45
10/28/2022 2:30:00 PM 10.29 50.522 0.27 7.73 5.24 12.46
10/28/2022 2:45:00 PM 10.49 50.882 0.27 7.74 5.78 12.46
10/28/2022 3:00:00 PM 10.58 51.044 0.27 7.75 5.27 12.46
10/28/2022 3:15:00 PM 10.57 51.026 0.27 7.75 5.18 12.39
10/28/2022 3:30:00 PM 10.59 51.062 0.27 7.75 5.3 12.35
10/28/2022 3:45:00 PM 10.65 51.17 0.271 7.76 5.35 12.36
10/28/2022 4:00:00 PM 10.66 51.188 0.27 7.76 5.53 12.31
10/28/2022 4:15:00 PM 10.63 51.134 0.27 7.75 5.23 12.26
10/28/2022 4:30:00 PM 10.57 51.026 0.27 7.75 5.6 12.17
10/28/2022 4:45:00 PM 10.51 50.918 0.27 7.74 5.37 12.11
10/28/2022 5:00:00 PM 10.37 50.666 0.271 7.72 5.35 11.97
10/28/2022 5:15:00 PM 10.24 50.432 0.271 7.7 5.28 11.81
10/28/2022 5:30:00 PM 10.07 50.126 0.271 7.68 5.37 11.67
10/28/2022 5:45:00 PM 9.88 49.784 0.272 7.65 5.25 11.51
10/28/2022 6:00:00 PM 9.7 49.46 0.272 7.61 5.35 11.32
10/28/2022 6:15:00 PM 9.54 49.172 0.273 7.58 5.41 11.12
10/28/2022 6:30:00 PM 9.39 48.902 0.273 7.56 5.51 10.95
10/28/2022 6:45:00 PM 9.26 48.668 0.273 7.53 5.39 10.8
10/28/2022 7:00:00 PM 9.14 48.452 0.274 7.51 5.43 10.69
10/28/2022 7:15:00 PM 9.02 48.236 0.274 7.5 5.24 10.57
10/28/2022 7:30:00 PM 8.91 48.038 0.274 7.48 5.15 10.5
10/28/2022 7:45:00 PM 8.81 47.858 0.274 7.47 6.07 10.45
10/28/2022 8:00:00 PM 8.71 47.678 0.274 7.45 5.33 10.39
10/28/2022 8:15:00 PM 8.61 47.498 0.274 7.44 5.21 10.35
10/28/2022 8:30:00 PM 8.51 47.318 0.274 7.44 5.23 10.37
10/28/2022 8:45:00 PM 8.41 47.138 0.275 7.43 5.55 10.31
10/28/2022 9:00:00 PM 8.32 46.976 0.274 7.42 5.29 10.3
10/28/2022 9:15:00 PM 8.23 46.814 0.275 7.42 5.29 10.25
10/28/2022 9:30:00 PM 8.15 46.67 0.275 7.4 5.45 10.24
10/28/2022 9:45:00 PM 8.08 46.544 0.275 7.41 5.4 10.25
10/28/2022 10:00:00 PM 8 46.4 0.275 7.4 5.15 10.23
10/28/2022 10:15:00 PM 7.93 46.274 0.275 7.39 5.41 10.2
10/28/2022 10:30:00 PM 7.85 46.13 0.275 7.39 5.35 10.21
10/28/2022 10:45:00 PM 7.79 46.022 0.274 7.38 5.33 10.18
10/28/2022 11:00:00 PM 7.72 45.896 0.274 7.38 5.34 10.23
10/28/2022 11:15:00 PM 7.65 45.77 0.275 7.37 5.25 10.19
10/28/2022 11:30:00 PM 7.59 45.662 0.274 7.37 5.28 10.2
10/28/2022 11:45:00 PM 7.53 45.554 0.275 7.37 5.24 10.23
10/29/2022 12:00:00 AM 7.47 45.446 0.275 7.36 5.36 10.23
10/29/2022 12:15:00 AM 7.41 45.338 0.275 7.36 5.22 10.22
10/29/2022 12:30:00 AM 7.36 45.248 0.275 7.36 5.33 10.23
10/29/2022 12:45:00 AM 7.3 45.14 0.274 7.36 5.17 10.22
10/29/2022 1:00:00 AM 7.25 45.05 0.274 7.36 5.12 10.22
10/29/2022 1:15:00 AM 7.2 44.96 0.274 7.36 5.28 10.23
10/29/2022 1:30:00 AM 7.14 44.852 0.275 7.36 5.3 10.22
10/29/2022 1:45:00 AM 7.09 44.762 0.275 7.35 5.44 10.24
10/29/2022 2:00:00 AM 7.03 44.654 0.275 7.35 5.16 10.25
10/29/2022 2:15:00 AM 6.98 44.564 0.275 7.35 5.18 10.24
10/29/2022 2:30:00 AM 6.93 44.474 0.275 7.35 5.12 10.24
10/29/2022 2:45:00 AM 6.87 44.366 0.275 7.35 5.28 10.27
10/29/2022 3:00:00 AM 6.81 44.258 0.275 7.35 5.76 10.25
10/29/2022 3:15:00 AM 6.76 44.168 0.275 7.35 5.22 10.29
10/29/2022 3:30:00 AM 6.7 44.06 0.275 7.35 5.28 10.29
10/29/2022 3:45:00 AM 6.64 43.952 0.275 7.35 5.15 10.31
10/29/2022 4:00:00 AM 6.58 43.844 0.275 7.35 5.28 10.33
10/29/2022 4:15:00 AM 6.53 43.754 0.275 7.35 6.16 10.35
10/29/2022 4:30:00 AM 6.47 43.646 0.275 7.35 5.34 10.35
10/29/2022 4:45:00 AM 6.42 43.556 0.275 7.35 5.2 10.37
10/29/2022 5:00:00 AM 6.36 43.448 0.275 7.35 5.34 10.39
10/29/2022 5:15:00 AM 6.31 43.358 0.275 7.35 5.56 10.39
10/29/2022 5:30:00 AM 6.26 43.268 0.275 7.35 5.16 10.41
10/29/2022 5:45:00 AM 6.21 43.178 0.275 7.35 5.2 10.43
10/29/2022 6:00:00 AM 6.16 43.088 0.276 7.35 5.29 10.45
10/29/2022 6:15:00 AM 6.11 42.998 0.275 7.35 5.22 10.46
10/29/2022 6:30:00 AM 6.06 42.908 0.275 7.35 5.28 10.46
10/29/2022 6:45:00 AM 6.02 42.836 0.276 7.35 5.38 10.49
10/29/2022 7:00:00 AM 5.97 42.746 0.276 7.35 5.43 10.49
10/29/2022 7:15:00 AM 5.92 42.656 0.276 7.35 5.31 10.48
10/29/2022 7:30:00 AM 5.89 42.602 0.276 7.35 5.43 10.51
10/29/2022 7:45:00 AM 5.85 42.53 0.276 7.35 5.58 10.49
10/29/2022 8:00:00 AM 5.81 42.458 0.276 7.36 5.27 10.57
10/29/2022 8:15:00 AM 5.79 42.422 0.276 7.36 5.37 10.66
10/29/2022 8:30:00 AM 5.76 42.368 0.275 7.37 5.44 10.76
10/29/2022 8:45:00 AM 5.75 42.35 0.275 7.38 5.35 10.8
10/29/2022 9:00:00 AM 5.77 42.386 0.275 7.39 6.2 10.93
10/29/2022 9:15:00 AM 5.81 42.458 0.275 7.4 5.65 11.05
10/29/2022 9:30:00 AM 5.87 42.566 0.275 7.36 13.31 11.16
10/29/2022 9:45:00 AM 5.94 42.692 0.275 7.41 6.1 11.28
10/29/2022 10:00:00 AM 6.07 42.926 0.275 7.43 5.54 11.43
10/29/2022 10:15:00 AM 6.24 43.232 0.275 7.44 5.29 11.54
10/29/2022 10:30:00 AM 6.43 43.574 0.275 7.45 5.69 11.68
10/29/2022 10:45:00 AM 6.65 43.97 0.275 7.47 5.4 11.85
10/29/2022 11:00:00 AM 6.9 44.42 0.275 7.49 5.26 11.92
10/29/2022 11:15:00 AM 7.17 44.906 0.275 7.5 5.4 12.09
10/29/2022 11:30:00 AM 7.46 45.428 0.275 7.52 5.31 12.17
10/29/2022 11:45:00 AM 7.76 45.968 0.275 7.53 5.46 12.18
10/29/2022 12:00:00 PM 8.09 46.562 0.275 7.55 5.28 12.32
10/29/2022 12:15:00 PM 8.41 47.138 0.275 7.56 5.28 12.38
10/29/2022 12:30:00 PM 8.72 47.696 0.275 7.58 5.58 12.43
10/29/2022 12:45:00 PM 9.02 48.236 0.275 7.59 5.29 12.45
10/29/2022 1:00:00 PM 9.3 48.74 0.275 7.61 5.5 12.5
10/29/2022 1:15:00 PM 9.58 49.244 0.275 7.62 5.56 12.51
10/29/2022 1:30:00 PM 9.84 49.712 0.275 7.64 6.45 12.54
10/29/2022 1:45:00 PM 10.08 50.144 0.275 7.65 5.26 12.57
10/29/2022 2:00:00 PM 10.29 50.522 0.275 7.67 10.97 12.55
10/29/2022 2:15:00 PM 10.47 50.846 0.275 7.68 8.51 12.58
10/29/2022 2:30:00 PM 10.63 51.134 0.275 7.69 5.34 12.5
10/29/2022 2:45:00 PM 10.77 51.386 0.275 7.7 5.63 12.47
10/29/2022 3:00:00 PM 10.87 51.566 0.275 7.71 5.59 12.46
10/29/2022 3:15:00 PM 10.93 51.674 0.275 7.72 5.41 12.42
10/29/2022 3:30:00 PM 10.97 51.746 0.275 7.72 8.01 12.38
10/29/2022 3:45:00 PM 10.97 51.746 0.276 7.56 6.39 12.24
10/29/2022 4:00:00 PM 10.92 51.656 0.276 7.69 5.53 12.21
10/29/2022 4:15:00 PM 10.84 51.512 0.276 7.69 6.58 12.19
10/29/2022 4:30:00 PM 10.72 51.296 0.276 7.7 8.45 12.09
10/29/2022 4:45:00 PM 10.57 51.026 0.276 7.69 8.16 11.98
10/29/2022 5:00:00 PM 10.38 50.684 0.277 7.67 8.25 11.83
10/29/2022 5:15:00 PM 10.18 50.324 0.277 7.64 8.22 11.69
10/29/2022 5:30:00 PM 9.94 49.892 0.277 7.61 8.12 11.48
10/29/2022 5:45:00 PM 9.67 49.406 0.278 7.58 8.12 11.24
10/29/2022 6:00:00 PM 9.43 48.974 0.278 7.55 7.82 11.06
10/29/2022 6:15:00 PM 9.22 48.596 0.278 7.52 7.88 10.91
10/29/2022 6:30:00 PM 9.04 48.272 0.279 7.5 7.89 10.76
10/29/2022 6:45:00 PM 8.88 47.984 0.279 7.47 7.98 10.57
10/29/2022 7:00:00 PM 8.74 47.732 0.28 7.46 5.33 10.53
10/29/2022 7:15:00 PM 8.6 47.48 0.28 7.44 10.57 10.49
10/29/2022 7:30:00 PM 8.48 47.264 0.28 7.29 10.5 10.41
10/29/2022 7:45:00 PM 8.36 47.048 0.279 7.34 9.38 10.35
10/29/2022 8:00:00 PM 8.25 46.85 0.28 7.4 6.11 10.34
10/29/2022 8:15:00 PM 8.13 46.634 0.28 7.39 5.65 10.32
10/29/2022 8:30:00 PM 8.02 46.436 0.28 7.39 5.78 10.31
10/29/2022 8:45:00 PM 7.92 46.256 0.28 7.38 5.4 10.31
10/29/2022 9:00:00 PM 7.81 46.058 0.28 7.38 5.41 10.29
10/29/2022 9:15:00 PM 7.71 45.878 0.28 7.37 5.29 10.22
10/29/2022 9:30:00 PM 7.61 45.698 0.28 7.37 5.35 10.21
10/29/2022 9:45:00 PM 7.52 45.536 0.281 7.37 5.32 10.22
10/29/2022 10:00:00 PM 7.43 45.374 0.281 7.37 5.58 10.17
10/29/2022 10:15:00 PM 7.35 45.23 0.281 7.36 5.83 10.26
10/29/2022 10:30:00 PM 7.27 45.086 0.281 7.36 5.37 10.26
10/29/2022 10:45:00 PM 7.2 44.96 0.281 7.36 5.89 10.24
10/29/2022 11:00:00 PM 7.13 44.834 0.281 7.36 5.48 10.25
10/29/2022 11:15:00 PM 7.06 44.708 0.281 7.35 5.43 10.21
10/29/2022 11:30:00 PM 7 44.6 0.281 7.36 5.49 10.24
10/29/2022 11:45:00 PM 6.93 44.474 0.281 7.35 5.62 10.26
10/30/2022 12:00:00 AM 6.87 44.366 0.281 7.35 5.48 10.3
10/30/2022 12:15:00 AM 6.81 44.258 0.281 7.35 5.79 10.27
10/30/2022 12:30:00 AM 6.75 44.15 0.281 7.35 5.45 10.31
10/30/2022 12:45:00 AM 6.7 44.06 0.281 7.35 5.35 10.28
10/30/2022 1:00:00 AM 6.64 43.952 0.281 7.35 5.39 10.28
10/30/2022 1:15:00 AM 6.59 43.862 0.281 7.35 5.33 10.27
10/30/2022 1:30:00 AM 6.54 43.772 0.281 7.35 6.23 10.3
10/30/2022 1:45:00 AM 6.48 43.664 0.281 7.35 5.42 10.26
10/30/2022 2:00:00 AM 6.43 43.574 0.281 7.35 5.43 10.33
10/30/2022 2:15:00 AM 6.37 43.466 0.281 7.35 5.46 10.34
10/30/2022 2:30:00 AM 6.32 43.376 0.281 7.35 5.27 10.34
10/30/2022 2:45:00 AM 6.26 43.268 0.281 7.35 5.32 10.38
10/30/2022 3:00:00 AM 6.2 43.16 0.281 7.35 5.39 10.39
10/30/2022 3:15:00 AM 6.14 43.052 0.281 7.35 5.51 10.43
10/30/2022 3:30:00 AM 6.08 42.944 0.281 7.35 5.55 10.38
10/30/2022 3:45:00 AM 6.01 42.818 0.281 7.35 5.64 10.42
10/30/2022 4:00:00 AM 5.94 42.692 0.281 7.35 5.61 10.44
10/30/2022 4:15:00 AM 5.88 42.584 0.281 7.35 5.3 10.45
10/30/2022 4:30:00 AM 5.82 42.476 0.281 7.35 5.43 10.43
10/30/2022 4:45:00 AM 5.75 42.35 0.281 7.35 5.39 10.45
10/30/2022 5:00:00 AM 5.69 42.242 0.281 7.35 5.45 10.46
10/30/2022 5:15:00 AM 5.62 42.116 0.281 7.34 5.7 10.49
10/30/2022 5:30:00 AM 5.56 42.008 0.281 7.34 5.78 10.5
10/30/2022 5:45:00 AM 5.5 41.9 0.281 7.34 6.63 10.49
10/30/2022 6:00:00 AM 5.43 41.774 0.28 7.34 5.9 10.51
10/30/2022 6:15:00 AM 5.37 41.666 0.281 7.34 5.37 10.55
10/30/2022 6:30:00 AM 5.31 41.558 0.281 7.34 6.77 10.55
10/30/2022 6:45:00 AM 5.25 41.45 0.281 7.34 5.85 10.57
10/30/2022 7:00:00 AM 5.2 41.36 0.28 7.34 5.44 10.52
10/30/2022 7:15:00 AM 5.15 41.27 0.28 7.34 82.82 10.57
10/30/2022 7:30:00 AM 5.1 41.18 0.28 7.33 7.99 10.58
10/30/2022 7:45:00 AM 5.05 41.09 0.281 7.34 9.37 10.65
10/30/2022 8:00:00 AM 5.01 41.018 0.28 7.33 28.63 10.72
10/30/2022 8:15:00 AM 4.98 40.964 0.281 7.35 8.69 10.79
10/30/2022 8:30:00 AM 4.95 40.91 0.281 7.35 5 10.87
10/30/2022 8:45:00 AM 4.94 40.892 0.28 7.36 4.94 10.97
10/30/2022 9:00:00 AM 4.97 40.946 0.28 7.37 4.9 11.09
10/30/2022 9:15:00 AM 5.01 41.018 0.28 7.38 5.25 11.18
10/30/2022 9:30:00 AM 5.08 41.144 0.28 7.39 4.93 11.31
10/30/2022 9:45:00 AM 5.16 41.288 0.28 7.4 4.96 11.46
10/30/2022 10:00:00 AM 5.3 41.54 0.28 7.41 4.87 11.58
10/30/2022 10:15:00 AM 5.48 41.864 0.28 7.43 4.99 11.7
10/30/2022 10:30:00 AM 5.68 42.224 0.28 7.44 4.89 11.86
10/30/2022 10:45:00 AM 5.92 42.656 0.28 7.46 4.87 11.96
10/30/2022 11:00:00 AM 6.14 43.052 0.28 7.47 4.97 12.08
10/30/2022 11:15:00 AM 6.4 43.52 0.28 7.48 4.97 12.2
10/30/2022 11:30:00 AM 6.7 44.06 0.279 7.5 5.1 12.28
10/30/2022 11:45:00 AM 6.98 44.564 0.279 7.51 4.98 12.35
10/30/2022 12:00:00 PM 7.28 45.104 0.279 7.53 5.34 12.42
10/30/2022 12:15:00 PM 7.59 45.662 0.279 7.54 5.21 12.48
10/30/2022 12:30:00 PM 7.9 46.22 0.279 7.56 5.32 12.56
10/30/2022 12:45:00 PM 8.11 46.598 0.279 7.57 5.02 12.57
10/30/2022 1:00:00 PM 8.35 47.03 0.279 7.59 6.41 12.63
10/30/2022 1:15:00 PM 8.65 47.57 0.279 7.6 5.49 12.66
10/30/2022 1:30:00 PM 8.85 47.93 0.279 7.62 5.35 12.67
10/30/2022 1:45:00 PM 9.02 48.236 0.279 7.63 5.33 12.67
10/30/2022 2:00:00 PM 9.11 48.398 0.278 7.64 5.22 12.66
10/30/2022 2:15:00 PM 9.42 48.956 0.279 7.65 5.55 12.71
10/30/2022 2:30:00 PM 9.62 49.316 0.278 7.66 6.63 12.7
10/30/2022 2:45:00 PM 9.76 49.568 0.278 7.68 5.34 12.67
10/30/2022 3:00:00 PM 9.84 49.712 0.278 7.69 5.21 12.66
10/30/2022 3:15:00 PM 9.73 49.514 0.278 7.68 7.97 12.53
10/30/2022 3:30:00 PM 9.68 49.424 0.278 7.68 5.46 12.45
10/30/2022 3:45:00 PM 9.69 49.442 0.278 7.68 5.57 12.41
10/30/2022 4:00:00 PM 9.68 49.424 0.278 7.69 5.34 12.4
10/30/2022 4:15:00 PM 9.57 49.226 0.279 7.68 5.76 12.33
10/30/2022 4:30:00 PM 9.48 49.064 0.279 7.68 5.52 12.27
10/30/2022 4:45:00 PM 9.37 48.866 0.279 7.66 6.01 12.17
10/30/2022 5:00:00 PM 9.26 48.668 0.279 7.64 5.34 12.01
10/30/2022 5:15:00 PM 9.16 48.488 0.28 7.62 5.71 11.84
10/30/2022 5:30:00 PM 9.08 48.344 0.28 7.6 5.56 11.73
10/30/2022 5:45:00 PM 8.99 48.182 0.28 7.58 5.56 11.57
10/30/2022 6:00:00 PM 8.88 47.984 0.28 7.56 5.65 11.4
10/30/2022 6:15:00 PM 8.78 47.804 0.28 7.52 5.96 11.22
10/30/2022 6:30:00 PM 8.68 47.624 0.28 7.51 5.58 11.06
10/30/2022 6:45:00 PM 8.6 47.48 0.281 7.49 5.39 10.93
10/30/2022 7:00:00 PM 8.53 47.354 0.281 7.47 5.46 10.83
10/30/2022 7:15:00 PM 8.46 47.228 0.281 7.46 5.58 10.73
10/30/2022 7:30:00 PM 8.39 47.102 0.281 7.44 5.46 10.67
10/30/2022 7:45:00 PM 8.33 46.994 0.281 7.43 6.41 10.61
10/30/2022 8:00:00 PM 8.25 46.85 0.282 7.43 5.7 10.54
10/30/2022 8:15:00 PM 8.15 46.67 0.282 7.42 5.65 10.48
10/30/2022 8:30:00 PM 8.07 46.526 0.282 7.41 5.55 10.46
10/30/2022 8:45:00 PM 7.97 46.346 0.282 7.4 5.28 10.43
10/30/2022 9:00:00 PM 7.88 46.184 0.282 7.39 8.67 10.39
10/30/2022 9:15:00 PM 7.78 46.004 0.282 7.39 5.55 10.37
10/30/2022 9:30:00 PM 7.69 45.842 0.282 7.38 5.29 10.35
10/30/2022 9:45:00 PM 7.6 45.68 0.282 7.38 5.32 10.35
10/30/2022 10:00:00 PM 7.53 45.554 0.282 7.38 5.63 10.33
10/30/2022 10:15:00 PM 7.45 45.41 0.282 7.37 5.36 10.32
10/30/2022 10:30:00 PM 7.39 45.302 0.282 7.35 5.51 10.33
10/30/2022 10:45:00 PM 7.32 45.176 0.282 7.36 5.67 10.31
10/30/2022 11:00:00 PM 7.26 45.068 0.282 7.36 5.55 10.31
10/30/2022 11:15:00 PM 7.21 44.978 0.283 7.36 5.48 10.3
10/30/2022 11:30:00 PM 7.16 44.888 0.283 7.36 5.37 10.31
10/30/2022 11:45:00 PM 7.11 44.798 0.283 7.36 5.53 10.29
10/31/2022 12:00:00 AM 7.07 44.726 0.282 7.36 5.67 10.28
10/31/2022 12:15:00 AM 7.03 44.654 0.282 7.35 5.45 10.29
10/31/2022 12:30:00 AM 7 44.6 0.282 7.36 5.43 10.28
10/31/2022 12:45:00 AM 6.97 44.546 0.282 7.36 5.29 10.3
10/31/2022 1:00:00 AM 6.95 44.51 0.282 7.35 5.3 10.26
10/31/2022 1:15:00 AM 6.94 44.492 0.283 7.35 5.33 10.29
10/31/2022 1:30:00 AM 6.91 44.438 0.283 7.35 5.37 10.29
10/31/2022 1:45:00 AM 6.89 44.402 0.283 7.36 5.54 10.31
10/31/2022 2:00:00 AM 6.89 44.402 0.282 7.35 5.5 10.28
10/31/2022 2:15:00 AM 6.88 44.384 0.283 7.35 7.32 10.29
10/31/2022 2:30:00 AM 6.86 44.348 0.282 7.35 5.93 10.3
10/31/2022 2:45:00 AM 6.82 44.276 0.283 7.35 5.33 10.29
10/31/2022 3:00:00 AM 6.79 44.222 0.283 7.35 5.91 10.28
10/31/2022 3:15:00 AM 6.76 44.168 0.283 7.35 5.38 10.29
10/31/2022 3:30:00 AM 6.72 44.096 0.283 7.35 9.04 10.29
10/31/2022 3:45:00 AM 6.68 44.024 0.282 7.35 5.46 10.31
10/31/2022 4:00:00 AM 6.65 43.97 0.282 7.35 5.43 10.29
10/31/2022 4:15:00 AM 6.65 43.97 0.283 7.35 6.13 10.31
10/31/2022 4:30:00 AM 6.66 43.988 0.282 7.35 6.1 10.29
10/31/2022 4:45:00 AM 6.66 43.988 0.283 7.35 5.75 10.29
10/31/2022 5:00:00 AM 6.67 44.006 0.283 7.35 6.01 10.32
10/31/2022 5:15:00 AM 6.64 43.952 0.283 7.35 5.69 10.31
10/31/2022 5:30:00 AM 6.61 43.898 0.282 7.35 5.57 10.32
10/31/2022 5:45:00 AM 6.64 43.952 0.282 7.35 5.53 10.3
10/31/2022 6:00:00 AM 6.64 43.952 0.282 7.35 5.83 10.3
10/31/2022 6:15:00 AM 6.63 43.934 0.282 7.35 6.11 10.33
10/31/2022 6:30:00 AM 6.62 43.916 0.282 7.35 5.7 10.34
10/31/2022 6:45:00 AM 6.62 43.916 0.282 7.34 5.8 10.34
10/31/2022 7:00:00 AM 6.64 43.952 0.282 7.34 6.21 10.32
10/31/2022 7:15:00 AM 6.66 43.988 0.282 7.34 6.14 10.33
10/31/2022 7:30:00 AM 6.68 44.024 0.282 7.34 5.63 10.3
10/31/2022 7:45:00 AM 6.7 44.06 0.282 7.34 5.74 10.32
10/31/2022 8:00:00 AM 6.72 44.096 0.282 7.34 9.57 10.33
10/31/2022 8:15:00 AM 6.74 44.132 0.282 7.34 5.76 10.37
10/31/2022 8:30:00 AM 6.76 44.168 0.281 7.34 5.72 10.4
10/31/2022 8:45:00 AM 6.8 44.24 0.281 7.35 6.06 10.47
10/31/2022 9:00:00 AM 6.85 44.33 0.281 7.36 5.65 10.58
10/31/2022 9:15:00 AM 6.91 44.438 0.281 7.37 5.71 10.73
10/31/2022 9:30:00 AM 6.98 44.564 0.281 7.38 5.53 10.88
10/31/2022 9:45:00 AM 7.07 44.726 0.281 7.39 9.7 11.04
10/31/2022 10:00:00 AM 7.13 44.834 0.281 7.4 6.35 11.1
10/31/2022 10:15:00 AM 7.19 44.942 0.281 7.41 17.78 11.14
10/31/2022 10:30:00 AM 7.26 45.068 0.28 7.4 21.64 11.24
10/31/2022 10:45:00 AM 7.33 45.194 0.28 7.42 6.14 11.26
10/31/2022 11:00:00 AM 7.42 45.356 0.281 7.43 5.87 11.32
10/31/2022 11:15:00 AM 7.53 45.554 0.281 7.44 6 11.44
10/31/2022 11:30:00 AM 7.63 45.734 0.281 7.45 5.55 11.48
10/31/2022 11:45:00 AM 7.72 45.896 0.281 7.46 7.04 11.55
10/31/2022 12:00:00 PM 7.92 46.256 0.281 7.47 5.51 11.7
10/31/2022 12:15:00 PM 8.11 46.598 0.28 7.49 5.66 11.82
10/31/2022 12:30:00 PM 8.18 46.724 0.28 7.5 5.98 11.86
10/31/2022 12:45:00 PM 8.26 46.868 0.28 7.51 5.5 11.88
10/31/2022 1:00:00 PM 8.42 47.156 0.28 7.52 6.58 11.95
10/31/2022 1:15:00 PM 8.56 47.408 0.28 7.53 5.78 12
10/31/2022 1:30:00 PM 8.66 47.588 0.28 7.54 5.95 12
10/31/2022 1:45:00 PM 8.73 47.714 0.28 7.53 7 11.98
10/31/2022 2:00:00 PM 8.83 47.894 0.28 7.54 5.87 11.97
10/31/2022 2:15:00 PM 8.9 48.02 0.279 7.55 6.2 11.94
10/31/2022 2:30:00 PM 8.95 48.11 0.279 7.55 6.52 11.84
10/31/2022 2:45:00 PM 9 48.2 0.28 7.54 88.14 11.75
10/31/2022 3:00:00 PM 9.07 48.326 0.279 7.54 6.84 11.68
10/31/2022 3:15:00 PM 9.15 48.47 0.279 7.54 6.27 11.61
10/31/2022 3:30:00 PM 9.18 48.524 0.279 7.54 5.57 11.58
10/31/2022 3:45:00 PM 9.2 48.56 0.279 7.53 6.26 11.51
10/31/2022 4:00:00 PM 9.22 48.596 0.279 7.53 5.52 11.44
10/31/2022 4:15:00 PM 9.23 48.614 0.279 7.52 6.82 11.37
10/31/2022 4:30:00 PM 9.22 48.596 0.279 7.5 5.89 11.25
10/31/2022 4:45:00 PM 9.22 48.596 0.28 7.48 19.89 11.17
10/31/2022 5:00:00 PM 9.2 48.56 0.28 7.47 8.55 11.08
10/31/2022 5:15:00 PM 9.18 48.524 0.28 7.47 6.12 10.93
10/31/2022 5:30:00 PM 9.15 48.47 0.28 7.45 8.01 10.79
10/31/2022 5:45:00 PM 9.12 48.416 0.28 7.43 7.82 10.68
10/31/2022 6:00:00 PM 9.1 48.38 0.28 7.42 9.5 10.58
10/31/2022 6:15:00 PM 9.08 48.344 0.28 7.41 9.66 10.5
10/31/2022 6:30:00 PM 9.06 48.308 0.28 7.4 8.88 10.41
10/31/2022 6:45:00 PM 9.05 48.29 0.28 7.39 9.79 10.35
10/31/2022 7:00:00 PM 9.04 48.272 0.28 7.38 9.32 10.28
10/31/2022 7:15:00 PM 9.04 48.272 0.28 7.37 8.49 10.22
10/31/2022 7:30:00 PM 9.03 48.254 0.279 7.37 8.87 10.19
10/31/2022 7:45:00 PM 9.02 48.236 0.279 7.36 8.87 10.14
10/31/2022 8:00:00 PM 9.05 48.29 0.278 7.36 10.85 10.06
10/31/2022 8:15:00 PM 9.05 48.29 0.278 7.35 10.83 10.01
10/31/2022 8:30:00 PM 9.01 48.218 0.279 7.35 9.57 9.99
10/31/2022 8:45:00 PM 8.98 48.164 0.28 7.34 8.84 9.97
10/31/2022 9:00:00 PM 8.97 48.146 0.28 7.34 9.74 9.95
10/31/2022 9:15:00 PM 8.96 48.128 0.282 7.33 9.46 9.93
10/31/2022 9:30:00 PM 8.95 48.11 0.282 7.33 9.45 9.89
10/31/2022 9:45:00 PM 8.94 48.092 0.282 7.32 9.19 9.87
10/31/2022 10:00:00 PM 8.91 48.038 0.282 7.32 9.17 9.83
10/31/2022 10:15:00 PM 8.89 48.002 0.281 7.32 9.11 9.83
10/31/2022 10:30:00 PM 8.83 47.894 0.281 7.31 8.75 9.82
10/31/2022 10:45:00 PM 8.79 47.822 0.281 7.31 9.75 9.8
10/31/2022 11:00:00 PM 8.75 47.75 0.281 7.31 8.84 9.81
10/31/2022 11:15:00 PM 8.71 47.678 0.281 7.31 9.25 9.8
10/31/2022 11:30:00 PM 8.69 47.642 0.28 7.31 9.08 9.8
10/31/2022 11:45:00 PM 8.68 47.624 0.28 7.31 8.98 9.8
11/1/2022 12:00:00 AM 8.68 47.624 0.28 7.31 9.22 9.79
11/1/2022 12:15:00 AM 8.66 47.588 0.28 7.31 9.35 9.78
11/1/2022 12:30:00 AM 8.64 47.552 0.28 7.3 9.49 9.78
11/1/2022 12:45:00 AM 8.65 47.57 0.28 7.29 8.95 9.77
11/1/2022 1:00:00 AM 8.65 47.57 0.28 7.3 8.84 9.78
11/1/2022 1:15:00 AM 8.64 47.552 0.28 7.3 8.78 9.76
11/1/2022 1:30:00 AM 8.64 47.552 0.279 7.3 10.03 9.78
11/1/2022 1:45:00 AM 8.64 47.552 0.28 7.3 10.12 9.78
11/1/2022 2:00:00 AM 8.64 47.552 0.28 7.3 8.9 9.76
11/1/2022 2:15:00 AM 8.64 47.552 0.28 7.3 8.53 9.77
11/1/2022 2:30:00 AM 8.65 47.57 0.28 7.31 8.31 9.76
11/1/2022 2:45:00 AM 8.68 47.624 0.28 7.31 8.47 9.77
11/1/2022 3:00:00 AM 8.71 47.678 0.28 7.31 9.12 9.77
11/1/2022 3:15:00 AM 8.75 47.75 0.28 7.31 8.35 9.76
11/1/2022 3:30:00 AM 8.78 47.804 0.28 7.3 8.94 9.76
11/1/2022 3:45:00 AM 8.8 47.84 0.28 7.31 9.02 9.76
11/1/2022 4:00:00 AM 8.81 47.858 0.28 7.31 8.54 9.74
11/1/2022 4:15:00 AM 8.8 47.84 0.28 7.31 9.1 9.75
11/1/2022 4:30:00 AM 8.77 47.786 0.28 7.31 11.58 9.73
11/1/2022 4:45:00 AM 8.72 47.696 0.28 7.31 9.77 9.75
11/1/2022 5:00:00 AM 8.69 47.642 0.28 7.3 10.83 9.73
11/1/2022 5:15:00 AM 8.68 47.624 0.28 7.31 8.89 9.74
11/1/2022 5:30:00 AM 8.65 47.57 0.28 7.31 8.22 9.75
11/1/2022 5:45:00 AM 8.63 47.534 0.279 7.28 11.7 9.75
11/1/2022 6:00:00 AM 8.62 47.516 0.28 7.29 10.1 9.76
11/1/2022 6:15:00 AM 8.62 47.516 0.28 7.29 81.57 9.73
11/1/2022 6:30:00 AM 8.63 47.534 0.279 7.31 8.33 9.75
11/1/2022 6:45:00 AM 8.65 47.57 0.279 7.32 8.08 9.74
11/1/2022 7:00:00 AM 8.71 47.678 0.278 7.31 10.05 9.71
11/1/2022 7:15:00 AM 8.77 47.786 0.276 7.31 10.74 9.7
11/1/2022 7:30:00 AM 8.76 47.768 0.277 7.31 10.74 9.72
11/1/2022 7:45:00 AM 8.76 47.768 0.278 7.32 9.83 9.73
11/1/2022 8:00:00 AM 8.78 47.804 0.281 7.32 10.87 9.75
11/1/2022 8:15:00 AM 8.82 47.876 0.282 7.31 8.94 9.8
11/1/2022 8:30:00 AM 8.88 47.984 0.282 7.32 9.21 9.87
11/1/2022 8:45:00 AM 8.91 48.038 0.281 7.32 8.87 9.92
11/1/2022 9:00:00 AM 8.96 48.128 0.28 7.33 8.83 10.02
11/1/2022 9:15:00 AM 9.01 48.218 0.279 7.34 9.23 10.14
11/1/2022 9:30:00 AM 9.04 48.272 0.279 7.34 9.13 10.17
11/1/2022 9:45:00 AM 9.14 48.452 0.279 7.36 8.56 10.4
11/1/2022 10:00:00 AM 9.24 48.632 0.278 7.38 8.92 10.61
11/1/2022 10:15:00 AM 9.33 48.794 0.278 7.4 9.03 10.74
11/1/2022 10:30:00 AM 9.39 48.902 0.278 7.41 9.06 10.83
11/1/2022 10:45:00 AM 9.44 48.992 0.278 7.41 9.52 10.82
11/1/2022 11:00:00 AM 9.55 49.19 0.278 7.43 8.85 10.96
11/1/2022 11:15:00 AM 9.63 49.334 0.278 7.44 8.87 11.05
11/1/2022 11:30:00 AM 9.7 49.46 0.278 7.45 11.38 11.1
11/1/2022 11:45:00 AM 9.76 49.568 0.278 7.46 9 11.14
11/1/2022 12:00:00 PM 9.8 49.64 0.277 7.47 9.08 11.13
11/1/2022 12:15:00 PM 9.86 49.748 0.277 7.48 9.46 11.15
11/1/2022 12:30:00 PM 9.89 49.802 0.277 7.47 10.54 11.08
11/1/2022 12:45:00 PM 9.99 49.982 0.278 7.47 9.04 11.17
11/1/2022 1:00:00 PM 10.18 50.324 0.277 7.5 8.94 11.34
11/1/2022 1:15:00 PM 10.44 50.792 0.277 7.52 8.97 11.54
11/1/2022 1:30:00 PM 10.7 51.26 0.277 7.54 9.75 11.69
11/1/2022 1:45:00 PM 11 51.8 0.277 7.57 9.02 11.84
11/1/2022 2:00:00 PM 11.29 52.322 0.276 7.59 8.61 11.91
11/1/2022 2:15:00 PM 11.43 52.574 0.276 7.61 8.48 11.95
11/1/2022 2:30:00 PM 11.43 52.574 0.277 7.61 10.73 11.9
11/1/2022 2:45:00 PM 11.54 52.772 0.277 7.63 9.87 11.91
11/1/2022 3:00:00 PM 11.58 52.844 0.277 7.64 35.23 11.88
11/1/2022 3:15:00 PM 11.57 52.826 0.277 7.61 10.05 11.77
11/1/2022 3:30:00 PM 11.6 52.88 0.276 7.63 86.39 11.74
11/1/2022 3:45:00 PM 11.56 52.808 0.276 7.62 9.06 11.57
11/1/2022 4:00:00 PM 11.49 52.682 0.276 7.61 8.02 11.33
11/1/2022 4:15:00 PM 11.44 52.592 0.277 7.58 7.84 11.15
11/1/2022 4:30:00 PM 11.44 52.592 0.276 7.59 8.21 11.17
11/1/2022 4:45:00 PM 11.4 52.52 0.275 7.59 8.01 11.11
11/1/2022 5:00:00 PM 11.35 52.43 0.273 7.56 10.48 11.02
11/1/2022 5:15:00 PM 11.31 52.358 0.276 7.55 8.05 10.92
11/1/2022 5:30:00 PM 11.27 52.286 0.276 7.55 7.97 10.82
11/1/2022 5:45:00 PM 11.22 52.196 0.276 7.54 7.08 10.69
11/1/2022 6:00:00 PM 11.16 52.088 0.277 7.52 7.9 10.54
11/1/2022 6:15:00 PM 11.06 51.908 0.277 7.5 7.73 10.39
11/1/2022 6:30:00 PM 11.01 51.818 0.277 7.36 7.02 10.25
11/1/2022 6:45:00 PM 10.97 51.746 0.277 7.27 11.37 10.13
11/1/2022 7:00:00 PM 10.92 51.656 0.277 7.44 8.19 10.04
11/1/2022 7:15:00 PM 10.9 51.62 0.277 7.44 10.36 9.96
11/1/2022 7:30:00 PM 10.88 51.584 0.277 7.42 10.18 9.89
11/1/2022 7:45:00 PM 10.85 51.53 0.277 7.41 8.13 9.82
11/1/2022 8:00:00 PM 10.79 51.422 0.277 7.41 9.12 9.8
11/1/2022 8:15:00 PM 10.74 51.332 0.277 7.4 7.97 9.75
11/1/2022 8:30:00 PM 10.67 51.206 0.277 7.4 7.64 9.72
11/1/2022 8:45:00 PM 10.61 51.098 0.276 7.4 9.18 9.68
11/1/2022 9:00:00 PM 10.55 50.99 0.277 7.39 8.02 9.65
11/1/2022 9:15:00 PM 10.49 50.882 0.277 7.39 7.64 9.63
11/1/2022 9:30:00 PM 10.45 50.81 0.276 7.39 7.7 9.62
11/1/2022 9:45:00 PM 10.39 50.702 0.276 7.38 7.71 9.6
11/1/2022 10:00:00 PM 10.36 50.648 0.276 7.38 7.65 9.58
11/1/2022 10:15:00 PM 10.34 50.612 0.276 7.38 7.82 9.56
11/1/2022 10:30:00 PM 10.32 50.576 0.276 7.38 7.97 9.56
11/1/2022 10:45:00 PM 10.32 50.576 0.276 7.38 8.26 9.55
11/1/2022 11:00:00 PM 10.3 50.54 0.276 7.37 8.56 9.54
11/1/2022 11:15:00 PM 10.29 50.522 0.275 7.37 9 9.53
11/1/2022 11:30:00 PM 10.28 50.504 0.275 7.37 9.84 9.52
11/1/2022 11:45:00 PM 10.28 50.504 0.275 7.37 8.27 9.52
11/2/2022 12:00:00 AM 10.27 50.486 0.275 7.37 8.25 9.51
11/2/2022 12:15:00 AM 10.22 50.396 0.275 7.37 8.6 9.51
11/2/2022 12:30:00 AM 10.15 50.27 0.276 7.37 9.43 9.51
11/2/2022 12:45:00 AM 10.1 50.18 0.276 7.37 9.54 9.51
11/2/2022 1:00:00 AM 10.04 50.072 0.276 7.37 8.41 9.52
11/2/2022 1:15:00 AM 10.02 50.036 0.277 7.37 8.7 9.51
11/2/2022 1:30:00 AM 10.03 50.054 0.276 7.37 8.74 9.52
11/2/2022 1:45:00 AM 10 50 0.277 7.37 8.95 9.53
11/2/2022 2:00:00 AM 9.98 49.964 0.277 7.37 8.53 9.53
11/2/2022 2:15:00 AM 9.98 49.964 0.277 7.37 9.91 9.52
11/2/2022 2:30:00 AM 9.96 49.928 0.277 7.37 8.81 9.53
11/2/2022 2:45:00 AM 9.95 49.91 0.277 7.37 11.08 9.52
11/2/2022 3:00:00 AM 9.93 49.874 0.276 7.37 9.03 9.53
11/2/2022 3:15:00 AM 9.88 49.784 0.276 7.37 8.77 9.54
11/2/2022 3:30:00 AM 9.83 49.694 0.276 7.37 9.37 9.54
11/2/2022 3:45:00 AM 9.77 49.586 0.276 7.36 8.77 9.55
11/2/2022 4:00:00 AM 9.76 49.568 0.275 7.36 9.03 9.55
11/2/2022 4:15:00 AM 9.76 49.568 0.275 7.36 9.77 9.54
11/2/2022 4:30:00 AM 9.74 49.532 0.275 7.36 9.04 9.55
11/2/2022 4:45:00 AM 9.73 49.514 0.275 7.36 9.6 9.55
11/2/2022 5:00:00 AM 9.72 49.496 0.275 7.36 9.95 9.55
11/2/2022 5:15:00 AM 9.72 49.496 0.275 7.36 10.05 9.54
11/2/2022 5:30:00 AM 9.72 49.496 0.275 7.36 12.15 9.54
11/2/2022 5:45:00 AM 9.72 49.496 0.275 7.36 10.35 9.54
11/2/2022 6:00:00 AM 9.71 49.478 0.275 7.36 10.39 9.54
11/2/2022 6:15:00 AM 9.69 49.442 0.275 7.34 11.72 9.55
11/2/2022 6:30:00 AM 9.67 49.406 0.274 7.35 10.51 9.55
11/2/2022 6:45:00 AM 9.65 49.37 0.274 7.36 10.21 9.55
11/2/2022 7:00:00 AM 9.63 49.334 0.274 7.36 10.5 9.55
11/2/2022 7:15:00 AM 9.63 49.334 0.274 7.36 11.31 9.55
11/2/2022 7:30:00 AM 9.63 49.334 0.274 7.36 10.4 9.57
11/2/2022 7:45:00 AM 9.63 49.334 0.274 7.36 10.22 9.57
11/2/2022 8:00:00 AM 9.63 49.334 0.274 7.36 10.29 9.59
11/2/2022 8:15:00 AM 9.64 49.352 0.274 7.36 10.5 9.61
11/2/2022 8:30:00 AM 9.65 49.37 0.274 7.36 10.55 9.67
11/2/2022 8:45:00 AM 9.67 49.406 0.273 7.37 10.92 9.77
11/2/2022 9:00:00 AM 9.7 49.46 0.273 7.38 10.42 9.9
11/2/2022 9:15:00 AM 9.73 49.514 0.273 7.39 10.7 10.04
11/2/2022 9:30:00 AM 9.8 49.64 0.273 7.4 10.19 10.23
11/2/2022 9:45:00 AM 9.84 49.712 0.273 7.42 11.59 10.35
11/2/2022 10:00:00 AM 9.9 49.82 0.272 7.36 15.22 10.46
11/2/2022 10:15:00 AM 10 50 0.272 7.4 12.2 10.65
11/2/2022 10:30:00 AM 10.08 50.144 0.272 7.44 10.67 10.79
11/2/2022 10:45:00 AM 10.16 50.288 0.272 7.47 10.27 10.89
11/2/2022 11:00:00 AM 10.31 50.558 0.272 7.49 10.73 11.05
11/2/2022 11:15:00 AM 10.48 50.864 0.272 7.51 10.37 11.21
11/2/2022 11:30:00 AM 10.69 51.242 0.271 7.54 11.39 11.33
11/2/2022 11:45:00 AM 10.82 51.476 0.271 7.56 10.5 11.41
11/2/2022 12:00:00 PM 11.01 51.818 0.27 7.42 751.39 11.5
11/2/2022 12:15:00 PM 11.21 52.178 0.271 7.57 13.17 11.6
11/2/2022 12:30:00 PM 11.43 52.574 0.27 7.61 8.82 11.68
11/2/2022 12:45:00 PM 11.67 53.006 0.27 7.63 8.82 11.75
11/2/2022 1:00:00 PM 11.91 53.438 0.27 7.65 7.61 11.78
11/2/2022 1:15:00 PM 12.11 53.798 0.27 7.67 7 11.85
11/2/2022 1:30:00 PM 12.26 54.068 0.27 7.68 8.92 11.86
11/2/2022 1:45:00 PM 12.46 54.428 0.269 7.69 7.97 11.89
11/2/2022 2:00:00 PM 12.67 54.806 0.269 7.72 7.46 11.92
11/2/2022 2:15:00 PM 12.77 54.986 0.269 7.73 7.55 11.93
11/2/2022 2:30:00 PM 12.79 55.022 0.269 7.73 8.69 11.87
11/2/2022 2:45:00 PM 12.93 55.274 0.269 7.74 7.72 11.88
11/2/2022 3:00:00 PM 12.98 55.364 0.269 7.75 7.95 11.83
11/2/2022 3:15:00 PM 12.96 55.328 0.269 7.76 7.83 11.82
11/2/2022 3:30:00 PM 12.99 55.382 0.269 7.76 8.02 11.78
11/2/2022 3:45:00 PM 13.02 55.436 0.269 7.77 8.56 11.77
11/2/2022 4:00:00 PM 12.95 55.31 0.268 7.64 27.47 11.72
11/2/2022 4:15:00 PM 12.85 55.13 0.268 7.7 10.85 11.65
11/2/2022 4:30:00 PM 12.75 54.95 0.269 7.73 9.08 11.54
11/2/2022 4:45:00 PM 12.62 54.716 0.269 7.71 8.96 11.42
11/2/2022 5:00:00 PM 12.5 54.5 0.269 7.7 83.33 11.32
11/2/2022 5:15:00 PM 12.37 54.266 0.269 7.68 18.08 11.19
11/2/2022 5:30:00 PM 12.22 53.996 0.269 7.66 8.27 11.02
11/2/2022 5:45:00 PM 12.07 53.726 0.269 7.63 8.4 10.83
11/2/2022 6:00:00 PM 11.93 53.474 0.269 7.6 10.06 10.67
11/2/2022 6:15:00 PM 11.79 53.222 0.27 7.57 8.63 10.47
11/2/2022 6:30:00 PM 11.66 52.988 0.27 7.55 8.29 10.31
11/2/2022 6:45:00 PM 11.53 52.754 0.271 7.53 9.05 10.17
11/2/2022 7:00:00 PM 11.4 52.52 0.271 7.51 9.44 10.05
11/2/2022 7:15:00 PM 11.28 52.304 0.271 7.49 11.72 9.98
11/2/2022 7:30:00 PM 11.16 52.088 0.271 7.48 8.92 9.88
11/2/2022 7:45:00 PM 11.05 51.89 0.271 7.47 8.8 9.84
11/2/2022 8:00:00 PM 10.94 51.692 0.271 7.46 8.18 9.78
11/2/2022 8:15:00 PM 10.85 51.53 0.272 7.45 7.37 9.75
11/2/2022 8:30:00 PM 10.75 51.35 0.272 7.44 7.57 9.7
11/2/2022 8:45:00 PM 10.65 51.17 0.272 7.43 7.63 9.69
11/2/2022 9:00:00 PM 10.56 51.008 0.272 7.43 7.51 9.67
11/2/2022 9:15:00 PM 10.47 50.846 0.272 7.42 7.84 9.63
11/2/2022 9:30:00 PM 10.39 50.702 0.272 7.42 7.48 9.63
11/2/2022 9:45:00 PM 10.31 50.558 0.272 7.41 16.19 9.63
11/2/2022 10:00:00 PM 10.24 50.432 0.273 7.41 9.23 9.62
11/2/2022 10:15:00 PM 10.17 50.306 0.273 7.4 8.59 9.54
11/2/2022 10:30:00 PM 10.1 50.18 0.273 7.4 8.86 9.58
11/2/2022 10:45:00 PM 10.02 50.036 0.273 7.4 10 9.6
11/2/2022 11:00:00 PM 9.96 49.928 0.273 7.4 10.1 9.58
11/2/2022 11:15:00 PM 9.89 49.802 0.273 7.39 9.21 9.59
11/2/2022 11:30:00 PM 9.83 49.694 0.273 7.39 9.65 9.57
11/2/2022 11:45:00 PM 9.76 49.568 0.273 7.39 9.54 9.59
11/3/2022 12:00:00 AM 9.7 49.46 0.274 7.39 9.74 9.57
11/3/2022 12:15:00 AM 9.64 49.352 0.273 7.39 9.53 9.6
11/3/2022 12:30:00 AM 9.58 49.244 0.274 7.38 17.48 9.61
11/3/2022 12:45:00 AM 9.52 49.136 0.273 7.38 10.87 9.62
11/3/2022 1:00:00 AM 9.46 49.028 0.273 7.38 10.51 9.62
11/3/2022 1:15:00 AM 9.4 48.92 0.274 7.38 8.9 9.63
11/3/2022 1:30:00 AM 9.34 48.812 0.274 7.38 10.55 9.61
11/3/2022 1:45:00 AM 9.29 48.722 0.274 7.38 19.02 9.64
11/3/2022 2:00:00 AM 9.22 48.596 0.274 7.38 8.67 9.64
11/3/2022 2:15:00 AM 9.17 48.506 0.274 7.38 7.94 9.65
11/3/2022 2:30:00 AM 9.1 48.38 0.274 7.37 8.37 9.65
11/3/2022 2:45:00 AM 9.04 48.272 0.274 7.37 8.35 9.66
11/3/2022 3:00:00 AM 8.97 48.146 0.274 7.37 8.45 9.66
11/3/2022 3:15:00 AM 8.91 48.038 0.274 7.37 7.93 9.66
11/3/2022 3:30:00 AM 8.85 47.93 0.274 7.36 10.3 9.66
11/3/2022 3:45:00 AM 8.79 47.822 0.274 7.36 13.33 9.69
11/3/2022 4:00:00 AM 8.72 47.696 0.274 7.36 19.11 9.7
11/3/2022 4:15:00 AM 8.66 47.588 0.274 7.36 17.24 9.7
11/3/2022 4:30:00 AM 8.61 47.498 0.274 7.36 9.47 9.71
11/3/2022 4:45:00 AM 8.55 47.39 0.274 7.35 10.67 9.72
11/3/2022 5:00:00 AM 8.49 47.282 0.274 7.35 10.69 9.74
11/3/2022 5:15:00 AM 8.44 47.192 0.274 7.35 8.91 9.72
11/3/2022 5:30:00 AM 8.39 47.102 0.274 7.35 11.49 9.74
11/3/2022 5:45:00 AM 8.33 46.994 0.274 7.35 9.5 9.77
11/3/2022 6:00:00 AM 8.28 46.904 0.274 7.35 8.22 9.76
11/3/2022 6:15:00 AM 8.23 46.814 0.274 7.35 8.23 9.78
11/3/2022 6:30:00 AM 8.18 46.724 0.274 7.35 10.39 9.79
11/3/2022 6:45:00 AM 8.14 46.652 0.274 7.35 7.71 9.8
11/3/2022 7:00:00 AM 8.09 46.562 0.275 7.35 7.44 9.8
11/3/2022 7:15:00 AM 8.05 46.49 0.275 7.35 8.11 9.81
11/3/2022 7:30:00 AM 8 46.4 0.274 7.35 8.25 9.83
11/3/2022 7:45:00 AM 7.96 46.328 0.275 7.35 8.06 9.87
11/3/2022 8:00:00 AM 7.92 46.256 0.275 7.35 8.23 9.9
11/3/2022 8:15:00 AM 7.89 46.202 0.275 7.36 8.07 9.95
11/3/2022 8:30:00 AM 7.87 46.166 0.275 7.36 9.18 10.04
11/3/2022 8:45:00 AM 7.85 46.13 0.275 7.36 7.59 10.14
11/3/2022 9:00:00 AM 7.86 46.148 0.276 7.37 7.87 10.25
11/3/2022 9:15:00 AM 7.89 46.202 0.276 7.39 7.93 10.38
11/3/2022 9:30:00 AM 7.94 46.292 0.276 7.4 9.42 10.5
11/3/2022 9:45:00 AM 8 46.4 0.275 7.4 9.66 10.63
11/3/2022 10:00:00 AM 8.11 46.598 0.276 7.42 8.99 10.76
11/3/2022 10:15:00 AM 8.26 46.868 0.276 7.44 8.56 10.89
11/3/2022 10:30:00 AM 8.44 47.192 0.275 7.45 8.04 11.06
11/3/2022 10:45:00 AM 8.65 47.57 0.275 7.47 7.75 11.2
11/3/2022 11:00:00 AM 8.88 47.984 0.275 7.49 8.21 11.36
11/3/2022 11:15:00 AM 9.15 48.47 0.275 7.51 8.85 11.48
11/3/2022 11:30:00 AM 9.42 48.956 0.275 7.53 7.89 11.58
11/3/2022 11:45:00 AM 9.71 49.478 0.275 7.55 8.49 11.69
11/3/2022 12:00:00 PM 10 50 0.275 7.57 8.19 11.77
11/3/2022 12:15:00 PM 10.31 50.558 0.274 7.59 8.53 11.86
11/3/2022 12:30:00 PM 10.61 51.098 0.274 7.6 8.7 11.91
11/3/2022 12:45:00 PM 10.89 51.602 0.274 7.62 8.32 11.96
11/3/2022 1:00:00 PM 11.16 52.088 0.274 7.64 8.29 12.02
11/3/2022 1:15:00 PM 11.4 52.52 0.274 7.66 8.25 12.05
11/3/2022 1:30:00 PM 11.63 52.934 0.274 7.68 8.65 12.08
11/3/2022 1:45:00 PM 11.84 53.312 0.274 7.69 8.58 12.09
11/3/2022 2:00:00 PM 12.04 53.672 0.274 7.71 8.38 12.12
11/3/2022 2:15:00 PM 12.21 53.978 0.274 7.72 8.34 12.12
11/3/2022 2:30:00 PM 12.36 54.248 0.274 7.74 8.74 12.11
11/3/2022 2:45:00 PM 12.47 54.446 0.274 7.75 8.4 12.12
11/3/2022 3:00:00 PM 12.56 54.608 0.274 7.76 8.37 12.09
11/3/2022 3:15:00 PM 12.63 54.734 0.274 7.76 9.2 12.07
11/3/2022 3:30:00 PM 12.66 54.788 0.274 7.72 13.73 12.04
11/3/2022 3:45:00 PM 12.65 54.77 0.274 7.76 10.7 11.96
11/3/2022 4:00:00 PM 12.61 54.698 0.275 7.76 8.77 11.89
11/3/2022 4:15:00 PM 12.54 54.572 0.275 7.76 8.75 11.8
11/3/2022 4:30:00 PM 12.44 54.392 0.275 7.74 12.67 11.67
11/3/2022 4:45:00 PM 12.31 54.158 0.275 7.72 8.22 11.56
11/3/2022 5:00:00 PM 12.14 53.852 0.276 7.7 9.34 11.41
11/3/2022 5:15:00 PM 11.94 53.492 0.276 7.67 8.42 11.21
11/3/2022 5:30:00 PM 11.71 53.078 0.276 7.64 8.14 10.97
11/3/2022 5:45:00 PM 11.49 52.682 0.276 7.6 8.27 10.73
11/3/2022 6:00:00 PM 11.29 52.322 0.276 7.57 8.06 10.54
11/3/2022 6:15:00 PM 11.11 51.998 0.277 7.54 8.23 10.39
11/3/2022 6:30:00 PM 10.95 51.71 0.277 7.51 8.27 10.24
11/3/2022 6:45:00 PM 10.81 51.458 0.277 7.5 8.06 10.12
11/3/2022 7:00:00 PM 10.69 51.242 0.277 7.48 8.54 10.04
11/3/2022 7:15:00 PM 10.58 51.044 0.278 7.47 8.12 9.97
11/3/2022 7:30:00 PM 10.48 50.864 0.278 7.44 16.49 9.9
11/3/2022 7:45:00 PM 10.38 50.684 0.278 7.44 53.74 9.86
11/3/2022 8:00:00 PM 10.28 50.504 0.278 7.42 36.74 9.82
11/3/2022 8:15:00 PM 10.19 50.342 0.278 7.42 8.93 9.8
11/3/2022 8:30:00 PM 10.09 50.162 0.278 7.42 8.4 9.76
11/3/2022 8:45:00 PM 10 50 0.279 7.41 8.48 9.74
11/3/2022 9:00:00 PM 9.91 49.838 0.279 7.41 8.4 9.73
11/3/2022 9:15:00 PM 9.82 49.676 0.279 7.4 8.36 9.74
11/3/2022 9:30:00 PM 9.73 49.514 0.279 7.4 8.23 9.71
11/3/2022 9:45:00 PM 9.65 49.37 0.279 7.39 8.52 9.71
11/3/2022 10:00:00 PM 9.58 49.244 0.279 7.39 8.16 9.7
11/3/2022 10:15:00 PM 9.5 49.1 0.279 7.39 8.71 9.71
11/3/2022 10:30:00 PM 9.43 48.974 0.28 7.39 10.45 9.71
11/3/2022 10:45:00 PM 9.37 48.866 0.279 7.38 8.77 9.71
11/3/2022 11:00:00 PM 9.31 48.758 0.28 7.38 8.34 9.72
11/3/2022 11:15:00 PM 9.25 48.65 0.279 7.38 8.46 9.7
11/3/2022 11:30:00 PM 9.2 48.56 0.28 7.38 8.51 9.72
11/3/2022 11:45:00 PM 9.15 48.47 0.279 7.37 9.91 9.71
11/4/2022 12:00:00 AM 9.1 48.38 0.28 7.37 8.73 9.71
11/4/2022 12:15:00 AM 9.05 48.29 0.279 7.37 8.44 9.69
11/4/2022 12:30:00 AM 9 48.2 0.279 7.37 8.29 9.7
11/4/2022 12:45:00 AM 8.96 48.128 0.279 7.37 8.22 9.7
11/4/2022 1:00:00 AM 8.91 48.038 0.28 7.37 8.34 9.71
11/4/2022 1:15:00 AM 8.87 47.966 0.28 7.37 8.71 9.69
11/4/2022 1:30:00 AM 8.83 47.894 0.28 7.37 9.15 9.7
11/4/2022 1:45:00 AM 8.79 47.822 0.28 7.36 9.77 9.7
11/4/2022 2:00:00 AM 8.75 47.75 0.28 7.36 9.49 9.7
11/4/2022 2:15:00 AM 8.71 47.678 0.279 7.36 10.16 9.71
11/4/2022 2:30:00 AM 8.67 47.606 0.28 7.36 9.49 9.71
11/4/2022 2:45:00 AM 8.63 47.534 0.28 7.26 22.99 9.73
11/4/2022 3:00:00 AM 8.58 47.444 0.28 7.28 8.89 9.71
11/4/2022 3:15:00 AM 8.53 47.354 0.28 7.32 10.95 9.72
11/4/2022 3:30:00 AM 8.49 47.282 0.28 7.33 9.86 9.72
11/4/2022 3:45:00 AM 8.44 47.192 0.28 7.35 8.77 9.76
11/4/2022 4:00:00 AM 8.39 47.102 0.28 7.35 8.88 9.76
11/4/2022 4:15:00 AM 8.34 47.012 0.28 7.35 9.05 9.77
11/4/2022 4:30:00 AM 8.29 46.922 0.28 7.35 8.72 9.75
11/4/2022 4:45:00 AM 8.24 46.832 0.281 7.35 8.48 9.76
11/4/2022 5:00:00 AM 8.18 46.724 0.281 7.35 8.95 9.79
11/4/2022 5:15:00 AM 8.13 46.634 0.28 7.34 8.79 9.81
11/4/2022 5:30:00 AM 8.08 46.544 0.28 7.34 8.31 9.82
11/4/2022 5:45:00 AM 8.03 46.454 0.28 7.34 8.59 9.81
11/4/2022 6:00:00 AM 7.97 46.346 0.281 7.34 8.9 9.81
11/4/2022 6:15:00 AM 7.92 46.256 0.281 7.34 8.86 9.84
11/4/2022 6:30:00 AM 7.87 46.166 0.281 7.34 8.81 9.86
11/4/2022 6:45:00 AM 7.83 46.094 0.281 7.34 8.65 9.85
11/4/2022 7:00:00 AM 7.79 46.022 0.28 7.34 10.98 9.87
11/4/2022 7:15:00 AM 7.74 45.932 0.281 7.34 8.74 9.86
11/4/2022 7:30:00 AM 7.7 45.86 0.281 7.34 8.68 9.85
11/4/2022 7:45:00 AM 7.66 45.788 0.281 7.34 9.03 9.88
11/4/2022 8:00:00 AM 7.63 45.734 0.281 7.34 9.53 9.92
11/4/2022 8:15:00 AM 7.6 45.68 0.281 7.34 9.81 10
11/4/2022 8:30:00 AM 7.59 45.662 0.281 7.34 10.39 10.09
11/4/2022 8:45:00 AM 7.6 45.68 0.281 7.37 10.98 10.23
11/4/2022 9:00:00 AM 7.62 45.716 0.281 7.38 9.55 10.33
11/4/2022 9:15:00 AM 7.63 45.734 0.281 7.39 10.79 10.49
11/4/2022 9:30:00 AM 7.68 45.824 0.281 7.4 9.32 10.59
11/4/2022 9:45:00 AM 7.77 45.986 0.281 7.41 9.12 10.71
11/4/2022 10:00:00 AM 7.89 46.202 0.282 7.42 8.78 10.85
11/4/2022 10:15:00 AM 8.04 46.472 0.281 7.43 9.07 10.98
11/4/2022 10:30:00 AM 8.22 46.796 0.282 7.46 8.88 11.15
11/4/2022 10:45:00 AM 8.44 47.192 0.281 7.47 8.94 11.29
11/4/2022 11:00:00 AM 8.67 47.606 0.282 7.49 11.75 11.44
11/4/2022 11:15:00 AM 8.93 48.074 0.282 7.51 8.79 11.58
11/4/2022 11:30:00 AM 9.2 48.56 0.281 7.53 9.52 11.67
11/4/2022 11:45:00 AM 9.51 49.118 0.281 7.55 9.19 11.78
11/4/2022 12:00:00 PM 9.83 49.694 0.281 7.56 9.89 11.89
11/4/2022 12:15:00 PM 10.16 50.288 0.281 7.58 8.65 11.97
11/4/2022 12:30:00 PM 10.48 50.864 0.28 7.61 8.32 12.06
11/4/2022 12:45:00 PM 10.8 51.44 0.28 7.63 8.71 12.1
11/4/2022 1:00:00 PM 11.11 51.998 0.28 7.64 8.49 12.18
11/4/2022 1:15:00 PM 11.38 52.484 0.28 7.66 9.04 12.23
11/4/2022 1:30:00 PM 11.65 52.97 0.28 7.68 9.53 12.25
11/4/2022 1:45:00 PM 11.89 53.402 0.28 7.69 11.25 12.26
11/4/2022 2:00:00 PM 12.1 53.78 0.28 7.72 8.83 12.28
11/4/2022 2:15:00 PM 12.24 54.032 0.279 7.73 26.28 12.27
11/4/2022 2:30:00 PM 12.42 54.356 0.28 7.74 50.96 12.27
11/4/2022 2:45:00 PM 12.58 54.644 0.28 7.75 10.52 12.26
11/4/2022 3:00:00 PM 12.68 54.824 0.28 7.76 12.4 12.24
11/4/2022 3:15:00 PM 12.75 54.95 0.28 7.77 13.7 12.21
11/4/2022 3:30:00 PM 12.78 55.004 0.279 7.78 31.47 12.19
11/4/2022 3:45:00 PM 12.75 54.95 0.279 7.78 40.7 12.11
11/4/2022 4:00:00 PM 12.69 54.842 0.279 7.77 11.85 12.03
11/4/2022 4:15:00 PM 12.65 54.77 0.279 7.76 11.83 11.95
11/4/2022 4:30:00 PM 12.58 54.644 0.279 7.75 13.17 11.85
11/4/2022 4:45:00 PM 12.45 54.41 0.279 7.74 127.86 11.72
11/4/2022 5:00:00 PM 12.29 54.122 0.28 7.67 13.15 11.51
11/4/2022 5:15:00 PM 12.1 53.78 0.28 7.67 12.34 11.26
11/4/2022 5:30:00 PM 11.93 53.474 0.28 7.64 13 11.04
11/4/2022 5:45:00 PM 11.76 53.168 0.281 7.61 12.59 10.84
11/4/2022 6:00:00 PM 11.61 52.898 0.281 7.58 12.51 10.64
11/4/2022 6:15:00 PM 11.47 52.646 0.281 7.55 13.22 10.45
11/4/2022 6:30:00 PM 11.35 52.43 0.281 7.53 13.59 10.3
11/4/2022 6:45:00 PM 11.24 52.232 0.281 7.51 12.83 10.17
11/4/2022 7:00:00 PM 11.15 52.07 0.281 7.41 31.2 10.07
11/4/2022 7:15:00 PM 11.07 51.926 0.281 7.43 59.62 9.97
11/4/2022 7:30:00 PM 11 51.8 0.281 7.33 35.82 9.92
11/4/2022 7:45:00 PM 10.93 51.674 0.281 7.43 10.96 9.85
11/4/2022 8:00:00 PM 10.86 51.548 0.281 7.44 9.99 9.8
11/4/2022 8:15:00 PM 10.81 51.458 0.281 7.43 10.19 9.75
11/4/2022 8:30:00 PM 10.75 51.35 0.282 7.42 15.97 9.7
11/4/2022 8:45:00 PM 10.69 51.242 0.282 7.42 14.9 9.68
11/4/2022 9:00:00 PM 10.63 51.134 0.282 7.41 19.01 9.66
11/4/2022 9:15:00 PM 10.56 51.008 0.282 7.41 13.98 9.62
11/4/2022 9:30:00 PM 10.48 50.864 0.282 7.4 26.54 9.61
11/4/2022 9:45:00 PM 10.41 50.738 0.282 7.39 12.19 9.59
11/4/2022 10:00:00 PM 10.34 50.612 0.282 7.39 13.07 9.57
11/4/2022 10:15:00 PM 10.27 50.486 0.282 7.34 15.57 9.56
11/4/2022 10:30:00 PM 10.2 50.36 0.282 7.38 14.08 9.56
11/4/2022 10:45:00 PM 10.14 50.252 0.283 7.38 13.84 9.54
11/4/2022 11:00:00 PM 10.07 50.126 0.283 7.37 47.59 9.54
11/4/2022 11:15:00 PM 10.01 50.018 0.283 7.37 15.49 9.54
11/4/2022 11:30:00 PM 9.96 49.928 0.283 7.37 15.23 9.54
11/4/2022 11:45:00 PM 9.91 49.838 0.282 7.22 14.31 9.52
11/5/2022 12:00:00 AM 9.89 49.802 0.282 7.33 19.45 9.52
11/5/2022 12:15:00 AM 9.89 49.802 0.283 7.35 12.64 9.5
11/5/2022 12:30:00 AM 9.88 49.784 0.283 7.34 17.54 9.49
11/5/2022 12:45:00 AM 9.87 49.766 0.283 7.34 11.34 9.48
11/5/2022 1:00:00 AM 9.87 49.766 0.283 7.33 11.56 9.46
11/5/2022 1:15:00 AM 9.88 49.784 0.282 7.35 12.38 9.47
11/5/2022 1:30:00 AM 9.87 49.766 0.283 7.35 11.51 9.46
11/5/2022 1:45:00 AM 9.86 49.748 0.283 7.35 12.26 9.44
11/5/2022 2:00:00 AM 9.85 49.73 0.283 7.35 12.33 9.44
11/5/2022 2:15:00 AM 9.83 49.694 0.283 7.35 11.88 9.42
11/5/2022 2:30:00 AM 9.82 49.676 0.283 7.35 10.83 9.43
11/5/2022 2:45:00 AM 9.8 49.64 0.283 7.34 12.16 9.41
11/5/2022 3:00:00 AM 9.79 49.622 0.283 7.34 9.72 9.41
11/5/2022 3:15:00 AM 9.77 49.586 0.283 7.34 9.52 9.41
11/5/2022 3:30:00 AM 9.75 49.55 0.283 7.34 9.59 9.4
11/5/2022 3:45:00 AM 9.72 49.496 0.283 7.34 9.83 9.41
11/5/2022 4:00:00 AM 9.68 49.424 0.282 7.34 10.53 9.41
11/5/2022 4:15:00 AM 9.65 49.37 0.283 7.34 11.82 9.41
11/5/2022 4:30:00 AM 9.61 49.298 0.283 7.34 11.26 9.41
11/5/2022 4:45:00 AM 9.58 49.244 0.282 7.34 11.01 9.42
11/5/2022 5:00:00 AM 9.54 49.172 0.282 7.33 11.78 9.43
11/5/2022 5:15:00 AM 9.5 49.1 0.283 7.33 11.88 9.43
11/5/2022 5:30:00 AM 9.46 49.028 0.283 7.33 11.87 9.43
11/5/2022 5:45:00 AM 9.42 48.956 0.282 7.33 12.43 9.44
11/5/2022 6:00:00 AM 9.38 48.884 0.282 7.33 12.94 9.44
11/5/2022 6:15:00 AM 9.35 48.83 0.282 7.33 11.29 9.43
11/5/2022 6:30:00 AM 9.31 48.758 0.282 7.33 9.59 9.46
11/5/2022 6:45:00 AM 9.28 48.704 0.282 7.02 14.53 9.47
11/5/2022 7:00:00 AM 9.24 48.632 0.282 7.29 91.18 9.46
11/5/2022 7:15:00 AM 9.21 48.578 0.282 7.32 10.39 9.48
11/5/2022 7:30:00 AM 9.18 48.524 0.282 7.32 14.58 9.47
11/5/2022 7:45:00 AM 9.15 48.47 0.282 7.32 13.21 9.46
11/5/2022 8:00:00 AM 9.13 48.434 0.282 7.33 12.08 9.51
11/5/2022 8:15:00 AM 9.13 48.434 0.282 7.34 11.13 9.59
11/5/2022 8:30:00 AM 9.14 48.452 0.282 7.34 18.15 9.7
11/5/2022 8:45:00 AM 9.16 48.488 0.281 7.33 24.97 9.84
11/5/2022 9:00:00 AM 9.21 48.578 0.282 7.28 174.73 10
11/5/2022 9:15:00 AM 9.32 48.776 0.282 7.37 69.07 10.2
11/5/2022 9:30:00 AM 9.44 48.992 0.282 7.39 9.92 10.4
11/5/2022 9:45:00 AM 9.54 49.172 0.281 7.41 10.32 10.56
11/5/2022 10:00:00 AM 9.7 49.46 0.281 7.42 10.59 10.68
11/5/2022 10:15:00 AM 9.87 49.766 0.281 7.44 13.41 10.8
11/5/2022 10:30:00 AM 10.13 50.234 0.281 7.46 10.8 10.94
11/5/2022 10:45:00 AM 10.44 50.792 0.281 7.48 12.03 11.11
11/5/2022 11:00:00 AM 10.76 51.368 0.28 7.5 10.73 11.26
11/5/2022 11:15:00 AM 11.04 51.872 0.28 7.53 11.91 11.36
11/5/2022 11:30:00 AM 11.22 52.196 0.28 7.55 10.92 11.43
11/5/2022 11:45:00 AM 11.54 52.772 0.28 7.57 11.09 11.56
11/5/2022 12:00:00 PM 11.8 53.24 0.28 7.6 11.1 11.66
11/5/2022 12:15:00 PM 12.16 53.888 0.28 7.62 10.71 11.77
11/5/2022 12:30:00 PM 12.42 54.356 0.28 7.64 11 11.85
11/5/2022 12:45:00 PM 12.82 55.076 0.28 7.67 10.57 11.95
11/5/2022 1:00:00 PM 13.16 55.688 0.28 7.7 12.26 11.98
11/5/2022 1:15:00 PM 13.46 56.228 0.28 7.73 16.33 12.06
11/5/2022 1:30:00 PM 13.7 56.66 0.28 7.48 12.89 12.08
11/5/2022 1:45:00 PM 13.91 57.038 0.28 7.76 10 12.09
11/5/2022 2:00:00 PM 14.05 57.29 0.28 7.8 10.77 12.09
11/5/2022 2:15:00 PM 14.16 57.488 0.28 7.81 13.84 12.06
11/5/2022 2:30:00 PM 14.24 57.632 0.28 7.82 12.81 12.03
11/5/2022 2:45:00 PM 14.42 57.956 0.279 7.81 10.8 11.98
11/5/2022 3:00:00 PM 14.37 57.866 0.28 7.81 11.8 11.84
11/5/2022 3:15:00 PM 14.37 57.866 0.28 7.81 11.22 11.72
11/5/2022 3:30:00 PM 14.47 58.046 0.279 7.81 27.2 11.7
11/5/2022 3:45:00 PM 14.44 57.992 0.28 7.79 14.32 11.6
11/5/2022 4:00:00 PM 14.41 57.938 0.28 7.75 12.23 11.48
11/5/2022 4:15:00 PM 14.34 57.812 0.279 7.76 11.5 11.37
11/5/2022 4:30:00 PM 14.28 57.704 0.28 7.73 17.58 11.16
11/5/2022 4:45:00 PM 14.23 57.614 0.281 7.7 11.48 10.95
11/5/2022 5:00:00 PM 14.21 57.578 0.28 7.69 680.55 10.96
11/5/2022 5:15:00 PM 14.14 57.452 0.279 7.65 71.6 10.88
11/5/2022 5:30:00 PM 14.06 57.308 0.28 7.64 40.84 10.68
11/5/2022 5:45:00 PM 13.95 57.11 0.28 7.61 14.99 10.46
11/5/2022 6:00:00 PM 13.83 56.894 0.281 7.58 13.09 10.24
11/5/2022 6:15:00 PM 13.77 56.786 0.281 7.54 10.92 10
11/5/2022 6:30:00 PM 13.71 56.678 0.282 7.52 12.03 9.84
11/5/2022 6:45:00 PM 13.61 56.498 0.281 7.49 58.31 9.64
11/5/2022 7:00:00 PM 13.52 56.336 0.281 7.47 96.57 9.55
11/5/2022 7:15:00 PM 13.43 56.174 0.282 7.45 30.08 9.35
11/5/2022 7:30:00 PM 13.36 56.048 0.282 7.44 18.44 9.33
11/5/2022 7:45:00 PM 13.29 55.922 0.282 7.15 14.31 9.23
11/5/2022 8:00:00 PM 13.23 55.814 0.283 7.4 12.85 9.15
11/5/2022 8:15:00 PM 13.16 55.688 0.282 7.4 11.69 9.17
11/5/2022 8:30:00 PM 13.1 55.58 0.282 7.4 39.45 9.1
11/5/2022 8:45:00 PM 13.05 55.49 0.282 7.4 12.97 9.1
11/5/2022 9:00:00 PM 13.03 55.454 0.283 7.39 14.14 9.06
11/5/2022 9:15:00 PM 13.01 55.418 0.283 7.39 12.34 9.02
11/5/2022 9:30:00 PM 12.98 55.364 0.283 7.38 12.02 8.98
11/5/2022 9:45:00 PM 12.96 55.328 0.283 7.38 10.98 8.94
11/5/2022 10:00:00 PM 12.96 55.328 0.283 7.37 12.05 8.9
11/5/2022 10:15:00 PM 12.94 55.292 0.282 7.37 12.38 8.91
11/5/2022 10:30:00 PM 12.94 55.292 0.282 7.37 10.99 8.89
11/5/2022 10:45:00 PM 12.95 55.31 0.283 7.37 11.21 8.88
11/5/2022 11:00:00 PM 12.93 55.274 0.283 7.37 10.5 8.86
11/5/2022 11:15:00 PM 12.92 55.256 0.283 7.37 10.89 8.85
11/5/2022 11:30:00 PM 12.9 55.22 0.283 7.37 10.87 8.83
11/5/2022 11:45:00 PM 12.87 55.166 0.283 7.37 10.6 8.8
11/6/2022 12:00:00 AM 12.82 55.076 0.283 7.37 10.72 8.79
11/6/2022 12:15:00 AM 12.78 55.004 0.284 7.36 10.92 8.77
11/6/2022 12:30:00 AM 12.77 54.986 0.284 7.36 10.65 8.76
11/6/2022 12:45:00 AM 12.74 54.932 0.284 7.35 11.19 8.75
11/6/2022 1:00:00 AM 12.75 54.95 0.284 7.36 12.6 8.75
11/6/2022 1:15:00 AM 12.75 54.95 0.284 7.36 11.04 8.72
11/6/2022 1:30:00 AM 12.73 54.914 0.284 7.36 11.99 8.72
11/6/2022 1:45:00 AM 12.72 54.896 0.285 7.35 10.91 8.72
11/6/2022 2:00:00 AM 12.71 54.878 0.285 7.35 11.12 8.72
11/6/2022 2:15:00 AM 12.71 54.878 0.285 7.35 11.27 8.7
11/6/2022 2:30:00 AM 12.71 54.878 0.285 7.35 11.99 8.69
11/6/2022 2:45:00 AM 12.7 54.86 0.285 7.35 11.17 8.67
11/6/2022 3:00:00 AM 12.67 54.806 0.285 7.35 11.37 8.66
11/6/2022 3:15:00 AM 12.64 54.752 0.284 7.34 11.33 8.66
11/6/2022 3:30:00 AM 12.57 54.626 0.284 7.32 19.72 8.62
11/6/2022 3:45:00 AM 12.56 54.608 0.284 7.32 13.15 8.62
11/6/2022 4:00:00 AM 12.54 54.572 0.284 7.33 13.27 8.62
11/6/2022 4:15:00 AM 12.54 54.572 0.284 7.32 18.3 8.63
11/6/2022 4:30:00 AM 12.52 54.536 0.283 7.32 62.57 8.61
11/6/2022 4:45:00 AM 12.51 54.518 0.283 7.32 13.03 8.63
11/6/2022 5:00:00 AM 12.5 54.5 0.282 7.32 13.42 8.61
11/6/2022 5:15:00 AM 12.5 54.5 0.281 7.32 10.88 8.63
11/6/2022 5:30:00 AM 12.5 54.5 0.281 7.32 11.48 8.63
11/6/2022 5:45:00 AM 12.51 54.518 0.278 7.31 13.3 8.59
11/6/2022 6:00:00 AM 12.51 54.518 0.278 7.31 14.9 8.57
11/6/2022 6:15:00 AM 12.47 54.446 0.28 7.31 12.86 8.58
11/6/2022 6:30:00 AM 12.42 54.356 0.28 7.3 15.13 8.58
11/6/2022 6:45:00 AM 12.37 54.266 0.282 7.3 13.32 8.58
11/6/2022 7:00:00 AM 12.32 54.176 0.284 7.29 12.83 8.58
11/6/2022 7:15:00 AM 12.29 54.122 0.285 7.29 11.76 8.64
11/6/2022 7:30:00 AM 12.28 54.104 0.284 7.3 12.25 8.69
11/6/2022 7:45:00 AM 12.27 54.086 0.284 7.3 12.78 8.76
11/6/2022 8:00:00 AM 12.28 54.104 0.287 7.3 39.99 8.94
11/6/2022 8:15:00 AM 12.3 54.14 0.282 7.31 13.52 9.04
11/6/2022 8:30:00 AM 12.31 54.158 0.282 7.33 13.07 9.18
11/6/2022 8:45:00 AM 12.3 54.14 0.282 7.34 12.33 9.25
11/6/2022 9:00:00 AM 12.27 54.086 0.282 7.34 14.26 9.26
11/6/2022 9:15:00 AM 12.33 54.194 0.281 7.35 51.3 9.4
11/6/2022 9:30:00 AM 12.43 54.374 0.281 7.37 14.48 9.64
11/6/2022 9:45:00 AM 12.66 54.788 0.281 7.39 13.96 9.94
11/6/2022 10:00:00 AM 12.92 55.256 0.281 7.43 13.91 10.23
11/6/2022 10:15:00 AM 13.15 55.67 0.281 7.45 13.69 10.45
11/6/2022 10:30:00 AM 13.41 56.138 0.281 7.48 11.44 10.66
11/6/2022 10:45:00 AM 13.69 56.642 0.281 7.51 11.68 10.84
11/6/2022 11:00:00 AM 13.96 57.128 0.28 7.53 12.18 11.02
11/6/2022 11:15:00 AM 14.25 57.65 0.28 7.56 12.83 11.15
11/6/2022 11:30:00 AM 14.5 58.1 0.28 7.59 13.13 11.23
11/6/2022 11:45:00 AM 14.79 58.622 0.281 7.61 14.33 11.35
11/6/2022 12:00:00 PM 14.85 58.73 0.28 7.63 12.42 11.3
11/6/2022 12:15:00 PM 14.84 58.712 0.281 7.64 11.9 11.24
11/6/2022 12:30:00 PM 15 59 0.281 7.65 12.12 11.26
11/6/2022 12:45:00 PM 15.29 59.522 0.28 7.67 145.48 11.37
11/6/2022 1:00:00 PM 15.42 59.756 0.28 7.65 25.02 11.43
11/6/2022 1:15:00 PM 15.38 59.684 0.28 7.68 14.04 11.3
11/6/2022 1:30:00 PM 15.61 60.098 0.281 7.7 12.03 11.39
11/6/2022 1:45:00 PM 15.56 60.008 0.279 7.69 25.64 11.24
11/6/2022 2:00:00 PM 15.46 59.828 0.28 7.65 12.74 10.98
11/6/2022 2:15:00 PM 15.4 59.72 0.28 7.64 25.11 10.7
11/6/2022 2:30:00 PM 15.57 60.026 0.28 7.63 18.24 10.82
11/6/2022 2:45:00 PM 15.54 59.972 0.28 7.62 15.85 10.77
11/6/2022 3:00:00 PM 15.53 59.954 0.281 7.63 13.01 10.74
11/6/2022 3:15:00 PM 15.48 59.864 0.281 7.63 13.4 10.58
11/6/2022 3:30:00 PM 15.46 59.828 0.281 7.64 13.02 10.74
11/6/2022 3:45:00 PM 15.41 59.738 0.28 7.62 22.18 10.64
11/6/2022 4:00:00 PM 15.34 59.612 0.281 7.61 15.05 10.48
11/6/2022 4:15:00 PM 15.25 59.45 0.28 7.43 16.3 10.28
11/6/2022 4:30:00 PM 15.16 59.288 0.281 7.53 93.93 10.05
11/6/2022 4:45:00 PM 15.08 59.144 0.281 7.52 690.95 9.91
11/6/2022 5:00:00 PM 14.96 58.928 0.281 7.49 13.75 9.72
11/6/2022 5:15:00 PM 14.83 58.694 0.282 7.49 11.21 9.52
11/6/2022 5:30:00 PM 14.76 58.568 0.281 7.47 11.42 9.34
11/6/2022 5:45:00 PM 14.69 58.442 0.281 7.44 12.17 9.19
11/6/2022 6:00:00 PM 14.63 58.334 0.282 7.44 12.65 9.09
11/6/2022 6:15:00 PM 14.53 58.154 0.282 7.42 12.98 8.94
11/6/2022 6:30:00 PM 14.42 57.956 0.281 7.4 13.03 8.93
11/6/2022 6:45:00 PM 14.31 57.758 0.282 7.39 17.63 8.87
11/6/2022 7:00:00 PM 14.21 57.578 0.281 7.38 35.7 8.8
11/6/2022 7:15:00 PM 14.12 57.416 0.28 7.3 25.37 8.77
11/6/2022 7:30:00 PM 14.03 57.254 0.281 7.35 18.1 8.69
11/6/2022 7:45:00 PM 13.94 57.092 0.281 7.34 47.59 8.7
11/6/2022 8:00:00 PM 13.86 56.948 0.281 7.33 33.62 8.67
11/6/2022 8:15:00 PM 13.78 56.804 0.282 7.34 24.37 8.63
11/6/2022 8:30:00 PM 13.7 56.66 0.282 7.34 15.08 8.6
11/6/2022 8:45:00 PM 13.65 56.57 0.281 7.34 16.71 8.58
11/6/2022 9:00:00 PM 13.61 56.498 0.282 7.33 12.65 8.55
11/6/2022 9:15:00 PM 13.59 56.462 0.282 7.33 45.01 8.54
11/6/2022 9:30:00 PM 13.55 56.39 0.282 7.33 14.39 8.52
11/6/2022 9:45:00 PM 13.53 56.354 0.282 7.32 11.24 8.51
11/6/2022 10:00:00 PM 13.5 56.3 0.282 7.32 11.25 8.51
11/6/2022 10:15:00 PM 13.48 56.264 0.282 7.32 11.32 8.49
11/6/2022 10:30:00 PM 13.46 56.228 0.282 7.31 11.58 8.48
11/6/2022 10:45:00 PM 13.43 56.174 0.282 7.31 11.38 8.47
11/6/2022 11:00:00 PM 13.4 56.12 0.282 7.31 11.17 8.46
11/6/2022 11:15:00 PM 13.38 56.084 0.282 7.31 10.25 8.46
11/6/2022 11:30:00 PM 13.34 56.012 0.282 7.32 10.82 8.46
11/6/2022 11:45:00 PM 13.27 55.886 0.281 7.32 13.67 8.47
11/7/2022 12:00:00 AM 13.23 55.814 0.281 7.31 12.08 8.46
11/7/2022 12:15:00 AM 13.22 55.796 0.281 7.31 21.79 8.44
11/7/2022 12:30:00 AM 13.2 55.76 0.281 7.31 10.84 8.45
11/7/2022 12:45:00 AM 13.21 55.778 0.282 7.31 11.5 8.45
11/7/2022 1:00:00 AM 13.18 55.724 0.281 7.31 10.84 8.44
11/7/2022 1:15:00 AM 13.15 55.67 0.282 7.31 15.32 8.45
11/7/2022 1:30:00 AM 13.15 55.67 0.282 7.31 10.92 8.44
11/7/2022 1:45:00 AM 13.12 55.616 0.282 7.31 13.27 8.44
11/7/2022 2:00:00 AM 13.08 55.544 0.282 7.31 10.52 8.45
11/7/2022 2:15:00 AM 13.05 55.49 0.282 7.31 10.54 8.44
11/7/2022 2:30:00 AM 13.01 55.418 0.282 7.31 10.57 8.45
11/7/2022 2:45:00 AM 12.95 55.31 0.28 7.29 223.24 8.47
11/7/2022 3:00:00 AM 12.89 55.202 0.282 7.29 13.77 8.47
11/7/2022 3:15:00 AM 12.83 55.094 0.282 7.3 11.33 8.48
11/7/2022 3:30:00 AM 12.76 54.968 0.281 7.31 10.42 8.49
11/7/2022 3:45:00 AM 12.7 54.86 0.281 7.3 12.43 8.5
11/7/2022 4:00:00 AM 12.64 54.752 0.281 7.31 10.3 8.5
11/7/2022 4:15:00 AM 12.57 54.626 0.281 7.32 10.47 8.51
11/7/2022 4:30:00 AM 12.5 54.5 0.281 7.32 17.61 8.52
11/7/2022 4:45:00 AM 12.43 54.374 0.28 7.31 11.62 8.52
11/7/2022 5:00:00 AM 12.37 54.266 0.281 7.32 15.4 8.54
11/7/2022 5:15:00 AM 12.3 54.14 0.28 7.32 11.46 8.53
11/7/2022 5:30:00 AM 12.23 54.014 0.279 7.33 12.32 8.56
11/7/2022 5:45:00 AM 12.18 53.924 0.279 7.33 17.33 8.59
11/7/2022 6:00:00 AM 12.11 53.798 0.279 7.33 14.32 8.57
11/7/2022 6:15:00 AM 12.05 53.69 0.279 7.33 14.97 8.6
11/7/2022 6:30:00 AM 11.99 53.582 0.278 7.33 108.4 8.59
11/7/2022 6:45:00 AM 11.94 53.492 0.279 7.33 54.44 8.57
11/7/2022 7:00:00 AM 11.89 53.402 0.278 7.34 21.36 8.64
11/7/2022 7:15:00 AM 11.86 53.348 0.278 7.34 24.76 8.67
11/7/2022 7:30:00 AM 11.82 53.276 0.278 7.33 17.44 8.79
11/7/2022 7:45:00 AM 11.78 53.204 0.277 7.35 14.41 8.85
11/7/2022 8:00:00 AM 11.76 53.168 0.277 7.35 14.78 8.99
11/7/2022 8:15:00 AM 11.77 53.186 0.277 7.37 21.59 9.15
11/7/2022 8:30:00 AM 11.8 53.24 0.277 7.38 13.76 9.3
11/7/2022 8:45:00 AM 11.83 53.294 0.277 7.39 11.89 9.44
11/7/2022 9:00:00 AM 11.88 53.384 0.278 7.41 11.68 9.6
11/7/2022 9:15:00 AM 11.98 53.564 0.278 7.42 21.84 9.77
11/7/2022 9:30:00 AM 12.11 53.798 0.277 7.44 13.43 9.97
11/7/2022 9:45:00 AM 12.27 54.086 0.277 7.47 12.77 10.18
11/7/2022 10:00:00 AM 12.44 54.392 0.277 7.5 14.59 10.36
11/7/2022 10:15:00 AM 12.63 54.734 0.277 7.52 11.85 10.56
11/7/2022 10:30:00 AM 12.83 55.094 0.277 7.55 11.67 10.73
11/7/2022 10:45:00 AM 13.05 55.49 0.276 7.58 44.66 10.88
11/7/2022 11:00:00 AM 13.28 55.904 0.276 7.6 12.12 11.01
11/7/2022 11:15:00 AM 13.48 56.264 0.276 7.63 11.61 11.12
11/7/2022 11:30:00 AM 13.72 56.696 0.276 7.65 20.37 11.23
11/7/2022 11:45:00 AM 13.93 57.074 0.275 7.68 17.85 11.31
11/7/2022 12:00:00 PM 14.12 57.416 0.275 7.69 16.7 11.42
11/7/2022 12:15:00 PM 14.28 57.704 0.276 7.72 12.98 11.47
11/7/2022 12:30:00 PM 14.44 57.992 0.275 7.74 12.7 11.52
11/7/2022 12:45:00 PM 14.58 58.244 0.275 7.77 10.88 11.58
11/7/2022 1:00:00 PM 14.7 58.46 0.275 7.78 13.68 11.59
11/7/2022 1:15:00 PM 14.81 58.658 0.275 7.8 13.36 11.6
11/7/2022 1:30:00 PM 14.89 58.802 0.275 7.81 11.58 11.63
11/7/2022 1:45:00 PM 14.97 58.946 0.275 7.83 11.79 11.63
11/7/2022 2:00:00 PM 15 59 0.275 7.82 11.29 11.63
11/7/2022 2:15:00 PM 14.98 58.964 0.275 7.84 11.58 11.59
11/7/2022 2:30:00 PM 14.93 58.874 0.275 7.85 12.08 11.54
11/7/2022 2:45:00 PM 14.87 58.766 0.275 7.85 14.42 11.5
11/7/2022 3:00:00 PM 14.79 58.622 0.275 7.84 12.94 11.43
11/7/2022 3:15:00 PM 14.65 58.37 0.275 7.83 14.4 11.31
11/7/2022 3:30:00 PM 14.48 58.064 0.275 7.81 12.55 11.18
11/7/2022 3:45:00 PM 14.33 57.794 0.275 7.78 13.63 11.04
11/7/2022 4:00:00 PM 14.12 57.416 0.275 7.76 12.37 10.88
11/7/2022 4:15:00 PM 13.91 57.038 0.275 7.72 12.76 10.66
11/7/2022 4:30:00 PM 13.65 56.57 0.276 7.68 12.5 10.4
11/7/2022 4:45:00 PM 13.38 56.084 0.276 7.64 13.1 10.15
11/7/2022 5:00:00 PM 13.15 55.67 0.276 7.61 12.67 9.96
11/7/2022 5:15:00 PM 12.95 55.31 0.276 7.58 13 9.8
11/7/2022 5:30:00 PM 12.78 55.004 0.277 7.55 12.25 9.65
11/7/2022 5:45:00 PM 12.64 54.752 0.277 7.53 12.51 9.54
11/7/2022 6:00:00 PM 12.51 54.518 0.277 7.49 24.21 9.42
11/7/2022 6:15:00 PM 12.39 54.302 0.277 7.49 14.26 9.37
11/7/2022 6:30:00 PM 12.28 54.104 0.277 7.48 11.18 9.32
11/7/2022 6:45:00 PM 12.18 53.924 0.278 7.47 11.7 9.31
11/7/2022 7:00:00 PM 12.06 53.708 0.279 7.46 11.81 9.26
11/7/2022 7:15:00 PM 11.96 53.528 0.278 7.45 11.75 9.22
11/7/2022 7:30:00 PM 11.85 53.33 0.278 7.45 11.08 9.2
11/7/2022 7:45:00 PM 11.73 53.114 0.279 7.44 11.22 9.18
11/7/2022 8:00:00 PM 11.61 52.898 0.279 7.44 10.65 9.17
11/7/2022 8:15:00 PM 11.51 52.718 0.279 7.43 12.51 9.15
11/7/2022 8:30:00 PM 11.39 52.502 0.279 7.42 11.05 9.15
11/7/2022 8:45:00 PM 11.28 52.304 0.279 7.42 11.03 9.13
11/7/2022 9:00:00 PM 11.16 52.088 0.279 7.42 10.9 9.13
11/7/2022 9:15:00 PM 11.05 51.89 0.279 7.41 10.77 9.15
11/7/2022 9:30:00 PM 10.95 51.71 0.279 7.41 10.85 9.16
11/7/2022 9:45:00 PM 10.87 51.566 0.279 7.41 11.29 9.16
11/7/2022 10:00:00 PM 10.79 51.422 0.279 7.41 11.05 9.17
11/7/2022 10:15:00 PM 10.74 51.332 0.279 7.41 11.36 9.16
11/7/2022 10:30:00 PM 10.69 51.242 0.279 7.41 11.04 9.16
11/7/2022 10:45:00 PM 10.64 51.152 0.279 7.41 10.85 9.17
11/7/2022 11:00:00 PM 10.59 51.062 0.279 7.4 10.88 9.18
11/7/2022 11:15:00 PM 10.55 50.99 0.279 7.4 10.71 9.17
11/7/2022 11:30:00 PM 10.51 50.918 0.279 7.4 11.4 9.18
11/7/2022 11:45:00 PM 10.47 50.846 0.279 7.4 10.71 9.18
11/8/2022 12:00:00 AM 10.44 50.792 0.279 7.4 11.21 9.18
11/8/2022 12:15:00 AM 10.4 50.72 0.279 7.4 10.92 9.19
11/8/2022 12:30:00 AM 10.35 50.63 0.279 7.39 10.77 9.18
11/8/2022 12:45:00 AM 10.3 50.54 0.279 7.39 10.65 9.18
11/8/2022 1:00:00 AM 10.25 50.45 0.28 7.39 10.76 9.18
11/8/2022 1:15:00 AM 10.19 50.342 0.28 7.39 11.68 9.19
11/8/2022 1:30:00 AM 10.13 50.234 0.28 7.39 12.53 9.19
11/8/2022 1:45:00 AM 10.06 50.108 0.28 7.39 11.33 9.22
11/8/2022 2:00:00 AM 10 50 0.28 7.39 11.05 9.22
11/8/2022 2:15:00 AM 9.94 49.892 0.28 7.38 11.81 9.23
11/8/2022 2:30:00 AM 9.88 49.784 0.28 7.38 11.2 9.25
11/8/2022 2:45:00 AM 9.81 49.658 0.28 7.38 10.62 9.26
11/8/2022 3:00:00 AM 9.75 49.55 0.28 7.38 10.88 9.28
11/8/2022 3:15:00 AM 9.69 49.442 0.28 7.38 10.87 9.29
11/8/2022 3:30:00 AM 9.63 49.334 0.28 7.38 10.45 9.32
11/8/2022 3:45:00 AM 9.56 49.208 0.281 7.38 11.17 9.32
11/8/2022 4:00:00 AM 9.49 49.082 0.28 7.38 10.96 9.32
11/8/2022 4:15:00 AM 9.43 48.974 0.281 7.38 10.43 9.35
11/8/2022 4:30:00 AM 9.35 48.83 0.28 7.38 10.4 9.38
11/8/2022 4:45:00 AM 9.28 48.704 0.281 7.38 10.81 9.4
11/8/2022 5:00:00 AM 9.19 48.542 0.281 7.37 10.77 9.42
11/8/2022 5:15:00 AM 9.13 48.434 0.281 7.38 11.52 9.44
11/8/2022 5:30:00 AM 9.07 48.326 0.281 7.37 10.95 9.45
11/8/2022 5:45:00 AM 9.01 48.218 0.281 7.37 10.78 9.47
11/8/2022 6:00:00 AM 8.95 48.11 0.281 7.37 10.6 9.48
11/8/2022 6:15:00 AM 8.9 48.02 0.281 7.37 11.43 9.5
11/8/2022 6:30:00 AM 8.85 47.93 0.281 7.37 11.24 9.51
11/8/2022 6:45:00 AM 8.79 47.822 0.281 7.37 10.71 9.53
11/8/2022 7:00:00 AM 8.74 47.732 0.281 7.37 21.18 9.55
11/8/2022 7:15:00 AM 8.69 47.642 0.281 7.38 14.68 9.61
11/8/2022 7:30:00 AM 8.66 47.588 0.281 7.38 14.06 9.7
11/8/2022 7:45:00 AM 8.62 47.516 0.281 7.39 14.2 9.8
11/8/2022 8:00:00 AM 8.6 47.48 0.281 7.4 13.54 9.9
11/8/2022 8:15:00 AM 8.61 47.498 0.281 7.41 12.8 10.08
11/8/2022 8:30:00 AM 8.63 47.534 0.281 7.42 13.93 10.22
11/8/2022 8:45:00 AM 8.64 47.552 0.281 7.44 12.99 10.36
11/8/2022 9:00:00 AM 8.66 47.588 0.281 7.45 11.45 10.47
11/8/2022 9:15:00 AM 8.7 47.66 0.281 7.46 11.83 10.64
11/8/2022 9:30:00 AM 8.79 47.822 0.281 7.48 11.66 10.79
11/8/2022 9:45:00 AM 8.96 48.128 0.281 7.51 11.3 10.97
11/8/2022 10:00:00 AM 9.13 48.434 0.281 7.52 11.53 11.13
11/8/2022 10:15:00 AM 9.32 48.776 0.281 7.54 12.01 11.29
11/8/2022 10:30:00 AM 9.52 49.136 0.28 7.54 21.81 11.32
11/8/2022 10:45:00 AM 9.73 49.514 0.28 7.58 14.43 11.5
11/8/2022 11:00:00 AM 9.95 49.91 0.28 7.6 9.96 11.71
11/8/2022 11:15:00 AM 10.2 50.36 0.28 7.63 9.79 11.8
11/8/2022 11:30:00 AM 10.44 50.792 0.28 7.65 9.29 11.88
11/8/2022 11:45:00 AM 10.67 51.206 0.28 7.67 9.02 11.98
11/8/2022 12:00:00 PM 10.91 51.638 0.28 7.69 9.26 12.07
11/8/2022 12:15:00 PM 11.14 52.052 0.28 7.71 9.47 12.14
11/8/2022 12:30:00 PM 11.36 52.448 0.28 7.73 9.5 12.17
11/8/2022 12:45:00 PM 11.56 52.808 0.28 7.75 9.69 12.24
11/8/2022 1:00:00 PM 11.75 53.15 0.28 7.76 9.65 12.25
11/8/2022 1:15:00 PM 11.91 53.438 0.28 7.78 11.44 12.27
11/8/2022 1:30:00 PM 12.03 53.654 0.28 7.79 20.34 12.28
11/8/2022 1:45:00 PM 12.15 53.87 0.279 7.8 9.42 12.27
11/8/2022 2:00:00 PM 12.22 53.996 0.279 7.82 9.53 12.28
11/8/2022 2:15:00 PM 12.26 54.068 0.28 7.83 9.08 12.25
11/8/2022 2:30:00 PM 12.27 54.086 0.28 7.83 9.53 12.24
11/8/2022 2:45:00 PM 12.23 54.014 0.28 7.83 9.68 12.19
11/8/2022 3:00:00 PM 12.16 53.888 0.28 7.83 9.36 12.15
11/8/2022 3:15:00 PM 12.05 53.69 0.281 7.82 9.54 12.06
11/8/2022 3:30:00 PM 11.91 53.438 0.281 7.8 9.33 11.94
11/8/2022 3:45:00 PM 11.75 53.15 0.281 7.78 9.69 11.81
11/8/2022 4:00:00 PM 11.57 52.826 0.281 7.75 9.53 11.65
11/8/2022 4:15:00 PM 11.36 52.448 0.282 7.72 10.03 11.46
11/8/2022 4:30:00 PM 11.12 52.016 0.282 7.68 11.03 11.22
11/8/2022 4:45:00 PM 10.89 51.602 0.281 7.64 9.38 10.97
11/8/2022 5:00:00 PM 10.68 51.224 0.282 7.61 9.56 10.8
11/8/2022 5:15:00 PM 10.49 50.882 0.282 7.58 9.16 10.61
11/8/2022 5:30:00 PM 10.33 50.594 0.282 7.55 9.39 10.47
11/8/2022 5:45:00 PM 10.19 50.342 0.282 7.53 9.69 10.35
11/8/2022 6:00:00 PM 10.07 50.126 0.282 7.51 9.38 10.27
11/8/2022 6:15:00 PM 9.96 49.928 0.282 7.49 9.24 10.2
11/8/2022 6:30:00 PM 9.85 49.73 0.283 7.48 9.36 10.13
11/8/2022 6:45:00 PM 9.75 49.55 0.282 7.47 9.57 10.09
11/8/2022 7:00:00 PM 9.65 49.37 0.282 7.46 9.92 10.04
11/8/2022 7:15:00 PM 9.56 49.208 0.282 7.45 9.8 10.01
11/8/2022 7:30:00 PM 9.47 49.046 0.282 7.44 9.27 9.97
11/8/2022 7:45:00 PM 9.37 48.866 0.282 7.43 9.02 9.96
11/8/2022 8:00:00 PM 9.28 48.704 0.282 7.43 9.7 9.95
11/8/2022 8:15:00 PM 9.17 48.506 0.282 7.42 9.35 9.9
11/8/2022 8:30:00 PM 9.07 48.326 0.283 7.42 9.21 9.89
11/8/2022 8:45:00 PM 8.97 48.146 0.283 7.41 8.88 9.93
11/8/2022 9:00:00 PM 8.87 47.966 0.283 7.4 8.98 9.9
11/8/2022 9:15:00 PM 8.77 47.786 0.283 7.4 8.97 9.91
11/8/2022 9:30:00 PM 8.68 47.624 0.283 7.39 8.94 9.92
11/8/2022 9:45:00 PM 8.58 47.444 0.283 7.39 8.93 9.94
11/8/2022 10:00:00 PM 8.49 47.282 0.283 7.39 8.9 9.93
11/8/2022 10:15:00 PM 8.4 47.12 0.283 7.39 9.08 9.93
11/8/2022 10:30:00 PM 8.32 46.976 0.283 7.39 8.93 9.93
11/8/2022 10:45:00 PM 8.24 46.832 0.283 7.39 8.96 9.95
11/8/2022 11:00:00 PM 8.16 46.688 0.283 7.38 8.96 9.95
11/8/2022 11:15:00 PM 8.09 46.562 0.283 7.38 8.79 9.95
11/8/2022 11:30:00 PM 8.01 46.418 0.283 7.38 8.86 9.97
11/8/2022 11:45:00 PM 7.94 46.292 0.283 7.38 8.7 9.98
11/9/2022 12:00:00 AM 7.87 46.166 0.284 7.38 8.76 9.99
11/9/2022 12:15:00 AM 7.8 46.04 0.284 7.38 8.92 10
11/9/2022 12:30:00 AM 7.73 45.914 0.284 7.38 8.76 10
11/9/2022 12:45:00 AM 7.67 45.806 0.284 7.38 8.88 10
11/9/2022 1:00:00 AM 7.61 45.698 0.284 7.37 9.36 10
11/9/2022 1:15:00 AM 7.55 45.59 0.284 7.37 9.98 10
11/9/2022 1:30:00 AM 7.49 45.482 0.284 7.37 9.15 10.02
11/9/2022 1:45:00 AM 7.43 45.374 0.284 7.37 8.86 10.02
11/9/2022 2:00:00 AM 7.38 45.284 0.284 7.37 9.05 10
11/9/2022 2:15:00 AM 7.33 45.194 0.284 7.37 10.14 10.03
11/9/2022 2:30:00 AM 7.26 45.068 0.284 7.37 10.14 10.05
11/9/2022 2:45:00 AM 7.2 44.96 0.284 7.37 9.19 10.05
11/9/2022 3:00:00 AM 7.14 44.852 0.285 7.37 9.82 10.05
11/9/2022 3:15:00 AM 7.09 44.762 0.284 7.37 9.1 10.07
11/9/2022 3:30:00 AM 7.04 44.672 0.284 7.36 9.2 10.08
11/9/2022 3:45:00 AM 6.98 44.564 0.284 7.36 10 10.09
11/9/2022 4:00:00 AM 6.93 44.474 0.285 7.36 10.67 10.1
11/9/2022 4:15:00 AM 6.87 44.366 0.284 7.36 9.01 10.1
11/9/2022 4:30:00 AM 6.82 44.276 0.285 7.36 8.95 10.13
11/9/2022 4:45:00 AM 6.76 44.168 0.285 7.37 8.89 10.09
11/9/2022 5:00:00 AM 6.7 44.06 0.285 7.37 8.89 10.11
11/9/2022 5:15:00 AM 6.64 43.952 0.285 7.37 8.95 10.18
11/9/2022 5:30:00 AM 6.58 43.844 0.285 7.37 9.04 10.21
11/9/2022 5:45:00 AM 6.53 43.754 0.285 7.37 9.06 10.22
11/9/2022 6:00:00 AM 6.47 43.646 0.285 7.37 9.07 10.23
11/9/2022 6:15:00 AM 6.42 43.556 0.285 7.37 9.04 10.24
11/9/2022 6:30:00 AM 6.36 43.448 0.285 7.37 8.97 10.26
11/9/2022 6:45:00 AM 6.3 43.34 0.285 7.37 9.26 10.28
11/9/2022 7:00:00 AM 6.25 43.25 0.285 7.37 9.04 10.31
11/9/2022 7:15:00 AM 6.2 43.16 0.285 7.37 9.51 10.37
11/9/2022 7:30:00 AM 6.17 43.106 0.286 7.37 9.16 10.45
11/9/2022 7:45:00 AM 6.14 43.052 0.285 7.38 11.47 10.54
11/9/2022 8:00:00 AM 6.12 43.016 0.286 7.39 10.22 10.63
11/9/2022 8:15:00 AM 6.15 43.07 0.285 7.4 9.07 10.76
11/9/2022 8:30:00 AM 6.19 43.142 0.285 7.41 10.08 10.9
11/9/2022 8:45:00 AM 6.25 43.25 0.285 7.42 8.95 11.02
11/9/2022 9:00:00 AM 6.31 43.358 0.286 7.43 8.97 11.14
11/9/2022 9:15:00 AM 6.43 43.574 0.285 7.43 9.18 11.29
11/9/2022 9:30:00 AM 6.58 43.844 0.285 7.44 8.94 11.44
11/9/2022 9:45:00 AM 6.78 44.204 0.285 7.46 10.49 11.61
11/9/2022 10:00:00 AM 6.99 44.582 0.285 7.49 9.38 11.76
11/9/2022 10:15:00 AM 7.2 44.96 0.286 7.5 9.51 11.89
11/9/2022 10:30:00 AM 7.43 45.374 0.287 7.52 9.54 12.02
11/9/2022 10:45:00 AM 7.68 45.824 0.287 7.54 11.3 12.15
11/9/2022 11:00:00 AM 7.93 46.274 0.288 7.56 10.83 12.24
11/9/2022 11:15:00 AM 8.19 46.742 0.288 7.55 10.76 12.34
11/9/2022 11:30:00 AM 8.47 47.246 0.288 7.43 12.89 12.43
11/9/2022 11:45:00 AM 8.74 47.732 0.288 7.53 11.66 12.5
11/9/2022 12:00:00 PM 9 48.2 0.288 7.62 11.77 12.57
11/9/2022 12:15:00 PM 9.27 48.686 0.288 7.64 9.68 12.61
11/9/2022 12:30:00 PM 9.51 49.118 0.288 7.67 9.68 12.68
11/9/2022 12:45:00 PM 9.71 49.478 0.288 7.69 9.62 12.72
11/9/2022 1:00:00 PM 9.86 49.748 0.288 7.69 13.54 12.73
11/9/2022 1:15:00 PM 10.01 50.018 0.288 7.73 9.91 12.75
11/9/2022 1:30:00 PM 10.15 50.27 0.287 7.74 9.68 12.75
11/9/2022 1:45:00 PM 10.3 50.54 0.287 7.76 9.72 12.74
11/9/2022 2:00:00 PM 10.42 50.756 0.288 7.77 10.8 12.76
11/9/2022 2:15:00 PM 10.47 50.846 0.288 7.78 10.69 12.74
11/9/2022 2:30:00 PM 10.5 50.9 0.288 7.79 9.92 12.7
11/9/2022 2:45:00 PM 10.46 50.828 0.287 7.79 10.74 12.65
11/9/2022 3:00:00 PM 10.42 50.756 0.287 7.79 10.12 12.59
11/9/2022 3:15:00 PM 10.33 50.594 0.287 7.78 26.95 12.51
11/9/2022 3:30:00 PM 10.19 50.342 0.287 7.76 58.22 12.38
11/9/2022 3:45:00 PM 10.05 50.09 0.288 7.74 12.57 12.26
11/9/2022 4:00:00 PM 9.89 49.802 0.288 7.72 11.65 12.12
11/9/2022 4:15:00 PM 9.67 49.406 0.288 7.69 10.6 11.92
11/9/2022 4:30:00 PM 9.43 48.974 0.288 7.65 11.66 11.66
11/9/2022 4:45:00 PM 9.2 48.56 0.288 7.62 10.88 11.45
11/9/2022 5:00:00 PM 8.97 48.146 0.288 7.59 12.58 11.27
11/9/2022 5:15:00 PM 8.77 47.786 0.287 7.56 251.52 11.1
11/9/2022 5:30:00 PM 8.62 47.516 0.289 7.54 13.21 10.96
11/9/2022 5:45:00 PM 8.49 47.282 0.289 7.52 11.06 10.84
11/9/2022 6:00:00 PM 8.38 47.084 0.29 7.5 10.86 10.75
11/9/2022 6:15:00 PM 8.28 46.904 0.289 7.49 10.42 10.68
11/9/2022 6:30:00 PM 8.19 46.742 0.289 7.48 10.87 10.62
11/9/2022 6:45:00 PM 8.1 46.58 0.289 7.47 11.26 10.57
11/9/2022 7:00:00 PM 8.02 46.436 0.29 7.46 10.93 10.53
11/9/2022 7:15:00 PM 7.96 46.328 0.29 7.45 13.14 10.49
11/9/2022 7:30:00 PM 7.89 46.202 0.29 7.41 10.71 10.47
11/9/2022 7:45:00 PM 7.83 46.094 0.29 7.44 10.96 10.44
11/9/2022 8:00:00 PM 7.76 45.968 0.29 7.44 9.95 10.42
11/9/2022 8:15:00 PM 7.7 45.86 0.29 7.43 10.47 10.4
11/9/2022 8:30:00 PM 7.63 45.734 0.29 7.43 9.93 10.39
11/9/2022 8:45:00 PM 7.57 45.626 0.29 7.43 10.24 10.36
11/9/2022 9:00:00 PM 7.51 45.518 0.29 7.42 10.2 10.35
11/9/2022 9:15:00 PM 7.45 45.41 0.29 7.42 10.26 10.34
11/9/2022 9:30:00 PM 7.39 45.302 0.291 7.41 11.73 10.36
11/9/2022 9:45:00 PM 7.33 45.194 0.291 7.41 9.49 10.31
11/9/2022 10:00:00 PM 7.27 45.086 0.291 7.41 9.19 10.33
11/9/2022 10:15:00 PM 7.21 44.978 0.291 7.41 8.87 10.35
11/9/2022 10:30:00 PM 7.15 44.87 0.291 7.4 9.11 10.34
11/9/2022 10:45:00 PM 7.09 44.762 0.292 7.4 8.97 10.35
11/9/2022 11:00:00 PM 7.03 44.654 0.292 7.4 8.76 10.35
11/9/2022 11:15:00 PM 6.98 44.564 0.291 7.4 9.37 10.32
11/9/2022 11:30:00 PM 6.92 44.456 0.292 7.4 8.81 10.33
11/9/2022 11:45:00 PM 6.88 44.384 0.292 7.4 8.79 10.34
11/10/2022 12:00:00 AM 6.83 44.294 0.292 7.39 8.85 10.35
11/10/2022 12:15:00 AM 6.79 44.222 0.292 7.39 9.01 10.34
11/10/2022 12:30:00 AM 6.74 44.132 0.292 7.39 8.82 10.35
11/10/2022 12:45:00 AM 6.7 44.06 0.292 7.39 8.89 10.36
11/10/2022 1:00:00 AM 6.66 43.988 0.292 7.39 9.07 10.34
11/10/2022 1:15:00 AM 6.62 43.916 0.292 7.39 9.22 10.33
11/10/2022 1:30:00 AM 6.59 43.862 0.292 7.38 8.86 10.35
11/10/2022 1:45:00 AM 6.55 43.79 0.292 7.38 8.82 10.32
11/10/2022 2:00:00 AM 6.51 43.718 0.292 7.38 8.81 10.32
11/10/2022 2:15:00 AM 6.48 43.664 0.292 7.38 8.86 10.33
11/10/2022 2:30:00 AM 6.45 43.61 0.292 7.37 9.15 10.35
11/10/2022 2:45:00 AM 6.42 43.556 0.292 7.37 9.17 10.32
11/10/2022 3:00:00 AM 6.39 43.502 0.292 7.37 9.55 10.31
11/10/2022 3:15:00 AM 6.36 43.448 0.292 7.37 8.88 10.35
11/10/2022 3:30:00 AM 6.33 43.394 0.293 7.37 8.91 10.32
11/10/2022 3:45:00 AM 6.3 43.34 0.292 7.37 9.12 10.35
11/10/2022 4:00:00 AM 6.27 43.286 0.292 7.37 8.87 10.35
11/10/2022 4:15:00 AM 6.24 43.232 0.293 7.37 8.95 10.35
11/10/2022 4:30:00 AM 6.21 43.178 0.292 7.37 8.97 10.36
11/10/2022 4:45:00 AM 6.19 43.142 0.292 7.37 8.86 10.32
11/10/2022 5:00:00 AM 6.15 43.07 0.292 7.37 8.95 10.36
11/10/2022 5:15:00 AM 6.11 42.998 0.293 7.37 8.81 10.36
11/10/2022 5:30:00 AM 6.08 42.944 0.293 7.37 8.81 10.39
11/10/2022 5:45:00 AM 6.04 42.872 0.293 7.37 8.73 10.39
11/10/2022 6:00:00 AM 6.01 42.818 0.292 7.37 9.68 10.4
11/10/2022 6:15:00 AM 5.97 42.746 0.292 7.37 8.9 10.4
11/10/2022 6:30:00 AM 5.93 42.674 0.293 7.37 10.08 10.4
11/10/2022 6:45:00 AM 5.9 42.62 0.292 7.37 9.82 10.42
11/10/2022 7:00:00 AM 5.85 42.53 0.293 7.36 9.92 10.45
11/10/2022 7:15:00 AM 5.82 42.476 0.293 7.36 9.52 10.5
11/10/2022 7:30:00 AM 5.8 42.44 0.293 7.37 8.99 10.56
11/10/2022 7:45:00 AM 5.78 42.404 0.293 7.37 10.06 10.67
11/10/2022 8:00:00 AM 5.77 42.386 0.293 7.38 9.08 10.75
11/10/2022 8:15:00 AM 5.79 42.422 0.293 7.39 9.16 10.87
11/10/2022 8:30:00 AM 5.84 42.512 0.293 7.4 9.8 11.01
11/10/2022 8:45:00 AM 5.9 42.62 0.293 7.41 9.9 11.15
11/10/2022 9:00:00 AM 6 42.8 0.293 7.41 9.38 11.27